<?xml version="1.0" encoding="UTF-8" standalone="no" ?>
<gpx xmlns="http://www.topografix.com/GPX/1/1" xmlns:xsi="http://www.w3.org/2001/XMLSchema-instance" xsi:schemaLocation="http://www.topografix.com/GPX/1/1 http://www.topografix.com/GPX/1/1/gpx.xsd" version="1.1" creator="VisuGPX - https://www.visugpx.com">
  <metadata>
    <name>Rando de 17km en boucle Diesen Falck </name>
    <desc><![CDATA[Depuis Diesen vers les étangs de Creutzwald et direction Falck avec les séquoias la grotte et la Madone.
]]></desc>
  </metadata>
  <trk>
    <name><![CDATA[2020-01-20 13:57:02]]></name>
    <trkseg>
      <trkpt lat="49.17709" lon="6.67582">
        <ele>229</ele>
        <time>2020-01-20T12:57:11.000Z</time>
      </trkpt>
      <trkpt lat="49.17721" lon="6.67585">
        <ele>227</ele>
        <time>2020-01-20T12:57:21.000Z</time>
      </trkpt>
      <trkpt lat="49.17721" lon="6.67588">
        <ele>227</ele>
        <time>2020-01-20T12:57:31.000Z</time>
      </trkpt>
      <trkpt lat="49.17724" lon="6.67585">
        <ele>227</ele>
        <time>2020-01-20T12:57:41.000Z</time>
      </trkpt>
      <trkpt lat="49.17735" lon="6.67596">
        <ele>227</ele>
        <time>2020-01-20T12:57:51.000Z</time>
      </trkpt>
      <trkpt lat="49.1774" lon="6.67609">
        <ele>226</ele>
        <time>2020-01-20T12:58:01.000Z</time>
      </trkpt>
      <trkpt lat="49.17743" lon="6.67627">
        <ele>226</ele>
        <time>2020-01-20T12:58:11.000Z</time>
      </trkpt>
      <trkpt lat="49.17746" lon="6.67644">
        <ele>226</ele>
        <time>2020-01-20T12:58:21.000Z</time>
      </trkpt>
      <trkpt lat="49.1775" lon="6.67672">
        <ele>225</ele>
        <time>2020-01-20T12:58:31.000Z</time>
      </trkpt>
      <trkpt lat="49.17752" lon="6.67692">
        <ele>224</ele>
        <time>2020-01-20T12:58:41.000Z</time>
      </trkpt>
      <trkpt lat="49.17753" lon="6.67713">
        <ele>224</ele>
        <time>2020-01-20T12:58:51.000Z</time>
      </trkpt>
      <trkpt lat="49.17752" lon="6.6773">
        <ele>223</ele>
        <time>2020-01-20T12:59:01.000Z</time>
      </trkpt>
      <trkpt lat="49.17749" lon="6.6775">
        <ele>223</ele>
        <time>2020-01-20T12:59:11.000Z</time>
      </trkpt>
      <trkpt lat="49.17753" lon="6.67766">
        <ele>222</ele>
        <time>2020-01-20T12:59:21.000Z</time>
      </trkpt>
      <trkpt lat="49.17755" lon="6.67783">
        <ele>222</ele>
        <time>2020-01-20T12:59:31.000Z</time>
      </trkpt>
      <trkpt lat="49.17762" lon="6.67785">
        <ele>222</ele>
        <time>2020-01-20T12:59:41.000Z</time>
      </trkpt>
      <trkpt lat="49.17766" lon="6.67776">
        <ele>222</ele>
        <time>2020-01-20T12:59:51.000Z</time>
      </trkpt>
      <trkpt lat="49.17773" lon="6.67786">
        <ele>222</ele>
        <time>2020-01-20T13:00:01.000Z</time>
      </trkpt>
      <trkpt lat="49.17781" lon="6.67797">
        <ele>221</ele>
        <time>2020-01-20T13:00:11.000Z</time>
      </trkpt>
      <trkpt lat="49.1779" lon="6.67809">
        <ele>221</ele>
        <time>2020-01-20T13:00:21.000Z</time>
      </trkpt>
      <trkpt lat="49.17799" lon="6.67823">
        <ele>221</ele>
        <time>2020-01-20T13:00:31.000Z</time>
      </trkpt>
      <trkpt lat="49.1781" lon="6.67827">
        <ele>220</ele>
        <time>2020-01-20T13:00:41.000Z</time>
      </trkpt>
      <trkpt lat="49.1782" lon="6.67826">
        <ele>220</ele>
        <time>2020-01-20T13:00:51.000Z</time>
      </trkpt>
      <trkpt lat="49.17828" lon="6.6783">
        <ele>219</ele>
        <time>2020-01-20T13:01:01.000Z</time>
      </trkpt>
      <trkpt lat="49.17839" lon="6.67835">
        <ele>218</ele>
        <time>2020-01-20T13:01:11.000Z</time>
      </trkpt>
      <trkpt lat="49.17851" lon="6.67841">
        <ele>218</ele>
        <time>2020-01-20T13:01:21.000Z</time>
      </trkpt>
      <trkpt lat="49.17862" lon="6.67846">
        <ele>219</ele>
        <time>2020-01-20T13:01:31.000Z</time>
      </trkpt>
      <trkpt lat="49.17873" lon="6.67855">
        <ele>219</ele>
        <time>2020-01-20T13:01:41.000Z</time>
      </trkpt>
      <trkpt lat="49.17881" lon="6.67871">
        <ele>219</ele>
        <time>2020-01-20T13:01:51.000Z</time>
      </trkpt>
      <trkpt lat="49.17888" lon="6.67888">
        <ele>219</ele>
        <time>2020-01-20T13:02:01.000Z</time>
      </trkpt>
      <trkpt lat="49.17897" lon="6.67899">
        <ele>219</ele>
        <time>2020-01-20T13:02:11.000Z</time>
      </trkpt>
      <trkpt lat="49.17899" lon="6.6792">
        <ele>220</ele>
        <time>2020-01-20T13:02:21.000Z</time>
      </trkpt>
      <trkpt lat="49.17898" lon="6.67943">
        <ele>221</ele>
        <time>2020-01-20T13:02:31.000Z</time>
      </trkpt>
      <trkpt lat="49.17907" lon="6.67947">
        <ele>221</ele>
        <time>2020-01-20T13:02:41.000Z</time>
      </trkpt>
      <trkpt lat="49.17913" lon="6.67945">
        <ele>221</ele>
        <time>2020-01-20T13:02:51.000Z</time>
      </trkpt>
      <trkpt lat="49.17919" lon="6.67948">
        <ele>222</ele>
        <time>2020-01-20T13:03:01.000Z</time>
      </trkpt>
      <trkpt lat="49.17928" lon="6.67952">
        <ele>222</ele>
        <time>2020-01-20T13:03:11.000Z</time>
      </trkpt>
      <trkpt lat="49.17939" lon="6.67955">
        <ele>223</ele>
        <time>2020-01-20T13:03:21.000Z</time>
      </trkpt>
      <trkpt lat="49.17949" lon="6.67957">
        <ele>223</ele>
        <time>2020-01-20T13:03:31.000Z</time>
      </trkpt>
      <trkpt lat="49.1796" lon="6.6796">
        <ele>224</ele>
        <time>2020-01-20T13:03:41.000Z</time>
      </trkpt>
      <trkpt lat="49.17973" lon="6.67965">
        <ele>224</ele>
        <time>2020-01-20T13:03:51.000Z</time>
      </trkpt>
      <trkpt lat="49.17985" lon="6.67976">
        <ele>226</ele>
        <time>2020-01-20T13:04:01.000Z</time>
      </trkpt>
      <trkpt lat="49.17996" lon="6.67982">
        <ele>227</ele>
        <time>2020-01-20T13:04:11.000Z</time>
      </trkpt>
      <trkpt lat="49.18006" lon="6.67987">
        <ele>228</ele>
        <time>2020-01-20T13:04:21.000Z</time>
      </trkpt>
      <trkpt lat="49.18018" lon="6.67993">
        <ele>227</ele>
        <time>2020-01-20T13:04:31.000Z</time>
      </trkpt>
      <trkpt lat="49.18031" lon="6.68001">
        <ele>232</ele>
        <time>2020-01-20T13:04:41.000Z</time>
      </trkpt>
      <trkpt lat="49.18046" lon="6.68016">
        <ele>231</ele>
        <time>2020-01-20T13:04:51.000Z</time>
      </trkpt>
      <trkpt lat="49.18056" lon="6.68032">
        <ele>231</ele>
        <time>2020-01-20T13:05:01.000Z</time>
      </trkpt>
      <trkpt lat="49.18067" lon="6.68049">
        <ele>232</ele>
        <time>2020-01-20T13:05:11.000Z</time>
      </trkpt>
      <trkpt lat="49.18076" lon="6.68066">
        <ele>233</ele>
        <time>2020-01-20T13:05:21.000Z</time>
      </trkpt>
      <trkpt lat="49.18083" lon="6.6808">
        <ele>233</ele>
        <time>2020-01-20T13:05:31.000Z</time>
      </trkpt>
      <trkpt lat="49.18089" lon="6.68093">
        <ele>231</ele>
        <time>2020-01-20T13:05:41.000Z</time>
      </trkpt>
      <trkpt lat="49.18092" lon="6.68106">
        <ele>230</ele>
        <time>2020-01-20T13:05:51.000Z</time>
      </trkpt>
      <trkpt lat="49.18096" lon="6.68122">
        <ele>230</ele>
        <time>2020-01-20T13:06:01.000Z</time>
      </trkpt>
      <trkpt lat="49.18102" lon="6.68137">
        <ele>229</ele>
        <time>2020-01-20T13:06:11.000Z</time>
      </trkpt>
      <trkpt lat="49.18112" lon="6.68154">
        <ele>229</ele>
        <time>2020-01-20T13:06:21.000Z</time>
      </trkpt>
      <trkpt lat="49.1812" lon="6.68167">
        <ele>231</ele>
        <time>2020-01-20T13:06:31.000Z</time>
      </trkpt>
      <trkpt lat="49.18127" lon="6.68177">
        <ele>231</ele>
        <time>2020-01-20T13:06:41.000Z</time>
      </trkpt>
      <trkpt lat="49.18136" lon="6.6819">
        <ele>232</ele>
        <time>2020-01-20T13:06:51.000Z</time>
      </trkpt>
      <trkpt lat="49.18144" lon="6.68203">
        <ele>232</ele>
        <time>2020-01-20T13:07:01.000Z</time>
      </trkpt>
      <trkpt lat="49.18153" lon="6.68213">
        <ele>233</ele>
        <time>2020-01-20T13:07:11.000Z</time>
      </trkpt>
      <trkpt lat="49.18159" lon="6.68222">
        <ele>234</ele>
        <time>2020-01-20T13:07:21.000Z</time>
      </trkpt>
      <trkpt lat="49.18159" lon="6.68235">
        <ele>235</ele>
        <time>2020-01-20T13:07:31.000Z</time>
      </trkpt>
      <trkpt lat="49.18161" lon="6.68243">
        <ele>237</ele>
        <time>2020-01-20T13:07:41.000Z</time>
      </trkpt>
      <trkpt lat="49.18166" lon="6.6825">
        <ele>239</ele>
        <time>2020-01-20T13:07:51.000Z</time>
      </trkpt>
      <trkpt lat="49.18181" lon="6.68266">
        <ele>241</ele>
        <time>2020-01-20T13:08:01.000Z</time>
      </trkpt>
      <trkpt lat="49.18191" lon="6.68276">
        <ele>242</ele>
        <time>2020-01-20T13:08:11.000Z</time>
      </trkpt>
      <trkpt lat="49.18202" lon="6.68284">
        <ele>242</ele>
        <time>2020-01-20T13:08:21.000Z</time>
      </trkpt>
      <trkpt lat="49.18213" lon="6.68287">
        <ele>242</ele>
        <time>2020-01-20T13:08:31.000Z</time>
      </trkpt>
      <trkpt lat="49.18224" lon="6.68291">
        <ele>243</ele>
        <time>2020-01-20T13:08:41.000Z</time>
      </trkpt>
      <trkpt lat="49.18234" lon="6.68294">
        <ele>243</ele>
        <time>2020-01-20T13:08:51.000Z</time>
      </trkpt>
      <trkpt lat="49.18246" lon="6.68297">
        <ele>243</ele>
        <time>2020-01-20T13:09:01.000Z</time>
      </trkpt>
      <trkpt lat="49.18259" lon="6.68305">
        <ele>242</ele>
        <time>2020-01-20T13:09:11.000Z</time>
      </trkpt>
      <trkpt lat="49.1827" lon="6.68311">
        <ele>242</ele>
        <time>2020-01-20T13:09:21.000Z</time>
      </trkpt>
      <trkpt lat="49.18283" lon="6.68319">
        <ele>242</ele>
        <time>2020-01-20T13:09:31.000Z</time>
      </trkpt>
      <trkpt lat="49.18298" lon="6.6833">
        <ele>241</ele>
        <time>2020-01-20T13:09:41.000Z</time>
      </trkpt>
      <trkpt lat="49.18308" lon="6.68339">
        <ele>243</ele>
        <time>2020-01-20T13:09:51.000Z</time>
      </trkpt>
      <trkpt lat="49.18319" lon="6.68348">
        <ele>243</ele>
        <time>2020-01-20T13:10:01.000Z</time>
      </trkpt>
      <trkpt lat="49.1833" lon="6.68357">
        <ele>243</ele>
        <time>2020-01-20T13:10:11.000Z</time>
      </trkpt>
      <trkpt lat="49.18344" lon="6.68361">
        <ele>241</ele>
        <time>2020-01-20T13:10:21.000Z</time>
      </trkpt>
      <trkpt lat="49.18356" lon="6.68361">
        <ele>241</ele>
        <time>2020-01-20T13:10:31.000Z</time>
      </trkpt>
      <trkpt lat="49.18364" lon="6.68362">
        <ele>241</ele>
        <time>2020-01-20T13:10:41.000Z</time>
      </trkpt>
      <trkpt lat="49.18371" lon="6.68363">
        <ele>240</ele>
        <time>2020-01-20T13:10:51.000Z</time>
      </trkpt>
      <trkpt lat="49.1838" lon="6.68363">
        <ele>240</ele>
        <time>2020-01-20T13:11:01.000Z</time>
      </trkpt>
      <trkpt lat="49.18395" lon="6.68362">
        <ele>240</ele>
        <time>2020-01-20T13:11:11.000Z</time>
      </trkpt>
      <trkpt lat="49.18407" lon="6.68353">
        <ele>239</ele>
        <time>2020-01-20T13:11:21.000Z</time>
      </trkpt>
      <trkpt lat="49.1841" lon="6.6834">
        <ele>238</ele>
        <time>2020-01-20T13:11:31.000Z</time>
      </trkpt>
      <trkpt lat="49.18412" lon="6.68337">
        <ele>238</ele>
        <time>2020-01-20T13:11:41.000Z</time>
      </trkpt>
      <trkpt lat="49.18416" lon="6.68326">
        <ele>236</ele>
        <time>2020-01-20T13:11:51.000Z</time>
      </trkpt>
      <trkpt lat="49.18421" lon="6.68319">
        <ele>234</ele>
        <time>2020-01-20T13:12:01.000Z</time>
      </trkpt>
      <trkpt lat="49.18425" lon="6.68309">
        <ele>232</ele>
        <time>2020-01-20T13:12:11.000Z</time>
      </trkpt>
      <trkpt lat="49.18431" lon="6.68293">
        <ele>230</ele>
        <time>2020-01-20T13:12:21.000Z</time>
      </trkpt>
      <trkpt lat="49.18442" lon="6.68285">
        <ele>229</ele>
        <time>2020-01-20T13:12:31.000Z</time>
      </trkpt>
      <trkpt lat="49.18452" lon="6.68272">
        <ele>228</ele>
        <time>2020-01-20T13:12:41.000Z</time>
      </trkpt>
      <trkpt lat="49.18465" lon="6.68265">
        <ele>228</ele>
        <time>2020-01-20T13:12:51.000Z</time>
      </trkpt>
      <trkpt lat="49.1848" lon="6.68251">
        <ele>227</ele>
        <time>2020-01-20T13:13:01.000Z</time>
      </trkpt>
      <trkpt lat="49.18488" lon="6.68246">
        <ele>222</ele>
        <time>2020-01-20T13:13:11.000Z</time>
      </trkpt>
      <trkpt lat="49.18501" lon="6.68242">
        <ele>223</ele>
        <time>2020-01-20T13:13:21.000Z</time>
      </trkpt>
      <trkpt lat="49.18509" lon="6.68235">
        <ele>222</ele>
        <time>2020-01-20T13:13:31.000Z</time>
      </trkpt>
      <trkpt lat="49.1852" lon="6.68227">
        <ele>221</ele>
        <time>2020-01-20T13:13:41.000Z</time>
      </trkpt>
      <trkpt lat="49.18529" lon="6.6822">
        <ele>221</ele>
        <time>2020-01-20T13:13:51.000Z</time>
      </trkpt>
      <trkpt lat="49.18541" lon="6.68217">
        <ele>221</ele>
        <time>2020-01-20T13:14:01.000Z</time>
      </trkpt>
      <trkpt lat="49.18557" lon="6.68217">
        <ele>221</ele>
        <time>2020-01-20T13:14:11.000Z</time>
      </trkpt>
      <trkpt lat="49.18569" lon="6.68214">
        <ele>221</ele>
        <time>2020-01-20T13:14:21.000Z</time>
      </trkpt>
      <trkpt lat="49.18579" lon="6.68209">
        <ele>220</ele>
        <time>2020-01-20T13:14:31.000Z</time>
      </trkpt>
      <trkpt lat="49.1859" lon="6.68199">
        <ele>220</ele>
        <time>2020-01-20T13:14:41.000Z</time>
      </trkpt>
      <trkpt lat="49.18602" lon="6.68194">
        <ele>220</ele>
        <time>2020-01-20T13:14:51.000Z</time>
      </trkpt>
      <trkpt lat="49.18612" lon="6.68184">
        <ele>220</ele>
        <time>2020-01-20T13:15:01.000Z</time>
      </trkpt>
      <trkpt lat="49.18624" lon="6.68179">
        <ele>220</ele>
        <time>2020-01-20T13:15:11.000Z</time>
      </trkpt>
      <trkpt lat="49.18639" lon="6.6817">
        <ele>220</ele>
        <time>2020-01-20T13:15:21.000Z</time>
      </trkpt>
      <trkpt lat="49.18654" lon="6.68161">
        <ele>218</ele>
        <time>2020-01-20T13:15:31.000Z</time>
      </trkpt>
      <trkpt lat="49.1866" lon="6.68146">
        <ele>218</ele>
        <time>2020-01-20T13:15:41.000Z</time>
      </trkpt>
      <trkpt lat="49.18662" lon="6.68131">
        <ele>217</ele>
        <time>2020-01-20T13:15:51.000Z</time>
      </trkpt>
      <trkpt lat="49.1866" lon="6.68124">
        <ele>216</ele>
        <time>2020-01-20T13:16:01.000Z</time>
      </trkpt>
      <trkpt lat="49.18662" lon="6.68129">
        <ele>217</ele>
        <time>2020-01-20T13:16:22.000Z</time>
      </trkpt>
      <trkpt lat="49.18672" lon="6.68126">
        <ele>219</ele>
        <time>2020-01-20T13:18:31.000Z</time>
      </trkpt>
      <trkpt lat="49.1867" lon="6.68124">
        <ele>219</ele>
        <time>2020-01-20T13:18:41.000Z</time>
      </trkpt>
      <trkpt lat="49.18668" lon="6.68124">
        <ele>219</ele>
        <time>2020-01-20T13:18:51.000Z</time>
      </trkpt>
      <trkpt lat="49.18667" lon="6.68124">
        <ele>219</ele>
        <time>2020-01-20T13:19:42.000Z</time>
      </trkpt>
      <trkpt lat="49.18665" lon="6.68118">
        <ele>216</ele>
        <time>2020-01-20T13:19:52.000Z</time>
      </trkpt>
      <trkpt lat="49.18661" lon="6.6811">
        <ele>216</ele>
        <time>2020-01-20T13:20:02.000Z</time>
      </trkpt>
      <trkpt lat="49.1866" lon="6.68087">
        <ele>215</ele>
        <time>2020-01-20T13:20:12.000Z</time>
      </trkpt>
      <trkpt lat="49.18669" lon="6.68061">
        <ele>216</ele>
        <time>2020-01-20T13:20:22.000Z</time>
      </trkpt>
      <trkpt lat="49.18678" lon="6.68038">
        <ele>216</ele>
        <time>2020-01-20T13:20:32.000Z</time>
      </trkpt>
      <trkpt lat="49.18685" lon="6.68022">
        <ele>216</ele>
        <time>2020-01-20T13:20:42.000Z</time>
      </trkpt>
      <trkpt lat="49.18692" lon="6.68011">
        <ele>216</ele>
        <time>2020-01-20T13:20:52.000Z</time>
      </trkpt>
      <trkpt lat="49.18701" lon="6.68">
        <ele>217</ele>
        <time>2020-01-20T13:21:02.000Z</time>
      </trkpt>
      <trkpt lat="49.18707" lon="6.67988">
        <ele>217</ele>
        <time>2020-01-20T13:21:12.000Z</time>
      </trkpt>
      <trkpt lat="49.18721" lon="6.67981">
        <ele>217</ele>
        <time>2020-01-20T13:21:22.000Z</time>
      </trkpt>
      <trkpt lat="49.18732" lon="6.67968">
        <ele>217</ele>
        <time>2020-01-20T13:21:32.000Z</time>
      </trkpt>
      <trkpt lat="49.18742" lon="6.67955">
        <ele>218</ele>
        <time>2020-01-20T13:21:42.000Z</time>
      </trkpt>
      <trkpt lat="49.18749" lon="6.67941">
        <ele>218</ele>
        <time>2020-01-20T13:21:52.000Z</time>
      </trkpt>
      <trkpt lat="49.1876" lon="6.67928">
        <ele>218</ele>
        <time>2020-01-20T13:22:02.000Z</time>
      </trkpt>
      <trkpt lat="49.18772" lon="6.67915">
        <ele>217</ele>
        <time>2020-01-20T13:22:12.000Z</time>
      </trkpt>
      <trkpt lat="49.18783" lon="6.67903">
        <ele>216</ele>
        <time>2020-01-20T13:22:22.000Z</time>
      </trkpt>
      <trkpt lat="49.18792" lon="6.67889">
        <ele>215</ele>
        <time>2020-01-20T13:22:32.000Z</time>
      </trkpt>
      <trkpt lat="49.18799" lon="6.67876">
        <ele>215</ele>
        <time>2020-01-20T13:22:42.000Z</time>
      </trkpt>
      <trkpt lat="49.18805" lon="6.67863">
        <ele>215</ele>
        <time>2020-01-20T13:22:52.000Z</time>
      </trkpt>
      <trkpt lat="49.18814" lon="6.6785">
        <ele>215</ele>
        <time>2020-01-20T13:23:02.000Z</time>
      </trkpt>
      <trkpt lat="49.18829" lon="6.67839">
        <ele>214</ele>
        <time>2020-01-20T13:23:12.000Z</time>
      </trkpt>
      <trkpt lat="49.18841" lon="6.67826">
        <ele>213</ele>
        <time>2020-01-20T13:23:22.000Z</time>
      </trkpt>
      <trkpt lat="49.1885" lon="6.67814">
        <ele>213</ele>
        <time>2020-01-20T13:23:32.000Z</time>
      </trkpt>
      <trkpt lat="49.18855" lon="6.67802">
        <ele>213</ele>
        <time>2020-01-20T13:23:42.000Z</time>
      </trkpt>
      <trkpt lat="49.18862" lon="6.6779">
        <ele>213</ele>
        <time>2020-01-20T13:23:52.000Z</time>
      </trkpt>
      <trkpt lat="49.18867" lon="6.67778">
        <ele>213</ele>
        <time>2020-01-20T13:24:02.000Z</time>
      </trkpt>
      <trkpt lat="49.18873" lon="6.67769">
        <ele>213</ele>
        <time>2020-01-20T13:24:12.000Z</time>
      </trkpt>
      <trkpt lat="49.18884" lon="6.67759">
        <ele>213</ele>
        <time>2020-01-20T13:24:22.000Z</time>
      </trkpt>
      <trkpt lat="49.18898" lon="6.67754">
        <ele>213</ele>
        <time>2020-01-20T13:24:32.000Z</time>
      </trkpt>
      <trkpt lat="49.18912" lon="6.67754">
        <ele>213</ele>
        <time>2020-01-20T13:24:42.000Z</time>
      </trkpt>
      <trkpt lat="49.18928" lon="6.67757">
        <ele>213</ele>
        <time>2020-01-20T13:24:52.000Z</time>
      </trkpt>
      <trkpt lat="49.18941" lon="6.67761">
        <ele>213</ele>
        <time>2020-01-20T13:25:02.000Z</time>
      </trkpt>
      <trkpt lat="49.18954" lon="6.67769">
        <ele>214</ele>
        <time>2020-01-20T13:25:12.000Z</time>
      </trkpt>
      <trkpt lat="49.18956" lon="6.67779">
        <ele>214</ele>
        <time>2020-01-20T13:25:22.000Z</time>
      </trkpt>
      <trkpt lat="49.18957" lon="6.67778">
        <ele>214</ele>
        <time>2020-01-20T13:25:46.000Z</time>
      </trkpt>
      <trkpt lat="49.18958" lon="6.67778">
        <ele>214</ele>
        <time>2020-01-20T13:26:03.000Z</time>
      </trkpt>
      <trkpt lat="49.18962" lon="6.67785">
        <ele>214</ele>
        <time>2020-01-20T13:26:13.000Z</time>
      </trkpt>
      <trkpt lat="49.18963" lon="6.67787">
        <ele>214</ele>
        <time>2020-01-20T13:26:23.000Z</time>
      </trkpt>
      <trkpt lat="49.18964" lon="6.67787">
        <ele>214</ele>
        <time>2020-01-20T13:26:37.000Z</time>
      </trkpt>
      <trkpt lat="49.18972" lon="6.67785">
        <ele>214</ele>
        <time>2020-01-20T13:26:47.000Z</time>
      </trkpt>
      <trkpt lat="49.18983" lon="6.67788">
        <ele>214</ele>
        <time>2020-01-20T13:26:57.000Z</time>
      </trkpt>
      <trkpt lat="49.18999" lon="6.67792">
        <ele>214</ele>
        <time>2020-01-20T13:27:07.000Z</time>
      </trkpt>
      <trkpt lat="49.19012" lon="6.67796">
        <ele>213</ele>
        <time>2020-01-20T13:27:17.000Z</time>
      </trkpt>
      <trkpt lat="49.19025" lon="6.678">
        <ele>213</ele>
        <time>2020-01-20T13:27:27.000Z</time>
      </trkpt>
      <trkpt lat="49.19038" lon="6.67805">
        <ele>213</ele>
        <time>2020-01-20T13:27:37.000Z</time>
      </trkpt>
      <trkpt lat="49.19052" lon="6.67811">
        <ele>213</ele>
        <time>2020-01-20T13:27:47.000Z</time>
      </trkpt>
      <trkpt lat="49.19065" lon="6.67816">
        <ele>212</ele>
        <time>2020-01-20T13:27:57.000Z</time>
      </trkpt>
      <trkpt lat="49.19078" lon="6.67822">
        <ele>212</ele>
        <time>2020-01-20T13:28:07.000Z</time>
      </trkpt>
      <trkpt lat="49.1909" lon="6.67827">
        <ele>212</ele>
        <time>2020-01-20T13:28:17.000Z</time>
      </trkpt>
      <trkpt lat="49.19104" lon="6.67832">
        <ele>213</ele>
        <time>2020-01-20T13:28:27.000Z</time>
      </trkpt>
      <trkpt lat="49.19117" lon="6.67838">
        <ele>215</ele>
        <time>2020-01-20T13:28:37.000Z</time>
      </trkpt>
      <trkpt lat="49.19131" lon="6.67843">
        <ele>216</ele>
        <time>2020-01-20T13:28:47.000Z</time>
      </trkpt>
      <trkpt lat="49.19143" lon="6.6785">
        <ele>216</ele>
        <time>2020-01-20T13:28:57.000Z</time>
      </trkpt>
      <trkpt lat="49.19155" lon="6.67858">
        <ele>216</ele>
        <time>2020-01-20T13:29:07.000Z</time>
      </trkpt>
      <trkpt lat="49.19156" lon="6.67852">
        <ele>216</ele>
        <time>2020-01-20T13:29:17.000Z</time>
      </trkpt>
      <trkpt lat="49.19155" lon="6.67854">
        <ele>216</ele>
        <time>2020-01-20T13:29:27.000Z</time>
      </trkpt>
      <trkpt lat="49.19154" lon="6.67862">
        <ele>216</ele>
        <time>2020-01-20T13:30:03.000Z</time>
      </trkpt>
      <trkpt lat="49.19162" lon="6.67875">
        <ele>216</ele>
        <time>2020-01-20T13:30:13.000Z</time>
      </trkpt>
      <trkpt lat="49.19174" lon="6.67886">
        <ele>216</ele>
        <time>2020-01-20T13:30:23.000Z</time>
      </trkpt>
      <trkpt lat="49.19184" lon="6.67899">
        <ele>216</ele>
        <time>2020-01-20T13:30:33.000Z</time>
      </trkpt>
      <trkpt lat="49.19192" lon="6.67917">
        <ele>218</ele>
        <time>2020-01-20T13:30:43.000Z</time>
      </trkpt>
      <trkpt lat="49.19202" lon="6.6793">
        <ele>218</ele>
        <time>2020-01-20T13:30:53.000Z</time>
      </trkpt>
      <trkpt lat="49.19209" lon="6.67922">
        <ele>218</ele>
        <time>2020-01-20T13:31:03.000Z</time>
      </trkpt>
      <trkpt lat="49.19213" lon="6.67909">
        <ele>217</ele>
        <time>2020-01-20T13:31:13.000Z</time>
      </trkpt>
      <trkpt lat="49.19219" lon="6.67897">
        <ele>217</ele>
        <time>2020-01-20T13:31:23.000Z</time>
      </trkpt>
      <trkpt lat="49.19225" lon="6.67881">
        <ele>217</ele>
        <time>2020-01-20T13:31:33.000Z</time>
      </trkpt>
      <trkpt lat="49.19232" lon="6.67867">
        <ele>217</ele>
        <time>2020-01-20T13:31:43.000Z</time>
      </trkpt>
      <trkpt lat="49.1924" lon="6.67851">
        <ele>218</ele>
        <time>2020-01-20T13:31:53.000Z</time>
      </trkpt>
      <trkpt lat="49.19247" lon="6.67834">
        <ele>218</ele>
        <time>2020-01-20T13:32:03.000Z</time>
      </trkpt>
      <trkpt lat="49.19254" lon="6.67817">
        <ele>218</ele>
        <time>2020-01-20T13:32:13.000Z</time>
      </trkpt>
      <trkpt lat="49.19259" lon="6.67799">
        <ele>218</ele>
        <time>2020-01-20T13:32:23.000Z</time>
      </trkpt>
      <trkpt lat="49.19265" lon="6.67783">
        <ele>218</ele>
        <time>2020-01-20T13:32:33.000Z</time>
      </trkpt>
      <trkpt lat="49.19273" lon="6.67767">
        <ele>218</ele>
        <time>2020-01-20T13:32:43.000Z</time>
      </trkpt>
      <trkpt lat="49.19281" lon="6.67752">
        <ele>218</ele>
        <time>2020-01-20T13:32:53.000Z</time>
      </trkpt>
      <trkpt lat="49.19287" lon="6.67736">
        <ele>219</ele>
        <time>2020-01-20T13:33:03.000Z</time>
      </trkpt>
      <trkpt lat="49.19296" lon="6.67722">
        <ele>219</ele>
        <time>2020-01-20T13:33:13.000Z</time>
      </trkpt>
      <trkpt lat="49.19299" lon="6.67705">
        <ele>220</ele>
        <time>2020-01-20T13:33:23.000Z</time>
      </trkpt>
      <trkpt lat="49.19294" lon="6.67697">
        <ele>219</ele>
        <time>2020-01-20T13:33:33.000Z</time>
      </trkpt>
      <trkpt lat="49.19293" lon="6.67689">
        <ele>219</ele>
        <time>2020-01-20T13:33:43.000Z</time>
      </trkpt>
      <trkpt lat="49.19295" lon="6.67685">
        <ele>219</ele>
        <time>2020-01-20T13:33:53.000Z</time>
      </trkpt>
      <trkpt lat="49.19296" lon="6.67684">
        <ele>220</ele>
        <time>2020-01-20T13:34:03.000Z</time>
      </trkpt>
      <trkpt lat="49.19304" lon="6.67681">
        <ele>220</ele>
        <time>2020-01-20T13:34:13.000Z</time>
      </trkpt>
      <trkpt lat="49.19317" lon="6.67679">
        <ele>221</ele>
        <time>2020-01-20T13:34:23.000Z</time>
      </trkpt>
      <trkpt lat="49.19324" lon="6.67689">
        <ele>221</ele>
        <time>2020-01-20T13:34:33.000Z</time>
      </trkpt>
      <trkpt lat="49.1933" lon="6.67702">
        <ele>221</ele>
        <time>2020-01-20T13:34:43.000Z</time>
      </trkpt>
      <trkpt lat="49.19338" lon="6.67712">
        <ele>224</ele>
        <time>2020-01-20T13:34:53.000Z</time>
      </trkpt>
      <trkpt lat="49.19348" lon="6.67717">
        <ele>224</ele>
        <time>2020-01-20T13:35:03.000Z</time>
      </trkpt>
      <trkpt lat="49.19354" lon="6.67727">
        <ele>224</ele>
        <time>2020-01-20T13:35:13.000Z</time>
      </trkpt>
      <trkpt lat="49.19356" lon="6.67736">
        <ele>223</ele>
        <time>2020-01-20T13:35:23.000Z</time>
      </trkpt>
      <trkpt lat="49.19363" lon="6.67727">
        <ele>224</ele>
        <time>2020-01-20T13:35:33.000Z</time>
      </trkpt>
      <trkpt lat="49.19373" lon="6.67719">
        <ele>224</ele>
        <time>2020-01-20T13:35:43.000Z</time>
      </trkpt>
      <trkpt lat="49.1938" lon="6.67705">
        <ele>224</ele>
        <time>2020-01-20T13:35:53.000Z</time>
      </trkpt>
      <trkpt lat="49.19386" lon="6.67692">
        <ele>225</ele>
        <time>2020-01-20T13:36:03.000Z</time>
      </trkpt>
      <trkpt lat="49.19392" lon="6.67676">
        <ele>225</ele>
        <time>2020-01-20T13:36:13.000Z</time>
      </trkpt>
      <trkpt lat="49.19396" lon="6.67659">
        <ele>226</ele>
        <time>2020-01-20T13:36:23.000Z</time>
      </trkpt>
      <trkpt lat="49.19403" lon="6.67641">
        <ele>226</ele>
        <time>2020-01-20T13:36:33.000Z</time>
      </trkpt>
      <trkpt lat="49.19409" lon="6.67624">
        <ele>226</ele>
        <time>2020-01-20T13:36:43.000Z</time>
      </trkpt>
      <trkpt lat="49.19414" lon="6.67608">
        <ele>226</ele>
        <time>2020-01-20T13:36:53.000Z</time>
      </trkpt>
      <trkpt lat="49.1942" lon="6.67593">
        <ele>228</ele>
        <time>2020-01-20T13:37:03.000Z</time>
      </trkpt>
      <trkpt lat="49.19428" lon="6.67576">
        <ele>228</ele>
        <time>2020-01-20T13:37:13.000Z</time>
      </trkpt>
      <trkpt lat="49.19437" lon="6.67557">
        <ele>229</ele>
        <time>2020-01-20T13:37:23.000Z</time>
      </trkpt>
      <trkpt lat="49.19444" lon="6.67539">
        <ele>229</ele>
        <time>2020-01-20T13:37:33.000Z</time>
      </trkpt>
      <trkpt lat="49.19451" lon="6.67522">
        <ele>229</ele>
        <time>2020-01-20T13:37:43.000Z</time>
      </trkpt>
      <trkpt lat="49.19457" lon="6.67504">
        <ele>229</ele>
        <time>2020-01-20T13:37:53.000Z</time>
      </trkpt>
      <trkpt lat="49.19462" lon="6.67488">
        <ele>228</ele>
        <time>2020-01-20T13:38:03.000Z</time>
      </trkpt>
      <trkpt lat="49.19469" lon="6.67471">
        <ele>228</ele>
        <time>2020-01-20T13:38:13.000Z</time>
      </trkpt>
      <trkpt lat="49.19476" lon="6.67453">
        <ele>228</ele>
        <time>2020-01-20T13:38:23.000Z</time>
      </trkpt>
      <trkpt lat="49.19485" lon="6.67436">
        <ele>228</ele>
        <time>2020-01-20T13:38:33.000Z</time>
      </trkpt>
      <trkpt lat="49.19492" lon="6.67419">
        <ele>229</ele>
        <time>2020-01-20T13:38:43.000Z</time>
      </trkpt>
      <trkpt lat="49.19497" lon="6.67403">
        <ele>228</ele>
        <time>2020-01-20T13:38:53.000Z</time>
      </trkpt>
      <trkpt lat="49.19503" lon="6.67387">
        <ele>231</ele>
        <time>2020-01-20T13:39:03.000Z</time>
      </trkpt>
      <trkpt lat="49.19508" lon="6.67371">
        <ele>231</ele>
        <time>2020-01-20T13:39:13.000Z</time>
      </trkpt>
      <trkpt lat="49.19513" lon="6.67354">
        <ele>231</ele>
        <time>2020-01-20T13:39:23.000Z</time>
      </trkpt>
      <trkpt lat="49.19516" lon="6.67338">
        <ele>230</ele>
        <time>2020-01-20T13:39:33.000Z</time>
      </trkpt>
      <trkpt lat="49.19518" lon="6.67321">
        <ele>230</ele>
        <time>2020-01-20T13:39:43.000Z</time>
      </trkpt>
      <trkpt lat="49.19519" lon="6.67302">
        <ele>231</ele>
        <time>2020-01-20T13:39:53.000Z</time>
      </trkpt>
      <trkpt lat="49.19521" lon="6.67284">
        <ele>231</ele>
        <time>2020-01-20T13:40:03.000Z</time>
      </trkpt>
      <trkpt lat="49.19526" lon="6.67264">
        <ele>231</ele>
        <time>2020-01-20T13:40:13.000Z</time>
      </trkpt>
      <trkpt lat="49.19535" lon="6.67244">
        <ele>231</ele>
        <time>2020-01-20T13:40:23.000Z</time>
      </trkpt>
      <trkpt lat="49.19546" lon="6.67227">
        <ele>231</ele>
        <time>2020-01-20T13:40:33.000Z</time>
      </trkpt>
      <trkpt lat="49.19557" lon="6.67212">
        <ele>231</ele>
        <time>2020-01-20T13:40:43.000Z</time>
      </trkpt>
      <trkpt lat="49.19567" lon="6.67196">
        <ele>231</ele>
        <time>2020-01-20T13:40:53.000Z</time>
      </trkpt>
      <trkpt lat="49.19576" lon="6.67182">
        <ele>232</ele>
        <time>2020-01-20T13:41:03.000Z</time>
      </trkpt>
      <trkpt lat="49.19584" lon="6.67168">
        <ele>232</ele>
        <time>2020-01-20T13:41:13.000Z</time>
      </trkpt>
      <trkpt lat="49.1959" lon="6.67152">
        <ele>235</ele>
        <time>2020-01-20T13:41:23.000Z</time>
      </trkpt>
      <trkpt lat="49.19599" lon="6.67138">
        <ele>236</ele>
        <time>2020-01-20T13:41:33.000Z</time>
      </trkpt>
      <trkpt lat="49.19607" lon="6.67124">
        <ele>237</ele>
        <time>2020-01-20T13:41:43.000Z</time>
      </trkpt>
      <trkpt lat="49.19617" lon="6.67115">
        <ele>237</ele>
        <time>2020-01-20T13:41:53.000Z</time>
      </trkpt>
      <trkpt lat="49.19626" lon="6.67102">
        <ele>237</ele>
        <time>2020-01-20T13:42:03.000Z</time>
      </trkpt>
      <trkpt lat="49.19636" lon="6.67089">
        <ele>238</ele>
        <time>2020-01-20T13:42:13.000Z</time>
      </trkpt>
      <trkpt lat="49.19646" lon="6.67077">
        <ele>240</ele>
        <time>2020-01-20T13:42:23.000Z</time>
      </trkpt>
      <trkpt lat="49.19657" lon="6.67065">
        <ele>240</ele>
        <time>2020-01-20T13:42:33.000Z</time>
      </trkpt>
      <trkpt lat="49.19668" lon="6.67054">
        <ele>240</ele>
        <time>2020-01-20T13:42:43.000Z</time>
      </trkpt>
      <trkpt lat="49.19679" lon="6.67044">
        <ele>241</ele>
        <time>2020-01-20T13:42:53.000Z</time>
      </trkpt>
      <trkpt lat="49.1969" lon="6.67035">
        <ele>241</ele>
        <time>2020-01-20T13:43:03.000Z</time>
      </trkpt>
      <trkpt lat="49.19699" lon="6.67026">
        <ele>241</ele>
        <time>2020-01-20T13:43:13.000Z</time>
      </trkpt>
      <trkpt lat="49.1971" lon="6.67018">
        <ele>240</ele>
        <time>2020-01-20T13:43:23.000Z</time>
      </trkpt>
      <trkpt lat="49.19721" lon="6.67008">
        <ele>240</ele>
        <time>2020-01-20T13:43:33.000Z</time>
      </trkpt>
      <trkpt lat="49.19732" lon="6.66996">
        <ele>240</ele>
        <time>2020-01-20T13:43:43.000Z</time>
      </trkpt>
      <trkpt lat="49.19741" lon="6.66986">
        <ele>240</ele>
        <time>2020-01-20T13:43:53.000Z</time>
      </trkpt>
      <trkpt lat="49.19752" lon="6.66979">
        <ele>239</ele>
        <time>2020-01-20T13:44:03.000Z</time>
      </trkpt>
      <trkpt lat="49.19765" lon="6.66976">
        <ele>239</ele>
        <time>2020-01-20T13:44:13.000Z</time>
      </trkpt>
      <trkpt lat="49.19778" lon="6.6697">
        <ele>239</ele>
        <time>2020-01-20T13:44:23.000Z</time>
      </trkpt>
      <trkpt lat="49.19792" lon="6.66963">
        <ele>239</ele>
        <time>2020-01-20T13:44:33.000Z</time>
      </trkpt>
      <trkpt lat="49.19803" lon="6.66958">
        <ele>239</ele>
        <time>2020-01-20T13:44:43.000Z</time>
      </trkpt>
      <trkpt lat="49.19815" lon="6.66951">
        <ele>238</ele>
        <time>2020-01-20T13:44:53.000Z</time>
      </trkpt>
      <trkpt lat="49.1983" lon="6.66943">
        <ele>238</ele>
        <time>2020-01-20T13:45:03.000Z</time>
      </trkpt>
      <trkpt lat="49.19843" lon="6.66931">
        <ele>237</ele>
        <time>2020-01-20T13:45:13.000Z</time>
      </trkpt>
      <trkpt lat="49.19857" lon="6.6692">
        <ele>238</ele>
        <time>2020-01-20T13:45:23.000Z</time>
      </trkpt>
      <trkpt lat="49.19869" lon="6.66913">
        <ele>236</ele>
        <time>2020-01-20T13:45:33.000Z</time>
      </trkpt>
      <trkpt lat="49.19882" lon="6.66905">
        <ele>236</ele>
        <time>2020-01-20T13:45:43.000Z</time>
      </trkpt>
      <trkpt lat="49.19893" lon="6.66896">
        <ele>236</ele>
        <time>2020-01-20T13:45:53.000Z</time>
      </trkpt>
      <trkpt lat="49.19905" lon="6.66891">
        <ele>236</ele>
        <time>2020-01-20T13:46:03.000Z</time>
      </trkpt>
      <trkpt lat="49.19917" lon="6.66884">
        <ele>234</ele>
        <time>2020-01-20T13:46:13.000Z</time>
      </trkpt>
      <trkpt lat="49.19931" lon="6.66873">
        <ele>234</ele>
        <time>2020-01-20T13:46:23.000Z</time>
      </trkpt>
      <trkpt lat="49.19942" lon="6.66865">
        <ele>233</ele>
        <time>2020-01-20T13:46:33.000Z</time>
      </trkpt>
      <trkpt lat="49.19954" lon="6.66859">
        <ele>233</ele>
        <time>2020-01-20T13:46:43.000Z</time>
      </trkpt>
      <trkpt lat="49.19969" lon="6.66853">
        <ele>233</ele>
        <time>2020-01-20T13:46:53.000Z</time>
      </trkpt>
      <trkpt lat="49.19983" lon="6.66844">
        <ele>233</ele>
        <time>2020-01-20T13:47:03.000Z</time>
      </trkpt>
      <trkpt lat="49.19995" lon="6.66837">
        <ele>232</ele>
        <time>2020-01-20T13:47:13.000Z</time>
      </trkpt>
      <trkpt lat="49.20008" lon="6.66829">
        <ele>231</ele>
        <time>2020-01-20T13:47:23.000Z</time>
      </trkpt>
      <trkpt lat="49.20021" lon="6.66822">
        <ele>230</ele>
        <time>2020-01-20T13:47:33.000Z</time>
      </trkpt>
      <trkpt lat="49.20033" lon="6.66813">
        <ele>230</ele>
        <time>2020-01-20T13:47:43.000Z</time>
      </trkpt>
      <trkpt lat="49.20045" lon="6.66805">
        <ele>230</ele>
        <time>2020-01-20T13:47:53.000Z</time>
      </trkpt>
      <trkpt lat="49.20059" lon="6.66797">
        <ele>230</ele>
        <time>2020-01-20T13:48:03.000Z</time>
      </trkpt>
      <trkpt lat="49.20073" lon="6.66791">
        <ele>230</ele>
        <time>2020-01-20T13:48:13.000Z</time>
      </trkpt>
      <trkpt lat="49.20086" lon="6.66787">
        <ele>231</ele>
        <time>2020-01-20T13:48:23.000Z</time>
      </trkpt>
      <trkpt lat="49.20099" lon="6.66785">
        <ele>230</ele>
        <time>2020-01-20T13:48:33.000Z</time>
      </trkpt>
      <trkpt lat="49.20112" lon="6.66786">
        <ele>231</ele>
        <time>2020-01-20T13:48:43.000Z</time>
      </trkpt>
      <trkpt lat="49.20127" lon="6.6679">
        <ele>231</ele>
        <time>2020-01-20T13:48:53.000Z</time>
      </trkpt>
      <trkpt lat="49.20141" lon="6.66795">
        <ele>231</ele>
        <time>2020-01-20T13:49:03.000Z</time>
      </trkpt>
      <trkpt lat="49.20153" lon="6.66799">
        <ele>231</ele>
        <time>2020-01-20T13:49:13.000Z</time>
      </trkpt>
      <trkpt lat="49.20166" lon="6.66805">
        <ele>231</ele>
        <time>2020-01-20T13:49:23.000Z</time>
      </trkpt>
      <trkpt lat="49.20174" lon="6.66801">
        <ele>229</ele>
        <time>2020-01-20T13:49:33.000Z</time>
      </trkpt>
      <trkpt lat="49.20173" lon="6.66793">
        <ele>229</ele>
        <time>2020-01-20T13:49:43.000Z</time>
      </trkpt>
      <trkpt lat="49.20172" lon="6.66788">
        <ele>229</ele>
        <time>2020-01-20T13:49:53.000Z</time>
      </trkpt>
      <trkpt lat="49.20175" lon="6.66775">
        <ele>228</ele>
        <time>2020-01-20T13:50:03.000Z</time>
      </trkpt>
      <trkpt lat="49.20179" lon="6.66758">
        <ele>228</ele>
        <time>2020-01-20T13:50:13.000Z</time>
      </trkpt>
      <trkpt lat="49.20179" lon="6.66739">
        <ele>227</ele>
        <time>2020-01-20T13:50:23.000Z</time>
      </trkpt>
      <trkpt lat="49.20185" lon="6.66722">
        <ele>227</ele>
        <time>2020-01-20T13:50:33.000Z</time>
      </trkpt>
      <trkpt lat="49.20199" lon="6.66705">
        <ele>227</ele>
        <time>2020-01-20T13:50:43.000Z</time>
      </trkpt>
      <trkpt lat="49.20212" lon="6.66693">
        <ele>226</ele>
        <time>2020-01-20T13:50:53.000Z</time>
      </trkpt>
      <trkpt lat="49.20226" lon="6.66684">
        <ele>226</ele>
        <time>2020-01-20T13:51:03.000Z</time>
      </trkpt>
      <trkpt lat="49.20238" lon="6.66677">
        <ele>226</ele>
        <time>2020-01-20T13:51:13.000Z</time>
      </trkpt>
      <trkpt lat="49.20252" lon="6.66669">
        <ele>226</ele>
        <time>2020-01-20T13:51:23.000Z</time>
      </trkpt>
      <trkpt lat="49.20264" lon="6.66662">
        <ele>226</ele>
        <time>2020-01-20T13:51:33.000Z</time>
      </trkpt>
      <trkpt lat="49.20277" lon="6.66658">
        <ele>226</ele>
        <time>2020-01-20T13:51:43.000Z</time>
      </trkpt>
      <trkpt lat="49.20289" lon="6.66652">
        <ele>226</ele>
        <time>2020-01-20T13:51:53.000Z</time>
      </trkpt>
      <trkpt lat="49.20303" lon="6.66646">
        <ele>226</ele>
        <time>2020-01-20T13:52:03.000Z</time>
      </trkpt>
      <trkpt lat="49.20316" lon="6.66639">
        <ele>226</ele>
        <time>2020-01-20T13:52:13.000Z</time>
      </trkpt>
      <trkpt lat="49.20329" lon="6.66632">
        <ele>226</ele>
        <time>2020-01-20T13:52:23.000Z</time>
      </trkpt>
      <trkpt lat="49.20342" lon="6.66623">
        <ele>226</ele>
        <time>2020-01-20T13:52:33.000Z</time>
      </trkpt>
      <trkpt lat="49.20354" lon="6.66617">
        <ele>226</ele>
        <time>2020-01-20T13:52:43.000Z</time>
      </trkpt>
      <trkpt lat="49.20366" lon="6.6661">
        <ele>226</ele>
        <time>2020-01-20T13:52:53.000Z</time>
      </trkpt>
      <trkpt lat="49.20379" lon="6.66604">
        <ele>226</ele>
        <time>2020-01-20T13:53:03.000Z</time>
      </trkpt>
      <trkpt lat="49.20388" lon="6.66596">
        <ele>226</ele>
        <time>2020-01-20T13:53:13.000Z</time>
      </trkpt>
      <trkpt lat="49.20399" lon="6.66591">
        <ele>226</ele>
        <time>2020-01-20T13:53:23.000Z</time>
      </trkpt>
      <trkpt lat="49.20409" lon="6.66581">
        <ele>225</ele>
        <time>2020-01-20T13:53:33.000Z</time>
      </trkpt>
      <trkpt lat="49.2042" lon="6.66573">
        <ele>226</ele>
        <time>2020-01-20T13:53:43.000Z</time>
      </trkpt>
      <trkpt lat="49.20432" lon="6.66562">
        <ele>226</ele>
        <time>2020-01-20T13:53:53.000Z</time>
      </trkpt>
      <trkpt lat="49.20443" lon="6.66553">
        <ele>227</ele>
        <time>2020-01-20T13:54:03.000Z</time>
      </trkpt>
      <trkpt lat="49.20455" lon="6.66546">
        <ele>227</ele>
        <time>2020-01-20T13:54:13.000Z</time>
      </trkpt>
      <trkpt lat="49.20469" lon="6.66538">
        <ele>227</ele>
        <time>2020-01-20T13:54:23.000Z</time>
      </trkpt>
      <trkpt lat="49.20483" lon="6.66531">
        <ele>227</ele>
        <time>2020-01-20T13:54:33.000Z</time>
      </trkpt>
      <trkpt lat="49.20494" lon="6.66524">
        <ele>227</ele>
        <time>2020-01-20T13:54:43.000Z</time>
      </trkpt>
      <trkpt lat="49.20506" lon="6.66516">
        <ele>228</ele>
        <time>2020-01-20T13:54:53.000Z</time>
      </trkpt>
      <trkpt lat="49.20518" lon="6.66509">
        <ele>228</ele>
        <time>2020-01-20T13:55:03.000Z</time>
      </trkpt>
      <trkpt lat="49.2053" lon="6.66501">
        <ele>228</ele>
        <time>2020-01-20T13:55:13.000Z</time>
      </trkpt>
      <trkpt lat="49.20543" lon="6.66494">
        <ele>227</ele>
        <time>2020-01-20T13:55:23.000Z</time>
      </trkpt>
      <trkpt lat="49.20554" lon="6.66485">
        <ele>228</ele>
        <time>2020-01-20T13:55:33.000Z</time>
      </trkpt>
      <trkpt lat="49.20565" lon="6.66476">
        <ele>228</ele>
        <time>2020-01-20T13:55:43.000Z</time>
      </trkpt>
      <trkpt lat="49.20577" lon="6.66466">
        <ele>228</ele>
        <time>2020-01-20T13:55:53.000Z</time>
      </trkpt>
      <trkpt lat="49.20589" lon="6.66457">
        <ele>230</ele>
        <time>2020-01-20T13:56:03.000Z</time>
      </trkpt>
      <trkpt lat="49.206" lon="6.66451">
        <ele>231</ele>
        <time>2020-01-20T13:56:13.000Z</time>
      </trkpt>
      <trkpt lat="49.20612" lon="6.66444">
        <ele>231</ele>
        <time>2020-01-20T13:56:23.000Z</time>
      </trkpt>
      <trkpt lat="49.20624" lon="6.66438">
        <ele>231</ele>
        <time>2020-01-20T13:56:33.000Z</time>
      </trkpt>
      <trkpt lat="49.20638" lon="6.66437">
        <ele>232</ele>
        <time>2020-01-20T13:56:43.000Z</time>
      </trkpt>
      <trkpt lat="49.20654" lon="6.66437">
        <ele>232</ele>
        <time>2020-01-20T13:56:53.000Z</time>
      </trkpt>
      <trkpt lat="49.20668" lon="6.66435">
        <ele>234</ele>
        <time>2020-01-20T13:57:03.000Z</time>
      </trkpt>
      <trkpt lat="49.20679" lon="6.66428">
        <ele>234</ele>
        <time>2020-01-20T13:57:13.000Z</time>
      </trkpt>
      <trkpt lat="49.20683" lon="6.66419">
        <ele>234</ele>
        <time>2020-01-20T13:57:23.000Z</time>
      </trkpt>
      <trkpt lat="49.2068" lon="6.66413">
        <ele>234</ele>
        <time>2020-01-20T13:57:33.000Z</time>
      </trkpt>
      <trkpt lat="49.20675" lon="6.66402">
        <ele>234</ele>
        <time>2020-01-20T13:57:43.000Z</time>
      </trkpt>
      <trkpt lat="49.20672" lon="6.66387">
        <ele>235</ele>
        <time>2020-01-20T13:57:53.000Z</time>
      </trkpt>
      <trkpt lat="49.20667" lon="6.66371">
        <ele>235</ele>
        <time>2020-01-20T13:58:03.000Z</time>
      </trkpt>
      <trkpt lat="49.20663" lon="6.66356">
        <ele>235</ele>
        <time>2020-01-20T13:58:13.000Z</time>
      </trkpt>
      <trkpt lat="49.20657" lon="6.66343">
        <ele>236</ele>
        <time>2020-01-20T13:58:23.000Z</time>
      </trkpt>
      <trkpt lat="49.2065" lon="6.66333">
        <ele>238</ele>
        <time>2020-01-20T13:58:33.000Z</time>
      </trkpt>
      <trkpt lat="49.20643" lon="6.66329">
        <ele>238</ele>
        <time>2020-01-20T13:58:43.000Z</time>
      </trkpt>
      <trkpt lat="49.20645" lon="6.66322">
        <ele>238</ele>
        <time>2020-01-20T13:58:53.000Z</time>
      </trkpt>
      <trkpt lat="49.20646" lon="6.6632">
        <ele>238</ele>
        <time>2020-01-20T13:59:04.000Z</time>
      </trkpt>
      <trkpt lat="49.20646" lon="6.66318">
        <ele>238</ele>
        <time>2020-01-20T14:00:42.000Z</time>
      </trkpt>
      <trkpt lat="49.20638" lon="6.66295">
        <ele>239</ele>
        <time>2020-01-20T14:00:52.000Z</time>
      </trkpt>
      <trkpt lat="49.20631" lon="6.66279">
        <ele>240</ele>
        <time>2020-01-20T14:01:02.000Z</time>
      </trkpt>
      <trkpt lat="49.20623" lon="6.66262">
        <ele>240</ele>
        <time>2020-01-20T14:01:12.000Z</time>
      </trkpt>
      <trkpt lat="49.20615" lon="6.66243">
        <ele>243</ele>
        <time>2020-01-20T14:01:22.000Z</time>
      </trkpt>
      <trkpt lat="49.20606" lon="6.66227">
        <ele>243</ele>
        <time>2020-01-20T14:01:32.000Z</time>
      </trkpt>
      <trkpt lat="49.20599" lon="6.6621">
        <ele>243</ele>
        <time>2020-01-20T14:01:42.000Z</time>
      </trkpt>
      <trkpt lat="49.20591" lon="6.66195">
        <ele>243</ele>
        <time>2020-01-20T14:01:52.000Z</time>
      </trkpt>
      <trkpt lat="49.20582" lon="6.66181">
        <ele>239</ele>
        <time>2020-01-20T14:02:02.000Z</time>
      </trkpt>
      <trkpt lat="49.20575" lon="6.66162">
        <ele>241</ele>
        <time>2020-01-20T14:02:12.000Z</time>
      </trkpt>
      <trkpt lat="49.20568" lon="6.66144">
        <ele>241</ele>
        <time>2020-01-20T14:02:22.000Z</time>
      </trkpt>
      <trkpt lat="49.2056" lon="6.66127">
        <ele>241</ele>
        <time>2020-01-20T14:02:32.000Z</time>
      </trkpt>
      <trkpt lat="49.20552" lon="6.66111">
        <ele>241</ele>
        <time>2020-01-20T14:02:42.000Z</time>
      </trkpt>
      <trkpt lat="49.20545" lon="6.66094">
        <ele>241</ele>
        <time>2020-01-20T14:02:52.000Z</time>
      </trkpt>
      <trkpt lat="49.20539" lon="6.66077">
        <ele>245</ele>
        <time>2020-01-20T14:03:02.000Z</time>
      </trkpt>
      <trkpt lat="49.20532" lon="6.6606">
        <ele>244</ele>
        <time>2020-01-20T14:03:12.000Z</time>
      </trkpt>
      <trkpt lat="49.20524" lon="6.66043">
        <ele>245</ele>
        <time>2020-01-20T14:03:22.000Z</time>
      </trkpt>
      <trkpt lat="49.20518" lon="6.66025">
        <ele>245</ele>
        <time>2020-01-20T14:03:32.000Z</time>
      </trkpt>
      <trkpt lat="49.20511" lon="6.66009">
        <ele>244</ele>
        <time>2020-01-20T14:03:42.000Z</time>
      </trkpt>
      <trkpt lat="49.20504" lon="6.65994">
        <ele>244</ele>
        <time>2020-01-20T14:03:52.000Z</time>
      </trkpt>
      <trkpt lat="49.20496" lon="6.6598">
        <ele>242</ele>
        <time>2020-01-20T14:04:02.000Z</time>
      </trkpt>
      <trkpt lat="49.20489" lon="6.65964">
        <ele>242</ele>
        <time>2020-01-20T14:04:12.000Z</time>
      </trkpt>
      <trkpt lat="49.20487" lon="6.65957">
        <ele>242</ele>
        <time>2020-01-20T14:04:22.000Z</time>
      </trkpt>
      <trkpt lat="49.20478" lon="6.65943">
        <ele>242</ele>
        <time>2020-01-20T14:04:32.000Z</time>
      </trkpt>
      <trkpt lat="49.2047" lon="6.65935">
        <ele>242</ele>
        <time>2020-01-20T14:04:42.000Z</time>
      </trkpt>
      <trkpt lat="49.20462" lon="6.65925">
        <ele>242</ele>
        <time>2020-01-20T14:04:52.000Z</time>
      </trkpt>
      <trkpt lat="49.20454" lon="6.65914">
        <ele>245</ele>
        <time>2020-01-20T14:05:02.000Z</time>
      </trkpt>
      <trkpt lat="49.20445" lon="6.65903">
        <ele>245</ele>
        <time>2020-01-20T14:05:12.000Z</time>
      </trkpt>
      <trkpt lat="49.20437" lon="6.6589">
        <ele>245</ele>
        <time>2020-01-20T14:05:22.000Z</time>
      </trkpt>
      <trkpt lat="49.20429" lon="6.65877">
        <ele>246</ele>
        <time>2020-01-20T14:05:32.000Z</time>
      </trkpt>
      <trkpt lat="49.20423" lon="6.65859">
        <ele>248</ele>
        <time>2020-01-20T14:05:42.000Z</time>
      </trkpt>
      <trkpt lat="49.20421" lon="6.65837">
        <ele>251</ele>
        <time>2020-01-20T14:05:52.000Z</time>
      </trkpt>
      <trkpt lat="49.20422" lon="6.65814">
        <ele>252</ele>
        <time>2020-01-20T14:06:02.000Z</time>
      </trkpt>
      <trkpt lat="49.20426" lon="6.65795">
        <ele>254</ele>
        <time>2020-01-20T14:06:12.000Z</time>
      </trkpt>
      <trkpt lat="49.20429" lon="6.6577">
        <ele>256</ele>
        <time>2020-01-20T14:06:22.000Z</time>
      </trkpt>
      <trkpt lat="49.20437" lon="6.65749">
        <ele>261</ele>
        <time>2020-01-20T14:06:32.000Z</time>
      </trkpt>
      <trkpt lat="49.20446" lon="6.65731">
        <ele>260</ele>
        <time>2020-01-20T14:06:42.000Z</time>
      </trkpt>
      <trkpt lat="49.20454" lon="6.65712">
        <ele>260</ele>
        <time>2020-01-20T14:06:52.000Z</time>
      </trkpt>
      <trkpt lat="49.20461" lon="6.65695">
        <ele>261</ele>
        <time>2020-01-20T14:07:02.000Z</time>
      </trkpt>
      <trkpt lat="49.20474" lon="6.65684">
        <ele>260</ele>
        <time>2020-01-20T14:07:12.000Z</time>
      </trkpt>
      <trkpt lat="49.20489" lon="6.65673">
        <ele>260</ele>
        <time>2020-01-20T14:07:22.000Z</time>
      </trkpt>
      <trkpt lat="49.20503" lon="6.65663">
        <ele>258</ele>
        <time>2020-01-20T14:07:32.000Z</time>
      </trkpt>
      <trkpt lat="49.20515" lon="6.65652">
        <ele>255</ele>
        <time>2020-01-20T14:07:42.000Z</time>
      </trkpt>
      <trkpt lat="49.20525" lon="6.65641">
        <ele>254</ele>
        <time>2020-01-20T14:07:52.000Z</time>
      </trkpt>
      <trkpt lat="49.20531" lon="6.65626">
        <ele>254</ele>
        <time>2020-01-20T14:08:02.000Z</time>
      </trkpt>
      <trkpt lat="49.20534" lon="6.65612">
        <ele>254</ele>
        <time>2020-01-20T14:08:12.000Z</time>
      </trkpt>
      <trkpt lat="49.20534" lon="6.65597">
        <ele>254</ele>
        <time>2020-01-20T14:08:22.000Z</time>
      </trkpt>
      <trkpt lat="49.20534" lon="6.65583">
        <ele>257</ele>
        <time>2020-01-20T14:08:32.000Z</time>
      </trkpt>
      <trkpt lat="49.20538" lon="6.65565">
        <ele>257</ele>
        <time>2020-01-20T14:08:42.000Z</time>
      </trkpt>
      <trkpt lat="49.20548" lon="6.65543">
        <ele>256</ele>
        <time>2020-01-20T14:08:52.000Z</time>
      </trkpt>
      <trkpt lat="49.20563" lon="6.65522">
        <ele>255</ele>
        <time>2020-01-20T14:09:02.000Z</time>
      </trkpt>
      <trkpt lat="49.20575" lon="6.65507">
        <ele>253</ele>
        <time>2020-01-20T14:09:12.000Z</time>
      </trkpt>
      <trkpt lat="49.20583" lon="6.655">
        <ele>251</ele>
        <time>2020-01-20T14:09:22.000Z</time>
      </trkpt>
      <trkpt lat="49.20589" lon="6.65486">
        <ele>249</ele>
        <time>2020-01-20T14:09:32.000Z</time>
      </trkpt>
      <trkpt lat="49.20593" lon="6.65475">
        <ele>248</ele>
        <time>2020-01-20T14:09:42.000Z</time>
      </trkpt>
      <trkpt lat="49.2059" lon="6.65464">
        <ele>248</ele>
        <time>2020-01-20T14:09:52.000Z</time>
      </trkpt>
      <trkpt lat="49.20589" lon="6.65453">
        <ele>249</ele>
        <time>2020-01-20T14:10:02.000Z</time>
      </trkpt>
      <trkpt lat="49.20587" lon="6.65438">
        <ele>250</ele>
        <time>2020-01-20T14:10:12.000Z</time>
      </trkpt>
      <trkpt lat="49.20592" lon="6.6542">
        <ele>253</ele>
        <time>2020-01-20T14:10:22.000Z</time>
      </trkpt>
      <trkpt lat="49.20601" lon="6.654">
        <ele>253</ele>
        <time>2020-01-20T14:10:32.000Z</time>
      </trkpt>
      <trkpt lat="49.20614" lon="6.65385">
        <ele>252</ele>
        <time>2020-01-20T14:10:42.000Z</time>
      </trkpt>
      <trkpt lat="49.20631" lon="6.65377">
        <ele>251</ele>
        <time>2020-01-20T14:10:52.000Z</time>
      </trkpt>
      <trkpt lat="49.20647" lon="6.65371">
        <ele>250</ele>
        <time>2020-01-20T14:11:02.000Z</time>
      </trkpt>
      <trkpt lat="49.20665" lon="6.65372">
        <ele>249</ele>
        <time>2020-01-20T14:11:12.000Z</time>
      </trkpt>
      <trkpt lat="49.2068" lon="6.65376">
        <ele>240</ele>
        <time>2020-01-20T14:11:22.000Z</time>
      </trkpt>
      <trkpt lat="49.20688" lon="6.65369">
        <ele>240</ele>
        <time>2020-01-20T14:11:32.000Z</time>
      </trkpt>
      <trkpt lat="49.20689" lon="6.65361">
        <ele>241</ele>
        <time>2020-01-20T14:11:42.000Z</time>
      </trkpt>
      <trkpt lat="49.20686" lon="6.65354">
        <ele>241</ele>
        <time>2020-01-20T14:11:52.000Z</time>
      </trkpt>
      <trkpt lat="49.20685" lon="6.65344">
        <ele>242</ele>
        <time>2020-01-20T14:12:02.000Z</time>
      </trkpt>
      <trkpt lat="49.20684" lon="6.65331">
        <ele>246</ele>
        <time>2020-01-20T14:12:12.000Z</time>
      </trkpt>
      <trkpt lat="49.20678" lon="6.65321">
        <ele>246</ele>
        <time>2020-01-20T14:12:22.000Z</time>
      </trkpt>
      <trkpt lat="49.20678" lon="6.65305">
        <ele>246</ele>
        <time>2020-01-20T14:12:32.000Z</time>
      </trkpt>
      <trkpt lat="49.20677" lon="6.65289">
        <ele>246</ele>
        <time>2020-01-20T14:12:42.000Z</time>
      </trkpt>
      <trkpt lat="49.20676" lon="6.65279">
        <ele>247</ele>
        <time>2020-01-20T14:12:52.000Z</time>
      </trkpt>
      <trkpt lat="49.20679" lon="6.65253">
        <ele>251</ele>
        <time>2020-01-20T14:13:02.000Z</time>
      </trkpt>
      <trkpt lat="49.20685" lon="6.65228">
        <ele>252</ele>
        <time>2020-01-20T14:13:12.000Z</time>
      </trkpt>
      <trkpt lat="49.2069" lon="6.65205">
        <ele>252</ele>
        <time>2020-01-20T14:13:22.000Z</time>
      </trkpt>
      <trkpt lat="49.20705" lon="6.65187">
        <ele>251</ele>
        <time>2020-01-20T14:13:32.000Z</time>
      </trkpt>
      <trkpt lat="49.20726" lon="6.65183">
        <ele>249</ele>
        <time>2020-01-20T14:13:42.000Z</time>
      </trkpt>
      <trkpt lat="49.20746" lon="6.65175">
        <ele>246</ele>
        <time>2020-01-20T14:13:52.000Z</time>
      </trkpt>
      <trkpt lat="49.20753" lon="6.65164">
        <ele>244</ele>
        <time>2020-01-20T14:14:02.000Z</time>
      </trkpt>
      <trkpt lat="49.20758" lon="6.65152">
        <ele>244</ele>
        <time>2020-01-20T14:14:12.000Z</time>
      </trkpt>
      <trkpt lat="49.20761" lon="6.65136">
        <ele>243</ele>
        <time>2020-01-20T14:14:22.000Z</time>
      </trkpt>
      <trkpt lat="49.20764" lon="6.65119">
        <ele>244</ele>
        <time>2020-01-20T14:14:32.000Z</time>
      </trkpt>
      <trkpt lat="49.20767" lon="6.65103">
        <ele>245</ele>
        <time>2020-01-20T14:14:42.000Z</time>
      </trkpt>
      <trkpt lat="49.2077" lon="6.65086">
        <ele>245</ele>
        <time>2020-01-20T14:14:52.000Z</time>
      </trkpt>
      <trkpt lat="49.20776" lon="6.65066">
        <ele>248</ele>
        <time>2020-01-20T14:15:02.000Z</time>
      </trkpt>
      <trkpt lat="49.20784" lon="6.65046">
        <ele>248</ele>
        <time>2020-01-20T14:15:12.000Z</time>
      </trkpt>
      <trkpt lat="49.20792" lon="6.65022">
        <ele>248</ele>
        <time>2020-01-20T14:15:22.000Z</time>
      </trkpt>
      <trkpt lat="49.20803" lon="6.65006">
        <ele>248</ele>
        <time>2020-01-20T14:15:32.000Z</time>
      </trkpt>
      <trkpt lat="49.20816" lon="6.64992">
        <ele>251</ele>
        <time>2020-01-20T14:15:42.000Z</time>
      </trkpt>
      <trkpt lat="49.20832" lon="6.64979">
        <ele>251</ele>
        <time>2020-01-20T14:15:52.000Z</time>
      </trkpt>
      <trkpt lat="49.20845" lon="6.64966">
        <ele>249</ele>
        <time>2020-01-20T14:16:02.000Z</time>
      </trkpt>
      <trkpt lat="49.20856" lon="6.64957">
        <ele>250</ele>
        <time>2020-01-20T14:16:12.000Z</time>
      </trkpt>
      <trkpt lat="49.20864" lon="6.64943">
        <ele>250</ele>
        <time>2020-01-20T14:16:22.000Z</time>
      </trkpt>
      <trkpt lat="49.20876" lon="6.64932">
        <ele>250</ele>
        <time>2020-01-20T14:16:32.000Z</time>
      </trkpt>
      <trkpt lat="49.20887" lon="6.64916">
        <ele>253</ele>
        <time>2020-01-20T14:16:42.000Z</time>
      </trkpt>
      <trkpt lat="49.20896" lon="6.64901">
        <ele>253</ele>
        <time>2020-01-20T14:16:52.000Z</time>
      </trkpt>
      <trkpt lat="49.20905" lon="6.64885">
        <ele>253</ele>
        <time>2020-01-20T14:17:02.000Z</time>
      </trkpt>
      <trkpt lat="49.20915" lon="6.64869">
        <ele>254</ele>
        <time>2020-01-20T14:17:12.000Z</time>
      </trkpt>
      <trkpt lat="49.20924" lon="6.64856">
        <ele>251</ele>
        <time>2020-01-20T14:17:22.000Z</time>
      </trkpt>
      <trkpt lat="49.20934" lon="6.64844">
        <ele>251</ele>
        <time>2020-01-20T14:17:32.000Z</time>
      </trkpt>
      <trkpt lat="49.20946" lon="6.64832">
        <ele>251</ele>
        <time>2020-01-20T14:17:42.000Z</time>
      </trkpt>
      <trkpt lat="49.20956" lon="6.6482">
        <ele>250</ele>
        <time>2020-01-20T14:17:52.000Z</time>
      </trkpt>
      <trkpt lat="49.20968" lon="6.64808">
        <ele>249</ele>
        <time>2020-01-20T14:18:02.000Z</time>
      </trkpt>
      <trkpt lat="49.20978" lon="6.64792">
        <ele>249</ele>
        <time>2020-01-20T14:18:12.000Z</time>
      </trkpt>
      <trkpt lat="49.20988" lon="6.64778">
        <ele>249</ele>
        <time>2020-01-20T14:18:22.000Z</time>
      </trkpt>
      <trkpt lat="49.20997" lon="6.64765">
        <ele>248</ele>
        <time>2020-01-20T14:18:32.000Z</time>
      </trkpt>
      <trkpt lat="49.21008" lon="6.64749">
        <ele>246</ele>
        <time>2020-01-20T14:18:42.000Z</time>
      </trkpt>
      <trkpt lat="49.21018" lon="6.64732">
        <ele>245</ele>
        <time>2020-01-20T14:18:52.000Z</time>
      </trkpt>
      <trkpt lat="49.21029" lon="6.64716">
        <ele>244</ele>
        <time>2020-01-20T14:19:02.000Z</time>
      </trkpt>
      <trkpt lat="49.21039" lon="6.64699">
        <ele>244</ele>
        <time>2020-01-20T14:19:12.000Z</time>
      </trkpt>
      <trkpt lat="49.21048" lon="6.64683">
        <ele>243</ele>
        <time>2020-01-20T14:19:22.000Z</time>
      </trkpt>
      <trkpt lat="49.21059" lon="6.6467">
        <ele>242</ele>
        <time>2020-01-20T14:19:32.000Z</time>
      </trkpt>
      <trkpt lat="49.21069" lon="6.64655">
        <ele>242</ele>
        <time>2020-01-20T14:19:42.000Z</time>
      </trkpt>
      <trkpt lat="49.21079" lon="6.64643">
        <ele>242</ele>
        <time>2020-01-20T14:19:52.000Z</time>
      </trkpt>
      <trkpt lat="49.21089" lon="6.6463">
        <ele>239</ele>
        <time>2020-01-20T14:20:02.000Z</time>
      </trkpt>
      <trkpt lat="49.21099" lon="6.64614">
        <ele>239</ele>
        <time>2020-01-20T14:20:12.000Z</time>
      </trkpt>
      <trkpt lat="49.21109" lon="6.646">
        <ele>239</ele>
        <time>2020-01-20T14:20:22.000Z</time>
      </trkpt>
      <trkpt lat="49.21119" lon="6.64587">
        <ele>239</ele>
        <time>2020-01-20T14:20:32.000Z</time>
      </trkpt>
      <trkpt lat="49.21129" lon="6.64574">
        <ele>239</ele>
        <time>2020-01-20T14:20:42.000Z</time>
      </trkpt>
      <trkpt lat="49.21137" lon="6.64556">
        <ele>239</ele>
        <time>2020-01-20T14:20:52.000Z</time>
      </trkpt>
      <trkpt lat="49.21148" lon="6.64542">
        <ele>239</ele>
        <time>2020-01-20T14:21:02.000Z</time>
      </trkpt>
      <trkpt lat="49.21158" lon="6.6453">
        <ele>238</ele>
        <time>2020-01-20T14:21:12.000Z</time>
      </trkpt>
      <trkpt lat="49.21169" lon="6.64517">
        <ele>238</ele>
        <time>2020-01-20T14:21:22.000Z</time>
      </trkpt>
      <trkpt lat="49.2118" lon="6.64506">
        <ele>238</ele>
        <time>2020-01-20T14:21:32.000Z</time>
      </trkpt>
      <trkpt lat="49.2119" lon="6.64493">
        <ele>238</ele>
        <time>2020-01-20T14:21:42.000Z</time>
      </trkpt>
      <trkpt lat="49.21199" lon="6.64479">
        <ele>239</ele>
        <time>2020-01-20T14:21:52.000Z</time>
      </trkpt>
      <trkpt lat="49.21207" lon="6.64466">
        <ele>239</ele>
        <time>2020-01-20T14:22:02.000Z</time>
      </trkpt>
      <trkpt lat="49.21218" lon="6.6445">
        <ele>240</ele>
        <time>2020-01-20T14:22:12.000Z</time>
      </trkpt>
      <trkpt lat="49.21225" lon="6.64435">
        <ele>240</ele>
        <time>2020-01-20T14:22:22.000Z</time>
      </trkpt>
      <trkpt lat="49.21232" lon="6.64418">
        <ele>240</ele>
        <time>2020-01-20T14:22:32.000Z</time>
      </trkpt>
      <trkpt lat="49.21229" lon="6.64406">
        <ele>240</ele>
        <time>2020-01-20T14:22:42.000Z</time>
      </trkpt>
      <trkpt lat="49.21221" lon="6.64399">
        <ele>240</ele>
        <time>2020-01-20T14:22:52.000Z</time>
      </trkpt>
      <trkpt lat="49.21213" lon="6.6439">
        <ele>240</ele>
        <time>2020-01-20T14:23:02.000Z</time>
      </trkpt>
      <trkpt lat="49.21204" lon="6.64379">
        <ele>240</ele>
        <time>2020-01-20T14:23:12.000Z</time>
      </trkpt>
      <trkpt lat="49.21192" lon="6.64367">
        <ele>240</ele>
        <time>2020-01-20T14:23:22.000Z</time>
      </trkpt>
      <trkpt lat="49.21181" lon="6.64358">
        <ele>240</ele>
        <time>2020-01-20T14:23:32.000Z</time>
      </trkpt>
      <trkpt lat="49.21172" lon="6.64344">
        <ele>241</ele>
        <time>2020-01-20T14:23:42.000Z</time>
      </trkpt>
      <trkpt lat="49.21163" lon="6.64327">
        <ele>243</ele>
        <time>2020-01-20T14:23:52.000Z</time>
      </trkpt>
      <trkpt lat="49.21152" lon="6.64313">
        <ele>247</ele>
        <time>2020-01-20T14:24:02.000Z</time>
      </trkpt>
      <trkpt lat="49.21142" lon="6.64301">
        <ele>249</ele>
        <time>2020-01-20T14:24:12.000Z</time>
      </trkpt>
      <trkpt lat="49.21133" lon="6.64286">
        <ele>250</ele>
        <time>2020-01-20T14:24:22.000Z</time>
      </trkpt>
      <trkpt lat="49.21124" lon="6.64276">
        <ele>252</ele>
        <time>2020-01-20T14:24:32.000Z</time>
      </trkpt>
      <trkpt lat="49.21119" lon="6.64262">
        <ele>253</ele>
        <time>2020-01-20T14:24:42.000Z</time>
      </trkpt>
      <trkpt lat="49.21113" lon="6.64247">
        <ele>258</ele>
        <time>2020-01-20T14:24:52.000Z</time>
      </trkpt>
      <trkpt lat="49.21109" lon="6.64236">
        <ele>259</ele>
        <time>2020-01-20T14:25:02.000Z</time>
      </trkpt>
      <trkpt lat="49.21108" lon="6.64233">
        <ele>259</ele>
        <time>2020-01-20T14:25:12.000Z</time>
      </trkpt>
      <trkpt lat="49.21111" lon="6.64227">
        <ele>258</ele>
        <time>2020-01-20T14:25:22.000Z</time>
      </trkpt>
      <trkpt lat="49.21112" lon="6.64226">
        <ele>258</ele>
        <time>2020-01-20T14:25:50.000Z</time>
      </trkpt>
      <trkpt lat="49.21111" lon="6.64222">
        <ele>258</ele>
        <time>2020-01-20T14:26:00.000Z</time>
      </trkpt>
      <trkpt lat="49.21105" lon="6.6422">
        <ele>259</ele>
        <time>2020-01-20T14:26:10.000Z</time>
      </trkpt>
      <trkpt lat="49.211" lon="6.64218">
        <ele>259</ele>
        <time>2020-01-20T14:26:20.000Z</time>
      </trkpt>
      <trkpt lat="49.21099" lon="6.64217">
        <ele>259</ele>
        <time>2020-01-20T14:26:30.000Z</time>
      </trkpt>
      <trkpt lat="49.21098" lon="6.64216">
        <ele>259</ele>
        <time>2020-01-20T14:27:05.000Z</time>
      </trkpt>
      <trkpt lat="49.21095" lon="6.64217">
        <ele>260</ele>
        <time>2020-01-20T14:27:15.000Z</time>
      </trkpt>
      <trkpt lat="49.21093" lon="6.64219">
        <ele>260</ele>
        <time>2020-01-20T14:27:25.000Z</time>
      </trkpt>
      <trkpt lat="49.21094" lon="6.64219">
        <ele>260</ele>
        <time>2020-01-20T14:27:42.000Z</time>
      </trkpt>
      <trkpt lat="49.21099" lon="6.64219">
        <ele>259</ele>
        <time>2020-01-20T14:27:52.000Z</time>
      </trkpt>
      <trkpt lat="49.21108" lon="6.64218">
        <ele>258</ele>
        <time>2020-01-20T14:28:02.000Z</time>
      </trkpt>
      <trkpt lat="49.21109" lon="6.64217">
        <ele>258</ele>
        <time>2020-01-20T14:28:12.000Z</time>
      </trkpt>
      <trkpt lat="49.2111" lon="6.64216">
        <ele>258</ele>
        <time>2020-01-20T14:28:44.000Z</time>
      </trkpt>
      <trkpt lat="49.2111" lon="6.64212">
        <ele>258</ele>
        <time>2020-01-20T14:28:54.000Z</time>
      </trkpt>
      <trkpt lat="49.21106" lon="6.64198">
        <ele>259</ele>
        <time>2020-01-20T14:29:04.000Z</time>
      </trkpt>
      <trkpt lat="49.21101" lon="6.64181">
        <ele>261</ele>
        <time>2020-01-20T14:29:14.000Z</time>
      </trkpt>
      <trkpt lat="49.21098" lon="6.64159">
        <ele>265</ele>
        <time>2020-01-20T14:29:24.000Z</time>
      </trkpt>
      <trkpt lat="49.21096" lon="6.64135">
        <ele>264</ele>
        <time>2020-01-20T14:29:34.000Z</time>
      </trkpt>
      <trkpt lat="49.21094" lon="6.64119">
        <ele>265</ele>
        <time>2020-01-20T14:29:44.000Z</time>
      </trkpt>
      <trkpt lat="49.21096" lon="6.64103">
        <ele>267</ele>
        <time>2020-01-20T14:29:54.000Z</time>
      </trkpt>
      <trkpt lat="49.21097" lon="6.64085">
        <ele>269</ele>
        <time>2020-01-20T14:30:04.000Z</time>
      </trkpt>
      <trkpt lat="49.21095" lon="6.64072">
        <ele>271</ele>
        <time>2020-01-20T14:30:14.000Z</time>
      </trkpt>
      <trkpt lat="49.21089" lon="6.64063">
        <ele>271</ele>
        <time>2020-01-20T14:30:24.000Z</time>
      </trkpt>
      <trkpt lat="49.21085" lon="6.64054">
        <ele>271</ele>
        <time>2020-01-20T14:30:34.000Z</time>
      </trkpt>
      <trkpt lat="49.2108" lon="6.64044">
        <ele>282</ele>
        <time>2020-01-20T14:30:44.000Z</time>
      </trkpt>
      <trkpt lat="49.21074" lon="6.64035">
        <ele>282</ele>
        <time>2020-01-20T14:30:54.000Z</time>
      </trkpt>
      <trkpt lat="49.2107" lon="6.64023">
        <ele>282</ele>
        <time>2020-01-20T14:31:04.000Z</time>
      </trkpt>
      <trkpt lat="49.21068" lon="6.64009">
        <ele>281</ele>
        <time>2020-01-20T14:31:14.000Z</time>
      </trkpt>
      <trkpt lat="49.21067" lon="6.63991">
        <ele>283</ele>
        <time>2020-01-20T14:31:24.000Z</time>
      </trkpt>
      <trkpt lat="49.21067" lon="6.63972">
        <ele>286</ele>
        <time>2020-01-20T14:31:34.000Z</time>
      </trkpt>
      <trkpt lat="49.21066" lon="6.63956">
        <ele>287</ele>
        <time>2020-01-20T14:31:44.000Z</time>
      </trkpt>
      <trkpt lat="49.21062" lon="6.63953">
        <ele>288</ele>
        <time>2020-01-20T14:31:54.000Z</time>
      </trkpt>
      <trkpt lat="49.21062" lon="6.63956">
        <ele>287</ele>
        <time>2020-01-20T14:32:04.000Z</time>
      </trkpt>
      <trkpt lat="49.21059" lon="6.63959">
        <ele>288</ele>
        <time>2020-01-20T14:32:14.000Z</time>
      </trkpt>
      <trkpt lat="49.21055" lon="6.63958">
        <ele>288</ele>
        <time>2020-01-20T14:32:24.000Z</time>
      </trkpt>
      <trkpt lat="49.21051" lon="6.63955">
        <ele>289</ele>
        <time>2020-01-20T14:32:34.000Z</time>
      </trkpt>
      <trkpt lat="49.21047" lon="6.63957">
        <ele>289</ele>
        <time>2020-01-20T14:32:44.000Z</time>
      </trkpt>
      <trkpt lat="49.21047" lon="6.63952">
        <ele>289</ele>
        <time>2020-01-20T14:32:54.000Z</time>
      </trkpt>
      <trkpt lat="49.21048" lon="6.63947">
        <ele>289</ele>
        <time>2020-01-20T14:33:04.000Z</time>
      </trkpt>
      <trkpt lat="49.21049" lon="6.63945">
        <ele>289</ele>
        <time>2020-01-20T14:33:32.000Z</time>
      </trkpt>
      <trkpt lat="49.21046" lon="6.6394">
        <ele>290</ele>
        <time>2020-01-20T14:33:42.000Z</time>
      </trkpt>
      <trkpt lat="49.21043" lon="6.63937">
        <ele>290</ele>
        <time>2020-01-20T14:33:52.000Z</time>
      </trkpt>
      <trkpt lat="49.21039" lon="6.63925">
        <ele>291</ele>
        <time>2020-01-20T14:36:02.000Z</time>
      </trkpt>
      <trkpt lat="49.21038" lon="6.63925">
        <ele>291</ele>
        <time>2020-01-20T14:36:23.000Z</time>
      </trkpt>
      <trkpt lat="49.21037" lon="6.63937">
        <ele>291</ele>
        <time>2020-01-20T14:36:33.000Z</time>
      </trkpt>
      <trkpt lat="49.21034" lon="6.63952">
        <ele>291</ele>
        <time>2020-01-20T14:36:43.000Z</time>
      </trkpt>
      <trkpt lat="49.21024" lon="6.63957">
        <ele>292</ele>
        <time>2020-01-20T14:36:53.000Z</time>
      </trkpt>
      <trkpt lat="49.21008" lon="6.63962">
        <ele>293</ele>
        <time>2020-01-20T14:37:03.000Z</time>
      </trkpt>
      <trkpt lat="49.20998" lon="6.63959">
        <ele>304</ele>
        <time>2020-01-20T14:37:13.000Z</time>
      </trkpt>
      <trkpt lat="49.20991" lon="6.63956">
        <ele>304</ele>
        <time>2020-01-20T14:37:23.000Z</time>
      </trkpt>
      <trkpt lat="49.20988" lon="6.63954">
        <ele>304</ele>
        <time>2020-01-20T14:37:33.000Z</time>
      </trkpt>
      <trkpt lat="49.20985" lon="6.63949">
        <ele>304</ele>
        <time>2020-01-20T14:37:43.000Z</time>
      </trkpt>
      <trkpt lat="49.20981" lon="6.63944">
        <ele>305</ele>
        <time>2020-01-20T14:37:53.000Z</time>
      </trkpt>
      <trkpt lat="49.20971" lon="6.63935">
        <ele>306</ele>
        <time>2020-01-20T14:38:03.000Z</time>
      </trkpt>
      <trkpt lat="49.20963" lon="6.6392">
        <ele>307</ele>
        <time>2020-01-20T14:38:13.000Z</time>
      </trkpt>
      <trkpt lat="49.20956" lon="6.63912">
        <ele>309</ele>
        <time>2020-01-20T14:38:23.000Z</time>
      </trkpt>
      <trkpt lat="49.20948" lon="6.63905">
        <ele>310</ele>
        <time>2020-01-20T14:38:33.000Z</time>
      </trkpt>
      <trkpt lat="49.20945" lon="6.63899">
        <ele>310</ele>
        <time>2020-01-20T14:38:43.000Z</time>
      </trkpt>
      <trkpt lat="49.20944" lon="6.63897">
        <ele>310</ele>
        <time>2020-01-20T14:38:53.000Z</time>
      </trkpt>
      <trkpt lat="49.20944" lon="6.63895">
        <ele>310</ele>
        <time>2020-01-20T14:39:09.000Z</time>
      </trkpt>
      <trkpt lat="49.20939" lon="6.63873">
        <ele>310</ele>
        <time>2020-01-20T14:39:19.000Z</time>
      </trkpt>
      <trkpt lat="49.20938" lon="6.63872">
        <ele>310</ele>
        <time>2020-01-20T14:39:29.000Z</time>
      </trkpt>
      <trkpt lat="49.20933" lon="6.63871">
        <ele>311</ele>
        <time>2020-01-20T14:39:39.000Z</time>
      </trkpt>
      <trkpt lat="49.20932" lon="6.63872">
        <ele>311</ele>
        <time>2020-01-20T14:39:50.000Z</time>
      </trkpt>
      <trkpt lat="49.20931" lon="6.63871">
        <ele>311</ele>
        <time>2020-01-20T14:40:00.000Z</time>
      </trkpt>
      <trkpt lat="49.20931" lon="6.6387">
        <ele>311</ele>
        <time>2020-01-20T14:40:10.000Z</time>
      </trkpt>
      <trkpt lat="49.20931" lon="6.63874">
        <ele>311</ele>
        <time>2020-01-20T14:42:12.000Z</time>
      </trkpt>
      <trkpt lat="49.20928" lon="6.63866">
        <ele>311</ele>
        <time>2020-01-20T14:42:22.000Z</time>
      </trkpt>
      <trkpt lat="49.20927" lon="6.63859">
        <ele>311</ele>
        <time>2020-01-20T14:42:32.000Z</time>
      </trkpt>
      <trkpt lat="49.20926" lon="6.63849">
        <ele>312</ele>
        <time>2020-01-20T14:42:42.000Z</time>
      </trkpt>
      <trkpt lat="49.20924" lon="6.63836">
        <ele>313</ele>
        <time>2020-01-20T14:42:52.000Z</time>
      </trkpt>
      <trkpt lat="49.20921" lon="6.63817">
        <ele>314</ele>
        <time>2020-01-20T14:43:02.000Z</time>
      </trkpt>
      <trkpt lat="49.20918" lon="6.63795">
        <ele>315</ele>
        <time>2020-01-20T14:43:12.000Z</time>
      </trkpt>
      <trkpt lat="49.20916" lon="6.63779">
        <ele>315</ele>
        <time>2020-01-20T14:43:22.000Z</time>
      </trkpt>
      <trkpt lat="49.20912" lon="6.63763">
        <ele>316</ele>
        <time>2020-01-20T14:43:32.000Z</time>
      </trkpt>
      <trkpt lat="49.20908" lon="6.63749">
        <ele>317</ele>
        <time>2020-01-20T14:43:42.000Z</time>
      </trkpt>
      <trkpt lat="49.20905" lon="6.63739">
        <ele>317</ele>
        <time>2020-01-20T14:43:52.000Z</time>
      </trkpt>
      <trkpt lat="49.20899" lon="6.6373">
        <ele>317</ele>
        <time>2020-01-20T14:44:02.000Z</time>
      </trkpt>
      <trkpt lat="49.2089" lon="6.63721">
        <ele>317</ele>
        <time>2020-01-20T14:44:12.000Z</time>
      </trkpt>
      <trkpt lat="49.20884" lon="6.63709">
        <ele>317</ele>
        <time>2020-01-20T14:44:22.000Z</time>
      </trkpt>
      <trkpt lat="49.20875" lon="6.63699">
        <ele>316</ele>
        <time>2020-01-20T14:44:32.000Z</time>
      </trkpt>
      <trkpt lat="49.20865" lon="6.63689">
        <ele>316</ele>
        <time>2020-01-20T14:44:42.000Z</time>
      </trkpt>
      <trkpt lat="49.20862" lon="6.63681">
        <ele>316</ele>
        <time>2020-01-20T14:44:52.000Z</time>
      </trkpt>
      <trkpt lat="49.20862" lon="6.63679">
        <ele>316</ele>
        <time>2020-01-20T14:45:05.000Z</time>
      </trkpt>
      <trkpt lat="49.20852" lon="6.63671">
        <ele>316</ele>
        <time>2020-01-20T14:45:15.000Z</time>
      </trkpt>
      <trkpt lat="49.20843" lon="6.63665">
        <ele>316</ele>
        <time>2020-01-20T14:45:25.000Z</time>
      </trkpt>
      <trkpt lat="49.20834" lon="6.63656">
        <ele>316</ele>
        <time>2020-01-20T14:45:35.000Z</time>
      </trkpt>
      <trkpt lat="49.20824" lon="6.63647">
        <ele>314</ele>
        <time>2020-01-20T14:45:45.000Z</time>
      </trkpt>
      <trkpt lat="49.20814" lon="6.63636">
        <ele>314</ele>
        <time>2020-01-20T14:45:55.000Z</time>
      </trkpt>
      <trkpt lat="49.20802" lon="6.63627">
        <ele>314</ele>
        <time>2020-01-20T14:46:05.000Z</time>
      </trkpt>
      <trkpt lat="49.20791" lon="6.63615">
        <ele>313</ele>
        <time>2020-01-20T14:46:15.000Z</time>
      </trkpt>
      <trkpt lat="49.20789" lon="6.63598">
        <ele>313</ele>
        <time>2020-01-20T14:46:25.000Z</time>
      </trkpt>
      <trkpt lat="49.20785" lon="6.63576">
        <ele>316</ele>
        <time>2020-01-20T14:46:35.000Z</time>
      </trkpt>
      <trkpt lat="49.2078" lon="6.63556">
        <ele>316</ele>
        <time>2020-01-20T14:46:45.000Z</time>
      </trkpt>
      <trkpt lat="49.20774" lon="6.63529">
        <ele>317</ele>
        <time>2020-01-20T14:46:55.000Z</time>
      </trkpt>
      <trkpt lat="49.20771" lon="6.63509">
        <ele>317</ele>
        <time>2020-01-20T14:47:05.000Z</time>
      </trkpt>
      <trkpt lat="49.2077" lon="6.63489">
        <ele>321</ele>
        <time>2020-01-20T14:47:15.000Z</time>
      </trkpt>
      <trkpt lat="49.20767" lon="6.63471">
        <ele>322</ele>
        <time>2020-01-20T14:47:25.000Z</time>
      </trkpt>
      <trkpt lat="49.20765" lon="6.63453">
        <ele>323</ele>
        <time>2020-01-20T14:47:35.000Z</time>
      </trkpt>
      <trkpt lat="49.20762" lon="6.63434">
        <ele>324</ele>
        <time>2020-01-20T14:47:45.000Z</time>
      </trkpt>
      <trkpt lat="49.20759" lon="6.63415">
        <ele>326</ele>
        <time>2020-01-20T14:47:55.000Z</time>
      </trkpt>
      <trkpt lat="49.20756" lon="6.63401">
        <ele>327</ele>
        <time>2020-01-20T14:48:05.000Z</time>
      </trkpt>
      <trkpt lat="49.20752" lon="6.63388">
        <ele>328</ele>
        <time>2020-01-20T14:48:15.000Z</time>
      </trkpt>
      <trkpt lat="49.20747" lon="6.63372">
        <ele>322</ele>
        <time>2020-01-20T14:48:25.000Z</time>
      </trkpt>
      <trkpt lat="49.2074" lon="6.63356">
        <ele>323</ele>
        <time>2020-01-20T14:48:35.000Z</time>
      </trkpt>
      <trkpt lat="49.20735" lon="6.6334">
        <ele>324</ele>
        <time>2020-01-20T14:48:45.000Z</time>
      </trkpt>
      <trkpt lat="49.20729" lon="6.63324">
        <ele>325</ele>
        <time>2020-01-20T14:48:55.000Z</time>
      </trkpt>
      <trkpt lat="49.20725" lon="6.63302">
        <ele>325</ele>
        <time>2020-01-20T14:49:05.000Z</time>
      </trkpt>
      <trkpt lat="49.2072" lon="6.63287">
        <ele>325</ele>
        <time>2020-01-20T14:49:15.000Z</time>
      </trkpt>
      <trkpt lat="49.20714" lon="6.63276">
        <ele>325</ele>
        <time>2020-01-20T14:49:25.000Z</time>
      </trkpt>
      <trkpt lat="49.20708" lon="6.63264">
        <ele>325</ele>
        <time>2020-01-20T14:49:34.001Z</time>
      </trkpt>
      <trkpt lat="49.207" lon="6.63247">
        <ele>327</ele>
        <time>2020-01-20T14:49:44.001Z</time>
      </trkpt>
      <trkpt lat="49.20694" lon="6.6323">
        <ele>327</ele>
        <time>2020-01-20T14:49:54.001Z</time>
      </trkpt>
      <trkpt lat="49.20688" lon="6.63211">
        <ele>327</ele>
        <time>2020-01-20T14:50:04.001Z</time>
      </trkpt>
      <trkpt lat="49.2068" lon="6.63196">
        <ele>327</ele>
        <time>2020-01-20T14:50:14.001Z</time>
      </trkpt>
      <trkpt lat="49.20672" lon="6.63185">
        <ele>326</ele>
        <time>2020-01-20T14:50:24.001Z</time>
      </trkpt>
      <trkpt lat="49.20666" lon="6.63167">
        <ele>324</ele>
        <time>2020-01-20T14:50:34.001Z</time>
      </trkpt>
      <trkpt lat="49.20659" lon="6.63152">
        <ele>321</ele>
        <time>2020-01-20T14:50:44.001Z</time>
      </trkpt>
      <trkpt lat="49.20651" lon="6.63138">
        <ele>320</ele>
        <time>2020-01-20T14:50:54.001Z</time>
      </trkpt>
      <trkpt lat="49.20642" lon="6.63127">
        <ele>319</ele>
        <time>2020-01-20T14:51:04.001Z</time>
      </trkpt>
      <trkpt lat="49.2063" lon="6.63114">
        <ele>318</ele>
        <time>2020-01-20T14:51:14.001Z</time>
      </trkpt>
      <trkpt lat="49.20616" lon="6.63103">
        <ele>318</ele>
        <time>2020-01-20T14:51:24.001Z</time>
      </trkpt>
      <trkpt lat="49.20603" lon="6.63096">
        <ele>317</ele>
        <time>2020-01-20T14:51:34.001Z</time>
      </trkpt>
      <trkpt lat="49.20591" lon="6.63089">
        <ele>317</ele>
        <time>2020-01-20T14:51:44.001Z</time>
      </trkpt>
      <trkpt lat="49.20581" lon="6.63081">
        <ele>317</ele>
        <time>2020-01-20T14:51:54.001Z</time>
      </trkpt>
      <trkpt lat="49.2057" lon="6.63074">
        <ele>316</ele>
        <time>2020-01-20T14:52:04.001Z</time>
      </trkpt>
      <trkpt lat="49.20558" lon="6.63065">
        <ele>316</ele>
        <time>2020-01-20T14:52:14.001Z</time>
      </trkpt>
      <trkpt lat="49.20547" lon="6.63056">
        <ele>315</ele>
        <time>2020-01-20T14:52:24.001Z</time>
      </trkpt>
      <trkpt lat="49.20535" lon="6.63048">
        <ele>315</ele>
        <time>2020-01-20T14:52:34.001Z</time>
      </trkpt>
      <trkpt lat="49.20524" lon="6.63043">
        <ele>315</ele>
        <time>2020-01-20T14:52:44.001Z</time>
      </trkpt>
      <trkpt lat="49.20512" lon="6.63032">
        <ele>315</ele>
        <time>2020-01-20T14:52:54.001Z</time>
      </trkpt>
      <trkpt lat="49.20501" lon="6.63022">
        <ele>315</ele>
        <time>2020-01-20T14:53:04.001Z</time>
      </trkpt>
      <trkpt lat="49.20488" lon="6.63014">
        <ele>314</ele>
        <time>2020-01-20T14:53:14.001Z</time>
      </trkpt>
      <trkpt lat="49.20476" lon="6.63002">
        <ele>314</ele>
        <time>2020-01-20T14:53:24.001Z</time>
      </trkpt>
      <trkpt lat="49.20465" lon="6.62992">
        <ele>315</ele>
        <time>2020-01-20T14:53:34.001Z</time>
      </trkpt>
      <trkpt lat="49.20454" lon="6.62986">
        <ele>315</ele>
        <time>2020-01-20T14:53:44.001Z</time>
      </trkpt>
      <trkpt lat="49.20445" lon="6.62976">
        <ele>315</ele>
        <time>2020-01-20T14:53:54.001Z</time>
      </trkpt>
      <trkpt lat="49.20431" lon="6.62969">
        <ele>315</ele>
        <time>2020-01-20T14:54:04.001Z</time>
      </trkpt>
      <trkpt lat="49.20417" lon="6.62956">
        <ele>317</ele>
        <time>2020-01-20T14:54:14.001Z</time>
      </trkpt>
      <trkpt lat="49.20405" lon="6.62949">
        <ele>317</ele>
        <time>2020-01-20T14:54:24.001Z</time>
      </trkpt>
      <trkpt lat="49.20394" lon="6.6294">
        <ele>317</ele>
        <time>2020-01-20T14:54:34.001Z</time>
      </trkpt>
      <trkpt lat="49.20382" lon="6.62933">
        <ele>317</ele>
        <time>2020-01-20T14:54:44.001Z</time>
      </trkpt>
      <trkpt lat="49.20372" lon="6.62927">
        <ele>318</ele>
        <time>2020-01-20T14:54:54.001Z</time>
      </trkpt>
      <trkpt lat="49.20357" lon="6.62918">
        <ele>318</ele>
        <time>2020-01-20T14:55:04.001Z</time>
      </trkpt>
      <trkpt lat="49.2034" lon="6.62908">
        <ele>318</ele>
        <time>2020-01-20T14:55:14.001Z</time>
      </trkpt>
      <trkpt lat="49.20328" lon="6.62898">
        <ele>320</ele>
        <time>2020-01-20T14:55:24.001Z</time>
      </trkpt>
      <trkpt lat="49.20319" lon="6.6289">
        <ele>320</ele>
        <time>2020-01-20T14:55:34.001Z</time>
      </trkpt>
      <trkpt lat="49.20309" lon="6.62879">
        <ele>320</ele>
        <time>2020-01-20T14:55:44.001Z</time>
      </trkpt>
      <trkpt lat="49.20299" lon="6.62871">
        <ele>320</ele>
        <time>2020-01-20T14:55:54.001Z</time>
      </trkpt>
      <trkpt lat="49.20287" lon="6.62861">
        <ele>320</ele>
        <time>2020-01-20T14:56:04.001Z</time>
      </trkpt>
      <trkpt lat="49.20275" lon="6.62851">
        <ele>320</ele>
        <time>2020-01-20T14:56:14.001Z</time>
      </trkpt>
      <trkpt lat="49.20264" lon="6.62842">
        <ele>320</ele>
        <time>2020-01-20T14:56:24.001Z</time>
      </trkpt>
      <trkpt lat="49.20251" lon="6.62834">
        <ele>320</ele>
        <time>2020-01-20T14:56:34.001Z</time>
      </trkpt>
      <trkpt lat="49.20239" lon="6.62827">
        <ele>323</ele>
        <time>2020-01-20T14:56:44.001Z</time>
      </trkpt>
      <trkpt lat="49.20226" lon="6.62818">
        <ele>325</ele>
        <time>2020-01-20T14:56:54.001Z</time>
      </trkpt>
      <trkpt lat="49.20213" lon="6.62808">
        <ele>327</ele>
        <time>2020-01-20T14:57:04.001Z</time>
      </trkpt>
      <trkpt lat="49.20201" lon="6.628">
        <ele>328</ele>
        <time>2020-01-20T14:57:14.001Z</time>
      </trkpt>
      <trkpt lat="49.20189" lon="6.62791">
        <ele>329</ele>
        <time>2020-01-20T14:57:24.001Z</time>
      </trkpt>
      <trkpt lat="49.20177" lon="6.62784">
        <ele>329</ele>
        <time>2020-01-20T14:57:34.001Z</time>
      </trkpt>
      <trkpt lat="49.20166" lon="6.62774">
        <ele>335</ele>
        <time>2020-01-20T14:57:44.001Z</time>
      </trkpt>
      <trkpt lat="49.20155" lon="6.62763">
        <ele>334</ele>
        <time>2020-01-20T14:57:54.001Z</time>
      </trkpt>
      <trkpt lat="49.20148" lon="6.62751">
        <ele>334</ele>
        <time>2020-01-20T14:58:04.001Z</time>
      </trkpt>
      <trkpt lat="49.2015" lon="6.62745">
        <ele>330</ele>
        <time>2020-01-20T14:58:33.001Z</time>
      </trkpt>
      <trkpt lat="49.20151" lon="6.62744">
        <ele>330</ele>
        <time>2020-01-20T15:00:17.001Z</time>
      </trkpt>
      <trkpt lat="49.20151" lon="6.62742">
        <ele>330</ele>
        <time>2020-01-20T15:01:35.001Z</time>
      </trkpt>
      <trkpt lat="49.20144" lon="6.62738">
        <ele>330</ele>
        <time>2020-01-20T15:01:45.001Z</time>
      </trkpt>
      <trkpt lat="49.20134" lon="6.62731">
        <ele>330</ele>
        <time>2020-01-20T15:01:55.001Z</time>
      </trkpt>
      <trkpt lat="49.20119" lon="6.62722">
        <ele>330</ele>
        <time>2020-01-20T15:02:05.001Z</time>
      </trkpt>
      <trkpt lat="49.20108" lon="6.62713">
        <ele>330</ele>
        <time>2020-01-20T15:02:15.001Z</time>
      </trkpt>
      <trkpt lat="49.20093" lon="6.62704">
        <ele>330</ele>
        <time>2020-01-20T15:02:25.001Z</time>
      </trkpt>
      <trkpt lat="49.2008" lon="6.62695">
        <ele>333</ele>
        <time>2020-01-20T15:02:35.001Z</time>
      </trkpt>
      <trkpt lat="49.20069" lon="6.62684">
        <ele>332</ele>
        <time>2020-01-20T15:02:45.001Z</time>
      </trkpt>
      <trkpt lat="49.20058" lon="6.62675">
        <ele>333</ele>
        <time>2020-01-20T15:02:55.001Z</time>
      </trkpt>
      <trkpt lat="49.20048" lon="6.62663">
        <ele>329</ele>
        <time>2020-01-20T15:03:05.001Z</time>
      </trkpt>
      <trkpt lat="49.20036" lon="6.62651">
        <ele>330</ele>
        <time>2020-01-20T15:03:15.001Z</time>
      </trkpt>
      <trkpt lat="49.20023" lon="6.62639">
        <ele>330</ele>
        <time>2020-01-20T15:03:25.001Z</time>
      </trkpt>
      <trkpt lat="49.20011" lon="6.62628">
        <ele>330</ele>
        <time>2020-01-20T15:03:35.001Z</time>
      </trkpt>
      <trkpt lat="49.19998" lon="6.62617">
        <ele>333</ele>
        <time>2020-01-20T15:03:45.001Z</time>
      </trkpt>
      <trkpt lat="49.19986" lon="6.62608">
        <ele>332</ele>
        <time>2020-01-20T15:03:55.001Z</time>
      </trkpt>
      <trkpt lat="49.19975" lon="6.626">
        <ele>332</ele>
        <time>2020-01-20T15:04:05.001Z</time>
      </trkpt>
      <trkpt lat="49.19964" lon="6.62592">
        <ele>333</ele>
        <time>2020-01-20T15:04:15.001Z</time>
      </trkpt>
      <trkpt lat="49.19953" lon="6.62584">
        <ele>334</ele>
        <time>2020-01-20T15:04:25.001Z</time>
      </trkpt>
      <trkpt lat="49.19942" lon="6.62574">
        <ele>331</ele>
        <time>2020-01-20T15:04:35.001Z</time>
      </trkpt>
      <trkpt lat="49.19929" lon="6.62566">
        <ele>332</ele>
        <time>2020-01-20T15:04:45.001Z</time>
      </trkpt>
      <trkpt lat="49.19917" lon="6.62555">
        <ele>331</ele>
        <time>2020-01-20T15:04:55.001Z</time>
      </trkpt>
      <trkpt lat="49.19905" lon="6.62545">
        <ele>331</ele>
        <time>2020-01-20T15:05:05.001Z</time>
      </trkpt>
      <trkpt lat="49.19894" lon="6.62535">
        <ele>330</ele>
        <time>2020-01-20T15:05:15.001Z</time>
      </trkpt>
      <trkpt lat="49.19882" lon="6.62527">
        <ele>329</ele>
        <time>2020-01-20T15:05:25.001Z</time>
      </trkpt>
      <trkpt lat="49.19871" lon="6.62522">
        <ele>329</ele>
        <time>2020-01-20T15:05:35.001Z</time>
      </trkpt>
      <trkpt lat="49.19862" lon="6.62514">
        <ele>328</ele>
        <time>2020-01-20T15:05:45.001Z</time>
      </trkpt>
      <trkpt lat="49.19851" lon="6.62506">
        <ele>328</ele>
        <time>2020-01-20T15:05:55.001Z</time>
      </trkpt>
      <trkpt lat="49.19838" lon="6.62502">
        <ele>327</ele>
        <time>2020-01-20T15:06:05.001Z</time>
      </trkpt>
      <trkpt lat="49.19827" lon="6.62498">
        <ele>325</ele>
        <time>2020-01-20T15:06:15.001Z</time>
      </trkpt>
      <trkpt lat="49.19814" lon="6.62494">
        <ele>324</ele>
        <time>2020-01-20T15:06:25.001Z</time>
      </trkpt>
      <trkpt lat="49.19802" lon="6.6249">
        <ele>324</ele>
        <time>2020-01-20T15:06:35.001Z</time>
      </trkpt>
      <trkpt lat="49.1979" lon="6.62487">
        <ele>323</ele>
        <time>2020-01-20T15:06:45.001Z</time>
      </trkpt>
      <trkpt lat="49.19778" lon="6.6248">
        <ele>323</ele>
        <time>2020-01-20T15:06:55.001Z</time>
      </trkpt>
      <trkpt lat="49.19766" lon="6.62477">
        <ele>323</ele>
        <time>2020-01-20T15:07:05.001Z</time>
      </trkpt>
      <trkpt lat="49.19752" lon="6.62476">
        <ele>323</ele>
        <time>2020-01-20T15:07:15.001Z</time>
      </trkpt>
      <trkpt lat="49.19741" lon="6.62475">
        <ele>324</ele>
        <time>2020-01-20T15:07:25.001Z</time>
      </trkpt>
      <trkpt lat="49.1973" lon="6.62473">
        <ele>324</ele>
        <time>2020-01-20T15:07:35.001Z</time>
      </trkpt>
      <trkpt lat="49.19714" lon="6.62466">
        <ele>325</ele>
        <time>2020-01-20T15:07:45.001Z</time>
      </trkpt>
      <trkpt lat="49.19697" lon="6.6246">
        <ele>325</ele>
        <time>2020-01-20T15:07:55.001Z</time>
      </trkpt>
      <trkpt lat="49.19682" lon="6.62456">
        <ele>325</ele>
        <time>2020-01-20T15:08:05.001Z</time>
      </trkpt>
      <trkpt lat="49.1967" lon="6.62452">
        <ele>325</ele>
        <time>2020-01-20T15:08:15.001Z</time>
      </trkpt>
      <trkpt lat="49.19655" lon="6.62442">
        <ele>327</ele>
        <time>2020-01-20T15:08:25.001Z</time>
      </trkpt>
      <trkpt lat="49.19643" lon="6.62436">
        <ele>327</ele>
        <time>2020-01-20T15:08:35.001Z</time>
      </trkpt>
      <trkpt lat="49.19625" lon="6.62427">
        <ele>327</ele>
        <time>2020-01-20T15:08:45.001Z</time>
      </trkpt>
      <trkpt lat="49.19611" lon="6.62424">
        <ele>327</ele>
        <time>2020-01-20T15:08:55.001Z</time>
      </trkpt>
      <trkpt lat="49.196" lon="6.62425">
        <ele>327</ele>
        <time>2020-01-20T15:09:05.001Z</time>
      </trkpt>
      <trkpt lat="49.1959" lon="6.62421">
        <ele>327</ele>
        <time>2020-01-20T15:09:15.001Z</time>
      </trkpt>
      <trkpt lat="49.19573" lon="6.62416">
        <ele>326</ele>
        <time>2020-01-20T15:09:25.001Z</time>
      </trkpt>
      <trkpt lat="49.1956" lon="6.62413">
        <ele>326</ele>
        <time>2020-01-20T15:09:35.001Z</time>
      </trkpt>
      <trkpt lat="49.19548" lon="6.62412">
        <ele>326</ele>
        <time>2020-01-20T15:09:45.001Z</time>
      </trkpt>
      <trkpt lat="49.19535" lon="6.6241">
        <ele>326</ele>
        <time>2020-01-20T15:09:55.001Z</time>
      </trkpt>
      <trkpt lat="49.19522" lon="6.62411">
        <ele>326</ele>
        <time>2020-01-20T15:10:05.001Z</time>
      </trkpt>
      <trkpt lat="49.19515" lon="6.62411">
        <ele>327</ele>
        <time>2020-01-20T15:10:15.001Z</time>
      </trkpt>
      <trkpt lat="49.19503" lon="6.6241">
        <ele>328</ele>
        <time>2020-01-20T15:10:25.001Z</time>
      </trkpt>
      <trkpt lat="49.19494" lon="6.62411">
        <ele>327</ele>
        <time>2020-01-20T15:10:35.001Z</time>
      </trkpt>
      <trkpt lat="49.19486" lon="6.62407">
        <ele>326</ele>
        <time>2020-01-20T15:10:45.001Z</time>
      </trkpt>
      <trkpt lat="49.19486" lon="6.62411">
        <ele>327</ele>
        <time>2020-01-20T15:10:55.001Z</time>
      </trkpt>
      <trkpt lat="49.19487" lon="6.6241">
        <ele>327</ele>
        <time>2020-01-20T15:11:05.001Z</time>
      </trkpt>
      <trkpt lat="49.19486" lon="6.62399">
        <ele>326</ele>
        <time>2020-01-20T15:11:17.001Z</time>
      </trkpt>
      <trkpt lat="49.19485" lon="6.62395">
        <ele>325</ele>
        <time>2020-01-20T15:13:14.001Z</time>
      </trkpt>
      <trkpt lat="49.19489" lon="6.62376">
        <ele>324</ele>
        <time>2020-01-20T15:13:24.001Z</time>
      </trkpt>
      <trkpt lat="49.19496" lon="6.62382">
        <ele>325</ele>
        <time>2020-01-20T15:13:34.001Z</time>
      </trkpt>
      <trkpt lat="49.195" lon="6.62396">
        <ele>326</ele>
        <time>2020-01-20T15:13:44.001Z</time>
      </trkpt>
      <trkpt lat="49.19503" lon="6.62413">
        <ele>328</ele>
        <time>2020-01-20T15:13:54.001Z</time>
      </trkpt>
      <trkpt lat="49.19501" lon="6.62439">
        <ele>329</ele>
        <time>2020-01-20T15:14:04.001Z</time>
      </trkpt>
      <trkpt lat="49.19496" lon="6.62451">
        <ele>329</ele>
        <time>2020-01-20T15:14:14.001Z</time>
      </trkpt>
      <trkpt lat="49.19487" lon="6.62468">
        <ele>329</ele>
        <time>2020-01-20T15:14:24.001Z</time>
      </trkpt>
      <trkpt lat="49.19479" lon="6.62484">
        <ele>329</ele>
        <time>2020-01-20T15:14:34.001Z</time>
      </trkpt>
      <trkpt lat="49.19474" lon="6.62497">
        <ele>329</ele>
        <time>2020-01-20T15:14:44.001Z</time>
      </trkpt>
      <trkpt lat="49.19469" lon="6.62511">
        <ele>330</ele>
        <time>2020-01-20T15:14:54.001Z</time>
      </trkpt>
      <trkpt lat="49.19469" lon="6.62525">
        <ele>330</ele>
        <time>2020-01-20T15:15:04.001Z</time>
      </trkpt>
      <trkpt lat="49.19461" lon="6.62537">
        <ele>330</ele>
        <time>2020-01-20T15:15:14.001Z</time>
      </trkpt>
      <trkpt lat="49.19454" lon="6.6255">
        <ele>330</ele>
        <time>2020-01-20T15:15:24.001Z</time>
      </trkpt>
      <trkpt lat="49.19447" lon="6.62563">
        <ele>330</ele>
        <time>2020-01-20T15:15:34.001Z</time>
      </trkpt>
      <trkpt lat="49.19437" lon="6.62575">
        <ele>329</ele>
        <time>2020-01-20T15:15:44.001Z</time>
      </trkpt>
      <trkpt lat="49.19424" lon="6.62591">
        <ele>329</ele>
        <time>2020-01-20T15:15:54.001Z</time>
      </trkpt>
      <trkpt lat="49.19413" lon="6.62603">
        <ele>330</ele>
        <time>2020-01-20T15:16:04.001Z</time>
      </trkpt>
      <trkpt lat="49.19405" lon="6.62614">
        <ele>331</ele>
        <time>2020-01-20T15:16:14.001Z</time>
      </trkpt>
      <trkpt lat="49.19398" lon="6.62626">
        <ele>331</ele>
        <time>2020-01-20T15:16:24.001Z</time>
      </trkpt>
      <trkpt lat="49.1939" lon="6.62638">
        <ele>331</ele>
        <time>2020-01-20T15:16:34.001Z</time>
      </trkpt>
      <trkpt lat="49.19382" lon="6.62653">
        <ele>331</ele>
        <time>2020-01-20T15:16:44.001Z</time>
      </trkpt>
      <trkpt lat="49.19376" lon="6.62673">
        <ele>332</ele>
        <time>2020-01-20T15:16:54.001Z</time>
      </trkpt>
      <trkpt lat="49.19369" lon="6.62691">
        <ele>332</ele>
        <time>2020-01-20T15:17:04.001Z</time>
      </trkpt>
      <trkpt lat="49.19363" lon="6.6271">
        <ele>333</ele>
        <time>2020-01-20T15:17:14.001Z</time>
      </trkpt>
      <trkpt lat="49.19359" lon="6.62726">
        <ele>333</ele>
        <time>2020-01-20T15:17:24.001Z</time>
      </trkpt>
      <trkpt lat="49.19356" lon="6.62743">
        <ele>333</ele>
        <time>2020-01-20T15:17:34.001Z</time>
      </trkpt>
      <trkpt lat="49.19352" lon="6.62762">
        <ele>334</ele>
        <time>2020-01-20T15:17:44.001Z</time>
      </trkpt>
      <trkpt lat="49.19349" lon="6.62779">
        <ele>334</ele>
        <time>2020-01-20T15:17:54.001Z</time>
      </trkpt>
      <trkpt lat="49.19345" lon="6.62797">
        <ele>334</ele>
        <time>2020-01-20T15:18:04.001Z</time>
      </trkpt>
      <trkpt lat="49.19341" lon="6.62816">
        <ele>335</ele>
        <time>2020-01-20T15:18:14.001Z</time>
      </trkpt>
      <trkpt lat="49.19336" lon="6.62839">
        <ele>335</ele>
        <time>2020-01-20T15:18:24.001Z</time>
      </trkpt>
      <trkpt lat="49.19331" lon="6.62857">
        <ele>335</ele>
        <time>2020-01-20T15:18:34.001Z</time>
      </trkpt>
      <trkpt lat="49.19328" lon="6.62874">
        <ele>335</ele>
        <time>2020-01-20T15:18:44.001Z</time>
      </trkpt>
      <trkpt lat="49.19325" lon="6.6289">
        <ele>336</ele>
        <time>2020-01-20T15:18:54.001Z</time>
      </trkpt>
      <trkpt lat="49.19323" lon="6.62909">
        <ele>337</ele>
        <time>2020-01-20T15:19:04.001Z</time>
      </trkpt>
      <trkpt lat="49.19321" lon="6.62931">
        <ele>336</ele>
        <time>2020-01-20T15:19:14.001Z</time>
      </trkpt>
      <trkpt lat="49.1932" lon="6.62952">
        <ele>335</ele>
        <time>2020-01-20T15:19:24.001Z</time>
      </trkpt>
      <trkpt lat="49.19318" lon="6.62977">
        <ele>334</ele>
        <time>2020-01-20T15:19:34.001Z</time>
      </trkpt>
      <trkpt lat="49.19315" lon="6.62999">
        <ele>333</ele>
        <time>2020-01-20T15:19:44.001Z</time>
      </trkpt>
      <trkpt lat="49.1931" lon="6.63018">
        <ele>329</ele>
        <time>2020-01-20T15:19:54.001Z</time>
      </trkpt>
      <trkpt lat="49.19304" lon="6.63042">
        <ele>328</ele>
        <time>2020-01-20T15:20:04.001Z</time>
      </trkpt>
      <trkpt lat="49.19296" lon="6.63062">
        <ele>326</ele>
        <time>2020-01-20T15:20:14.001Z</time>
      </trkpt>
      <trkpt lat="49.19283" lon="6.63078">
        <ele>326</ele>
        <time>2020-01-20T15:20:24.001Z</time>
      </trkpt>
      <trkpt lat="49.19261" lon="6.631">
        <ele>323</ele>
        <time>2020-01-20T15:20:34.001Z</time>
      </trkpt>
      <trkpt lat="49.19258" lon="6.63103">
        <ele>323</ele>
        <time>2020-01-20T15:20:44.001Z</time>
      </trkpt>
      <trkpt lat="49.19255" lon="6.63108">
        <ele>322</ele>
        <time>2020-01-20T15:21:42.001Z</time>
      </trkpt>
      <trkpt lat="49.19254" lon="6.63109">
        <ele>322</ele>
        <time>2020-01-20T15:22:07.001Z</time>
      </trkpt>
      <trkpt lat="49.19253" lon="6.63118">
        <ele>322</ele>
        <time>2020-01-20T15:22:17.001Z</time>
      </trkpt>
      <trkpt lat="49.19247" lon="6.63134">
        <ele>320</ele>
        <time>2020-01-20T15:22:27.001Z</time>
      </trkpt>
      <trkpt lat="49.19242" lon="6.63147">
        <ele>320</ele>
        <time>2020-01-20T15:22:37.001Z</time>
      </trkpt>
      <trkpt lat="49.19234" lon="6.6316">
        <ele>320</ele>
        <time>2020-01-20T15:22:47.001Z</time>
      </trkpt>
      <trkpt lat="49.19225" lon="6.63179">
        <ele>321</ele>
        <time>2020-01-20T15:22:57.001Z</time>
      </trkpt>
      <trkpt lat="49.19216" lon="6.63193">
        <ele>321</ele>
        <time>2020-01-20T15:23:07.001Z</time>
      </trkpt>
      <trkpt lat="49.19207" lon="6.63206">
        <ele>321</ele>
        <time>2020-01-20T15:23:17.001Z</time>
      </trkpt>
      <trkpt lat="49.192" lon="6.63221">
        <ele>321</ele>
        <time>2020-01-20T15:23:27.001Z</time>
      </trkpt>
      <trkpt lat="49.19191" lon="6.63234">
        <ele>321</ele>
        <time>2020-01-20T15:23:37.001Z</time>
      </trkpt>
      <trkpt lat="49.19182" lon="6.63244">
        <ele>322</ele>
        <time>2020-01-20T15:23:47.001Z</time>
      </trkpt>
      <trkpt lat="49.19171" lon="6.63251">
        <ele>323</ele>
        <time>2020-01-20T15:23:57.001Z</time>
      </trkpt>
      <trkpt lat="49.1916" lon="6.63258">
        <ele>322</ele>
        <time>2020-01-20T15:24:07.001Z</time>
      </trkpt>
      <trkpt lat="49.19152" lon="6.6326">
        <ele>323</ele>
        <time>2020-01-20T15:24:17.001Z</time>
      </trkpt>
      <trkpt lat="49.19149" lon="6.63263">
        <ele>323</ele>
        <time>2020-01-20T15:24:27.001Z</time>
      </trkpt>
      <trkpt lat="49.19149" lon="6.63261">
        <ele>323</ele>
        <time>2020-01-20T15:24:37.001Z</time>
      </trkpt>
      <trkpt lat="49.19148" lon="6.63257">
        <ele>323</ele>
        <time>2020-01-20T15:24:51.001Z</time>
      </trkpt>
      <trkpt lat="49.19146" lon="6.63258">
        <ele>323</ele>
        <time>2020-01-20T15:25:01.001Z</time>
      </trkpt>
      <trkpt lat="49.19143" lon="6.63257">
        <ele>323</ele>
        <time>2020-01-20T15:25:11.001Z</time>
      </trkpt>
      <trkpt lat="49.19134" lon="6.63258">
        <ele>322</ele>
        <time>2020-01-20T15:25:21.001Z</time>
      </trkpt>
      <trkpt lat="49.19122" lon="6.63261">
        <ele>322</ele>
        <time>2020-01-20T15:25:31.001Z</time>
      </trkpt>
      <trkpt lat="49.19105" lon="6.63257">
        <ele>320</ele>
        <time>2020-01-20T15:25:41.001Z</time>
      </trkpt>
      <trkpt lat="49.19091" lon="6.63249">
        <ele>315</ele>
        <time>2020-01-20T15:25:51.001Z</time>
      </trkpt>
      <trkpt lat="49.19077" lon="6.63241">
        <ele>310</ele>
        <time>2020-01-20T15:26:01.001Z</time>
      </trkpt>
      <trkpt lat="49.19064" lon="6.63235">
        <ele>306</ele>
        <time>2020-01-20T15:26:11.001Z</time>
      </trkpt>
      <trkpt lat="49.19049" lon="6.63233">
        <ele>303</ele>
        <time>2020-01-20T15:26:21.001Z</time>
      </trkpt>
      <trkpt lat="49.1904" lon="6.63234">
        <ele>302</ele>
        <time>2020-01-20T15:26:31.001Z</time>
      </trkpt>
      <trkpt lat="49.19037" lon="6.63231">
        <ele>301</ele>
        <time>2020-01-20T15:26:41.001Z</time>
      </trkpt>
      <trkpt lat="49.19034" lon="6.63234">
        <ele>301</ele>
        <time>2020-01-20T15:26:51.001Z</time>
      </trkpt>
      <trkpt lat="49.1903" lon="6.63236">
        <ele>301</ele>
        <time>2020-01-20T15:27:01.001Z</time>
      </trkpt>
      <trkpt lat="49.19025" lon="6.63226">
        <ele>300</ele>
        <time>2020-01-20T15:27:11.001Z</time>
      </trkpt>
      <trkpt lat="49.19023" lon="6.63221">
        <ele>300</ele>
        <time>2020-01-20T15:27:21.001Z</time>
      </trkpt>
      <trkpt lat="49.19021" lon="6.63214">
        <ele>299</ele>
        <time>2020-01-20T15:27:32.001Z</time>
      </trkpt>
      <trkpt lat="49.19022" lon="6.63215">
        <ele>299</ele>
        <time>2020-01-20T15:27:47.001Z</time>
      </trkpt>
      <trkpt lat="49.19019" lon="6.63231">
        <ele>300</ele>
        <time>2020-01-20T15:27:57.001Z</time>
      </trkpt>
      <trkpt lat="49.19019" lon="6.63243">
        <ele>300</ele>
        <time>2020-01-20T15:28:07.001Z</time>
      </trkpt>
      <trkpt lat="49.1902" lon="6.63259">
        <ele>305</ele>
        <time>2020-01-20T15:28:17.001Z</time>
      </trkpt>
      <trkpt lat="49.1902" lon="6.63275">
        <ele>306</ele>
        <time>2020-01-20T15:28:27.001Z</time>
      </trkpt>
      <trkpt lat="49.1902" lon="6.63294">
        <ele>307</ele>
        <time>2020-01-20T15:28:37.001Z</time>
      </trkpt>
      <trkpt lat="49.1902" lon="6.63321">
        <ele>307</ele>
        <time>2020-01-20T15:28:47.001Z</time>
      </trkpt>
      <trkpt lat="49.19019" lon="6.63344">
        <ele>310</ele>
        <time>2020-01-20T15:28:57.001Z</time>
      </trkpt>
      <trkpt lat="49.19015" lon="6.63364">
        <ele>311</ele>
        <time>2020-01-20T15:29:07.001Z</time>
      </trkpt>
      <trkpt lat="49.19013" lon="6.63383">
        <ele>312</ele>
        <time>2020-01-20T15:29:17.001Z</time>
      </trkpt>
      <trkpt lat="49.19011" lon="6.63403">
        <ele>310</ele>
        <time>2020-01-20T15:29:27.001Z</time>
      </trkpt>
      <trkpt lat="49.1901" lon="6.63423">
        <ele>310</ele>
        <time>2020-01-20T15:29:37.001Z</time>
      </trkpt>
      <trkpt lat="49.1901" lon="6.63445">
        <ele>314</ele>
        <time>2020-01-20T15:29:47.001Z</time>
      </trkpt>
      <trkpt lat="49.1901" lon="6.63464">
        <ele>315</ele>
        <time>2020-01-20T15:29:57.001Z</time>
      </trkpt>
      <trkpt lat="49.19012" lon="6.6348">
        <ele>315</ele>
        <time>2020-01-20T15:30:07.001Z</time>
      </trkpt>
      <trkpt lat="49.19012" lon="6.635">
        <ele>313</ele>
        <time>2020-01-20T15:30:17.001Z</time>
      </trkpt>
      <trkpt lat="49.19007" lon="6.63524">
        <ele>318</ele>
        <time>2020-01-20T15:30:27.001Z</time>
      </trkpt>
      <trkpt lat="49.18997" lon="6.63541">
        <ele>301</ele>
        <time>2020-01-20T15:30:37.001Z</time>
      </trkpt>
      <trkpt lat="49.18985" lon="6.63561">
        <ele>302</ele>
        <time>2020-01-20T15:30:47.001Z</time>
      </trkpt>
      <trkpt lat="49.18973" lon="6.63576">
        <ele>300</ele>
        <time>2020-01-20T15:30:57.001Z</time>
      </trkpt>
      <trkpt lat="49.18962" lon="6.63587">
        <ele>299</ele>
        <time>2020-01-20T15:31:07.001Z</time>
      </trkpt>
      <trkpt lat="49.18957" lon="6.63601">
        <ele>297</ele>
        <time>2020-01-20T15:31:17.001Z</time>
      </trkpt>
      <trkpt lat="49.18956" lon="6.6361">
        <ele>297</ele>
        <time>2020-01-20T15:31:27.001Z</time>
      </trkpt>
      <trkpt lat="49.18953" lon="6.63621">
        <ele>296</ele>
        <time>2020-01-20T15:31:37.001Z</time>
      </trkpt>
      <trkpt lat="49.18953" lon="6.63633">
        <ele>296</ele>
        <time>2020-01-20T15:31:47.001Z</time>
      </trkpt>
      <trkpt lat="49.18949" lon="6.6365">
        <ele>295</ele>
        <time>2020-01-20T15:31:57.001Z</time>
      </trkpt>
      <trkpt lat="49.18949" lon="6.63667">
        <ele>292</ele>
        <time>2020-01-20T15:32:07.001Z</time>
      </trkpt>
      <trkpt lat="49.18949" lon="6.63677">
        <ele>293</ele>
        <time>2020-01-20T15:32:17.001Z</time>
      </trkpt>
      <trkpt lat="49.1895" lon="6.63687">
        <ele>293</ele>
        <time>2020-01-20T15:32:27.001Z</time>
      </trkpt>
      <trkpt lat="49.18951" lon="6.6369">
        <ele>293</ele>
        <time>2020-01-20T15:32:37.001Z</time>
      </trkpt>
      <trkpt lat="49.18952" lon="6.63699">
        <ele>293</ele>
        <time>2020-01-20T15:32:47.001Z</time>
      </trkpt>
      <trkpt lat="49.18952" lon="6.63706">
        <ele>293</ele>
        <time>2020-01-20T15:32:57.001Z</time>
      </trkpt>
      <trkpt lat="49.18951" lon="6.63708">
        <ele>293</ele>
        <time>2020-01-20T15:33:07.001Z</time>
      </trkpt>
      <trkpt lat="49.1895" lon="6.63705">
        <ele>292</ele>
        <time>2020-01-20T15:33:24.001Z</time>
      </trkpt>
      <trkpt lat="49.18953" lon="6.63709">
        <ele>293</ele>
        <time>2020-01-20T15:33:34.001Z</time>
      </trkpt>
      <trkpt lat="49.18953" lon="6.63711">
        <ele>293</ele>
        <time>2020-01-20T15:33:44.001Z</time>
      </trkpt>
      <trkpt lat="49.18955" lon="6.63713">
        <ele>293</ele>
        <time>2020-01-20T15:34:41.001Z</time>
      </trkpt>
      <trkpt lat="49.18959" lon="6.63718">
        <ele>294</ele>
        <time>2020-01-20T15:34:51.001Z</time>
      </trkpt>
      <trkpt lat="49.18964" lon="6.63728">
        <ele>294</ele>
        <time>2020-01-20T15:35:01.001Z</time>
      </trkpt>
      <trkpt lat="49.18964" lon="6.6374">
        <ele>294</ele>
        <time>2020-01-20T15:35:11.001Z</time>
      </trkpt>
      <trkpt lat="49.18965" lon="6.6375">
        <ele>295</ele>
        <time>2020-01-20T15:35:21.001Z</time>
      </trkpt>
      <trkpt lat="49.18966" lon="6.63753">
        <ele>291</ele>
        <time>2020-01-20T15:35:31.001Z</time>
      </trkpt>
      <trkpt lat="49.18968" lon="6.63754">
        <ele>292</ele>
        <time>2020-01-20T15:35:41.001Z</time>
      </trkpt>
      <trkpt lat="49.18968" lon="6.6376">
        <ele>291</ele>
        <time>2020-01-20T15:35:51.001Z</time>
      </trkpt>
      <trkpt lat="49.1897" lon="6.63772">
        <ele>291</ele>
        <time>2020-01-20T15:36:01.001Z</time>
      </trkpt>
      <trkpt lat="49.1897" lon="6.6379">
        <ele>290</ele>
        <time>2020-01-20T15:36:11.001Z</time>
      </trkpt>
      <trkpt lat="49.1897" lon="6.63806">
        <ele>290</ele>
        <time>2020-01-20T15:36:21.001Z</time>
      </trkpt>
      <trkpt lat="49.18971" lon="6.63821">
        <ele>290</ele>
        <time>2020-01-20T15:36:31.001Z</time>
      </trkpt>
      <trkpt lat="49.18976" lon="6.63836">
        <ele>289</ele>
        <time>2020-01-20T15:36:41.001Z</time>
      </trkpt>
      <trkpt lat="49.18983" lon="6.63851">
        <ele>289</ele>
        <time>2020-01-20T15:36:51.001Z</time>
      </trkpt>
      <trkpt lat="49.18987" lon="6.63863">
        <ele>288</ele>
        <time>2020-01-20T15:37:01.001Z</time>
      </trkpt>
      <trkpt lat="49.1899" lon="6.63877">
        <ele>287</ele>
        <time>2020-01-20T15:37:11.001Z</time>
      </trkpt>
      <trkpt lat="49.18996" lon="6.63894">
        <ele>288</ele>
        <time>2020-01-20T15:37:21.001Z</time>
      </trkpt>
      <trkpt lat="49.19002" lon="6.63911">
        <ele>297</ele>
        <time>2020-01-20T15:37:31.001Z</time>
      </trkpt>
      <trkpt lat="49.19006" lon="6.63929">
        <ele>298</ele>
        <time>2020-01-20T15:37:41.001Z</time>
      </trkpt>
      <trkpt lat="49.19005" lon="6.63951">
        <ele>300</ele>
        <time>2020-01-20T15:37:51.001Z</time>
      </trkpt>
      <trkpt lat="49.19009" lon="6.63974">
        <ele>298</ele>
        <time>2020-01-20T15:38:01.001Z</time>
      </trkpt>
      <trkpt lat="49.19012" lon="6.63992">
        <ele>295</ele>
        <time>2020-01-20T15:38:11.001Z</time>
      </trkpt>
      <trkpt lat="49.19014" lon="6.64011">
        <ele>292</ele>
        <time>2020-01-20T15:38:21.001Z</time>
      </trkpt>
      <trkpt lat="49.1901" lon="6.64029">
        <ele>292</ele>
        <time>2020-01-20T15:38:31.001Z</time>
      </trkpt>
      <trkpt lat="49.19005" lon="6.64041">
        <ele>292</ele>
        <time>2020-01-20T15:38:41.001Z</time>
      </trkpt>
      <trkpt lat="49.18999" lon="6.64057">
        <ele>281</ele>
        <time>2020-01-20T15:38:51.001Z</time>
      </trkpt>
      <trkpt lat="49.18997" lon="6.64072">
        <ele>283</ele>
        <time>2020-01-20T15:39:01.001Z</time>
      </trkpt>
      <trkpt lat="49.18988" lon="6.64079">
        <ele>282</ele>
        <time>2020-01-20T15:39:11.001Z</time>
      </trkpt>
      <trkpt lat="49.18978" lon="6.64089">
        <ele>282</ele>
        <time>2020-01-20T15:39:21.001Z</time>
      </trkpt>
      <trkpt lat="49.18968" lon="6.64103">
        <ele>281</ele>
        <time>2020-01-20T15:39:31.001Z</time>
      </trkpt>
      <trkpt lat="49.1896" lon="6.64116">
        <ele>280</ele>
        <time>2020-01-20T15:39:41.001Z</time>
      </trkpt>
      <trkpt lat="49.18951" lon="6.64133">
        <ele>280</ele>
        <time>2020-01-20T15:39:51.001Z</time>
      </trkpt>
      <trkpt lat="49.18942" lon="6.64147">
        <ele>279</ele>
        <time>2020-01-20T15:40:01.001Z</time>
      </trkpt>
      <trkpt lat="49.1893" lon="6.64161">
        <ele>278</ele>
        <time>2020-01-20T15:40:11.001Z</time>
      </trkpt>
      <trkpt lat="49.18913" lon="6.64175">
        <ele>272</ele>
        <time>2020-01-20T15:40:21.001Z</time>
      </trkpt>
      <trkpt lat="49.18906" lon="6.64184">
        <ele>268</ele>
        <time>2020-01-20T15:40:31.001Z</time>
      </trkpt>
      <trkpt lat="49.18902" lon="6.64198">
        <ele>266</ele>
        <time>2020-01-20T15:40:41.001Z</time>
      </trkpt>
      <trkpt lat="49.189" lon="6.6421">
        <ele>266</ele>
        <time>2020-01-20T15:40:51.001Z</time>
      </trkpt>
      <trkpt lat="49.18899" lon="6.64225">
        <ele>266</ele>
        <time>2020-01-20T15:41:01.001Z</time>
      </trkpt>
      <trkpt lat="49.18901" lon="6.64242">
        <ele>268</ele>
        <time>2020-01-20T15:41:11.001Z</time>
      </trkpt>
      <trkpt lat="49.189" lon="6.64261">
        <ele>266</ele>
        <time>2020-01-20T15:41:21.001Z</time>
      </trkpt>
      <trkpt lat="49.18899" lon="6.64273">
        <ele>263</ele>
        <time>2020-01-20T15:41:31.001Z</time>
      </trkpt>
      <trkpt lat="49.18901" lon="6.64291">
        <ele>261</ele>
        <time>2020-01-20T15:41:41.001Z</time>
      </trkpt>
      <trkpt lat="49.18909" lon="6.64306">
        <ele>262</ele>
        <time>2020-01-20T15:41:51.001Z</time>
      </trkpt>
      <trkpt lat="49.18914" lon="6.64313">
        <ele>262</ele>
        <time>2020-01-20T15:42:01.001Z</time>
      </trkpt>
      <trkpt lat="49.18916" lon="6.64316">
        <ele>263</ele>
        <time>2020-01-20T15:42:11.001Z</time>
      </trkpt>
      <trkpt lat="49.18917" lon="6.64323">
        <ele>269</ele>
        <time>2020-01-20T15:42:21.001Z</time>
      </trkpt>
      <trkpt lat="49.18917" lon="6.64326">
        <ele>268</ele>
        <time>2020-01-20T15:42:31.001Z</time>
      </trkpt>
      <trkpt lat="49.18918" lon="6.6433">
        <ele>268</ele>
        <time>2020-01-20T15:43:23.001Z</time>
      </trkpt>
      <trkpt lat="49.18918" lon="6.64332">
        <ele>267</ele>
        <time>2020-01-20T15:43:48.001Z</time>
      </trkpt>
      <trkpt lat="49.18918" lon="6.64336">
        <ele>266</ele>
        <time>2020-01-20T15:43:58.001Z</time>
      </trkpt>
      <trkpt lat="49.18921" lon="6.64345">
        <ele>264</ele>
        <time>2020-01-20T15:44:08.001Z</time>
      </trkpt>
      <trkpt lat="49.18929" lon="6.64351">
        <ele>262</ele>
        <time>2020-01-20T15:44:18.001Z</time>
      </trkpt>
      <trkpt lat="49.18939" lon="6.6436">
        <ele>261</ele>
        <time>2020-01-20T15:44:28.001Z</time>
      </trkpt>
      <trkpt lat="49.18945" lon="6.64378">
        <ele>259</ele>
        <time>2020-01-20T15:44:38.001Z</time>
      </trkpt>
      <trkpt lat="49.1895" lon="6.64388">
        <ele>258</ele>
        <time>2020-01-20T15:44:48.001Z</time>
      </trkpt>
      <trkpt lat="49.18959" lon="6.64405">
        <ele>258</ele>
        <time>2020-01-20T15:44:58.001Z</time>
      </trkpt>
      <trkpt lat="49.18968" lon="6.6444">
        <ele>252</ele>
        <time>2020-01-20T15:45:08.001Z</time>
      </trkpt>
      <trkpt lat="49.18968" lon="6.64459">
        <ele>251</ele>
        <time>2020-01-20T15:45:18.001Z</time>
      </trkpt>
      <trkpt lat="49.18967" lon="6.64474">
        <ele>251</ele>
        <time>2020-01-20T15:45:28.001Z</time>
      </trkpt>
      <trkpt lat="49.18965" lon="6.64503">
        <ele>249</ele>
        <time>2020-01-20T15:45:38.001Z</time>
      </trkpt>
      <trkpt lat="49.18959" lon="6.64524">
        <ele>248</ele>
        <time>2020-01-20T15:45:48.001Z</time>
      </trkpt>
      <trkpt lat="49.18953" lon="6.64544">
        <ele>247</ele>
        <time>2020-01-20T15:45:58.001Z</time>
      </trkpt>
      <trkpt lat="49.18949" lon="6.64562">
        <ele>246</ele>
        <time>2020-01-20T15:46:08.001Z</time>
      </trkpt>
      <trkpt lat="49.18946" lon="6.6458">
        <ele>246</ele>
        <time>2020-01-20T15:46:18.001Z</time>
      </trkpt>
      <trkpt lat="49.18947" lon="6.64587">
        <ele>246</ele>
        <time>2020-01-20T15:46:28.001Z</time>
      </trkpt>
      <trkpt lat="49.18947" lon="6.64583">
        <ele>246</ele>
        <time>2020-01-20T15:46:38.001Z</time>
      </trkpt>
      <trkpt lat="49.18944" lon="6.64578">
        <ele>245</ele>
        <time>2020-01-20T15:47:03.001Z</time>
      </trkpt>
      <trkpt lat="49.18943" lon="6.64579">
        <ele>245</ele>
        <time>2020-01-20T15:47:13.001Z</time>
      </trkpt>
      <trkpt lat="49.18942" lon="6.6458">
        <ele>245</ele>
        <time>2020-01-20T15:47:23.001Z</time>
      </trkpt>
      <trkpt lat="49.18938" lon="6.64597">
        <ele>245</ele>
        <time>2020-01-20T15:47:33.001Z</time>
      </trkpt>
      <trkpt lat="49.18934" lon="6.64624">
        <ele>246</ele>
        <time>2020-01-20T15:47:43.001Z</time>
      </trkpt>
      <trkpt lat="49.1893" lon="6.64648">
        <ele>246</ele>
        <time>2020-01-20T15:47:53.001Z</time>
      </trkpt>
      <trkpt lat="49.18923" lon="6.64669">
        <ele>245</ele>
        <time>2020-01-20T15:48:03.001Z</time>
      </trkpt>
      <trkpt lat="49.18922" lon="6.64683">
        <ele>245</ele>
        <time>2020-01-20T15:48:13.001Z</time>
      </trkpt>
      <trkpt lat="49.18921" lon="6.64684">
        <ele>245</ele>
        <time>2020-01-20T15:48:23.001Z</time>
      </trkpt>
      <trkpt lat="49.18923" lon="6.64682">
        <ele>245</ele>
        <time>2020-01-20T15:48:33.001Z</time>
      </trkpt>
      <trkpt lat="49.18932" lon="6.64676">
        <ele>246</ele>
        <time>2020-01-20T15:48:43.001Z</time>
      </trkpt>
      <trkpt lat="49.1894" lon="6.64675">
        <ele>246</ele>
        <time>2020-01-20T15:48:53.001Z</time>
      </trkpt>
      <trkpt lat="49.18955" lon="6.64672">
        <ele>247</ele>
        <time>2020-01-20T15:49:03.001Z</time>
      </trkpt>
      <trkpt lat="49.18976" lon="6.64676">
        <ele>248</ele>
        <time>2020-01-20T15:49:13.001Z</time>
      </trkpt>
      <trkpt lat="49.1899" lon="6.64685">
        <ele>249</ele>
        <time>2020-01-20T15:49:23.001Z</time>
      </trkpt>
      <trkpt lat="49.19003" lon="6.64699">
        <ele>253</ele>
        <time>2020-01-20T15:49:33.001Z</time>
      </trkpt>
      <trkpt lat="49.19014" lon="6.64709">
        <ele>253</ele>
        <time>2020-01-20T15:49:43.001Z</time>
      </trkpt>
      <trkpt lat="49.19024" lon="6.64716">
        <ele>253</ele>
        <time>2020-01-20T15:49:53.001Z</time>
      </trkpt>
      <trkpt lat="49.19037" lon="6.64723">
        <ele>253</ele>
        <time>2020-01-20T15:50:03.001Z</time>
      </trkpt>
      <trkpt lat="49.1905" lon="6.64731">
        <ele>254</ele>
        <time>2020-01-20T15:50:13.001Z</time>
      </trkpt>
      <trkpt lat="49.19063" lon="6.64738">
        <ele>255</ele>
        <time>2020-01-20T15:50:23.001Z</time>
      </trkpt>
      <trkpt lat="49.19073" lon="6.64744">
        <ele>255</ele>
        <time>2020-01-20T15:50:33.001Z</time>
      </trkpt>
      <trkpt lat="49.19083" lon="6.64753">
        <ele>256</ele>
        <time>2020-01-20T15:50:43.001Z</time>
      </trkpt>
      <trkpt lat="49.19092" lon="6.64762">
        <ele>259</ele>
        <time>2020-01-20T15:50:53.001Z</time>
      </trkpt>
      <trkpt lat="49.19102" lon="6.64769">
        <ele>260</ele>
        <time>2020-01-20T15:51:03.001Z</time>
      </trkpt>
      <trkpt lat="49.19112" lon="6.64776">
        <ele>262</ele>
        <time>2020-01-20T15:51:13.001Z</time>
      </trkpt>
      <trkpt lat="49.19121" lon="6.64781">
        <ele>262</ele>
        <time>2020-01-20T15:51:23.001Z</time>
      </trkpt>
      <trkpt lat="49.19132" lon="6.64795">
        <ele>263</ele>
        <time>2020-01-20T15:51:33.001Z</time>
      </trkpt>
      <trkpt lat="49.19141" lon="6.64817">
        <ele>264</ele>
        <time>2020-01-20T15:51:43.001Z</time>
      </trkpt>
      <trkpt lat="49.19147" lon="6.6484">
        <ele>264</ele>
        <time>2020-01-20T15:51:53.001Z</time>
      </trkpt>
      <trkpt lat="49.19152" lon="6.6486">
        <ele>263</ele>
        <time>2020-01-20T15:52:03.001Z</time>
      </trkpt>
      <trkpt lat="49.19154" lon="6.64879">
        <ele>262</ele>
        <time>2020-01-20T15:52:13.001Z</time>
      </trkpt>
      <trkpt lat="49.19153" lon="6.64905">
        <ele>263</ele>
        <time>2020-01-20T15:52:23.001Z</time>
      </trkpt>
      <trkpt lat="49.19154" lon="6.64925">
        <ele>262</ele>
        <time>2020-01-20T15:52:33.001Z</time>
      </trkpt>
      <trkpt lat="49.19153" lon="6.64943">
        <ele>261</ele>
        <time>2020-01-20T15:52:43.001Z</time>
      </trkpt>
      <trkpt lat="49.19159" lon="6.64959">
        <ele>261</ele>
        <time>2020-01-20T15:52:53.001Z</time>
      </trkpt>
      <trkpt lat="49.19165" lon="6.64979">
        <ele>261</ele>
        <time>2020-01-20T15:53:03.001Z</time>
      </trkpt>
      <trkpt lat="49.1917" lon="6.64998">
        <ele>266</ele>
        <time>2020-01-20T15:53:13.001Z</time>
      </trkpt>
      <trkpt lat="49.19171" lon="6.65019">
        <ele>268</ele>
        <time>2020-01-20T15:53:23.001Z</time>
      </trkpt>
      <trkpt lat="49.19172" lon="6.65043">
        <ele>269</ele>
        <time>2020-01-20T15:53:33.001Z</time>
      </trkpt>
      <trkpt lat="49.19177" lon="6.65063">
        <ele>268</ele>
        <time>2020-01-20T15:53:43.001Z</time>
      </trkpt>
      <trkpt lat="49.19183" lon="6.65083">
        <ele>267</ele>
        <time>2020-01-20T15:53:53.001Z</time>
      </trkpt>
      <trkpt lat="49.19189" lon="6.65102">
        <ele>268</ele>
        <time>2020-01-20T15:54:03.001Z</time>
      </trkpt>
      <trkpt lat="49.19192" lon="6.65123">
        <ele>268</ele>
        <time>2020-01-20T15:54:13.001Z</time>
      </trkpt>
      <trkpt lat="49.19195" lon="6.65143">
        <ele>267</ele>
        <time>2020-01-20T15:54:23.001Z</time>
      </trkpt>
      <trkpt lat="49.19199" lon="6.65162">
        <ele>267</ele>
        <time>2020-01-20T15:54:33.001Z</time>
      </trkpt>
      <trkpt lat="49.192" lon="6.6518">
        <ele>265</ele>
        <time>2020-01-20T15:54:43.001Z</time>
      </trkpt>
      <trkpt lat="49.19205" lon="6.652">
        <ele>266</ele>
        <time>2020-01-20T15:54:53.001Z</time>
      </trkpt>
      <trkpt lat="49.19212" lon="6.65222">
        <ele>266</ele>
        <time>2020-01-20T15:55:03.001Z</time>
      </trkpt>
      <trkpt lat="49.19218" lon="6.65246">
        <ele>266</ele>
        <time>2020-01-20T15:55:13.001Z</time>
      </trkpt>
      <trkpt lat="49.19225" lon="6.65266">
        <ele>265</ele>
        <time>2020-01-20T15:55:23.001Z</time>
      </trkpt>
      <trkpt lat="49.19233" lon="6.65287">
        <ele>265</ele>
        <time>2020-01-20T15:55:33.001Z</time>
      </trkpt>
      <trkpt lat="49.19236" lon="6.65305">
        <ele>265</ele>
        <time>2020-01-20T15:55:43.001Z</time>
      </trkpt>
      <trkpt lat="49.19242" lon="6.65323">
        <ele>266</ele>
        <time>2020-01-20T15:55:53.001Z</time>
      </trkpt>
      <trkpt lat="49.19241" lon="6.65349">
        <ele>264</ele>
        <time>2020-01-20T15:56:03.001Z</time>
      </trkpt>
      <trkpt lat="49.19243" lon="6.65377">
        <ele>262</ele>
        <time>2020-01-20T15:56:13.001Z</time>
      </trkpt>
      <trkpt lat="49.19246" lon="6.65402">
        <ele>263</ele>
        <time>2020-01-20T15:56:23.001Z</time>
      </trkpt>
      <trkpt lat="49.19248" lon="6.65422">
        <ele>264</ele>
        <time>2020-01-20T15:56:33.001Z</time>
      </trkpt>
      <trkpt lat="49.19252" lon="6.65439">
        <ele>270</ele>
        <time>2020-01-20T15:56:43.001Z</time>
      </trkpt>
      <trkpt lat="49.19259" lon="6.6546">
        <ele>271</ele>
        <time>2020-01-20T15:56:53.001Z</time>
      </trkpt>
      <trkpt lat="49.19264" lon="6.65477">
        <ele>270</ele>
        <time>2020-01-20T15:57:03.001Z</time>
      </trkpt>
      <trkpt lat="49.19269" lon="6.65493">
        <ele>270</ele>
        <time>2020-01-20T15:57:13.001Z</time>
      </trkpt>
      <trkpt lat="49.19275" lon="6.65513">
        <ele>268</ele>
        <time>2020-01-20T15:57:23.001Z</time>
      </trkpt>
      <trkpt lat="49.19281" lon="6.65533">
        <ele>269</ele>
        <time>2020-01-20T15:57:33.001Z</time>
      </trkpt>
      <trkpt lat="49.19288" lon="6.65542">
        <ele>269</ele>
        <time>2020-01-20T15:57:43.001Z</time>
      </trkpt>
      <trkpt lat="49.19289" lon="6.65549">
        <ele>269</ele>
        <time>2020-01-20T15:57:53.001Z</time>
      </trkpt>
      <trkpt lat="49.19293" lon="6.65559">
        <ele>269</ele>
        <time>2020-01-20T15:58:03.001Z</time>
      </trkpt>
      <trkpt lat="49.19296" lon="6.65583">
        <ele>268</ele>
        <time>2020-01-20T15:58:13.001Z</time>
      </trkpt>
      <trkpt lat="49.19305" lon="6.65606">
        <ele>264</ele>
        <time>2020-01-20T15:58:23.001Z</time>
      </trkpt>
      <trkpt lat="49.19312" lon="6.65621">
        <ele>264</ele>
        <time>2020-01-20T15:58:33.001Z</time>
      </trkpt>
      <trkpt lat="49.19312" lon="6.65632">
        <ele>263</ele>
        <time>2020-01-20T15:58:43.001Z</time>
      </trkpt>
      <trkpt lat="49.19317" lon="6.65651">
        <ele>263</ele>
        <time>2020-01-20T15:58:53.001Z</time>
      </trkpt>
      <trkpt lat="49.19326" lon="6.65661">
        <ele>264</ele>
        <time>2020-01-20T15:59:03.001Z</time>
      </trkpt>
      <trkpt lat="49.19337" lon="6.65668">
        <ele>265</ele>
        <time>2020-01-20T15:59:13.001Z</time>
      </trkpt>
      <trkpt lat="49.19354" lon="6.65675">
        <ele>265</ele>
        <time>2020-01-20T15:59:23.001Z</time>
      </trkpt>
      <trkpt lat="49.19372" lon="6.65682">
        <ele>266</ele>
        <time>2020-01-20T15:59:33.001Z</time>
      </trkpt>
      <trkpt lat="49.19384" lon="6.65691">
        <ele>266</ele>
        <time>2020-01-20T15:59:43.001Z</time>
      </trkpt>
      <trkpt lat="49.19394" lon="6.65704">
        <ele>266</ele>
        <time>2020-01-20T15:59:53.001Z</time>
      </trkpt>
      <trkpt lat="49.19404" lon="6.65717">
        <ele>265</ele>
        <time>2020-01-20T16:00:03.001Z</time>
      </trkpt>
      <trkpt lat="49.19415" lon="6.6573">
        <ele>265</ele>
        <time>2020-01-20T16:00:13.001Z</time>
      </trkpt>
      <trkpt lat="49.19426" lon="6.65744">
        <ele>265</ele>
        <time>2020-01-20T16:00:23.001Z</time>
      </trkpt>
      <trkpt lat="49.19436" lon="6.65758">
        <ele>262</ele>
        <time>2020-01-20T16:00:33.001Z</time>
      </trkpt>
      <trkpt lat="49.19438" lon="6.65776">
        <ele>261</ele>
        <time>2020-01-20T16:00:43.001Z</time>
      </trkpt>
      <trkpt lat="49.19447" lon="6.65786">
        <ele>261</ele>
        <time>2020-01-20T16:00:53.001Z</time>
      </trkpt>
      <trkpt lat="49.19453" lon="6.658">
        <ele>260</ele>
        <time>2020-01-20T16:01:03.001Z</time>
      </trkpt>
      <trkpt lat="49.19457" lon="6.65813">
        <ele>260</ele>
        <time>2020-01-20T16:01:13.001Z</time>
      </trkpt>
      <trkpt lat="49.19458" lon="6.65825">
        <ele>260</ele>
        <time>2020-01-20T16:01:23.001Z</time>
      </trkpt>
      <trkpt lat="49.19459" lon="6.65833">
        <ele>260</ele>
        <time>2020-01-20T16:01:33.001Z</time>
      </trkpt>
      <trkpt lat="49.19459" lon="6.6584">
        <ele>256</ele>
        <time>2020-01-20T16:01:43.001Z</time>
      </trkpt>
      <trkpt lat="49.19466" lon="6.65836">
        <ele>256</ele>
        <time>2020-01-20T16:01:53.001Z</time>
      </trkpt>
      <trkpt lat="49.19469" lon="6.6583">
        <ele>259</ele>
        <time>2020-01-20T16:02:03.001Z</time>
      </trkpt>
      <trkpt lat="49.19475" lon="6.65832">
        <ele>259</ele>
        <time>2020-01-20T16:02:13.001Z</time>
      </trkpt>
      <trkpt lat="49.1948" lon="6.65836">
        <ele>256</ele>
        <time>2020-01-20T16:02:23.001Z</time>
      </trkpt>
      <trkpt lat="49.1949" lon="6.65846">
        <ele>256</ele>
        <time>2020-01-20T16:02:33.001Z</time>
      </trkpt>
      <trkpt lat="49.19501" lon="6.65858">
        <ele>253</ele>
        <time>2020-01-20T16:02:43.001Z</time>
      </trkpt>
      <trkpt lat="49.19509" lon="6.65872">
        <ele>251</ele>
        <time>2020-01-20T16:02:53.001Z</time>
      </trkpt>
      <trkpt lat="49.19514" lon="6.65878">
        <ele>250</ele>
        <time>2020-01-20T16:03:03.001Z</time>
      </trkpt>
      <trkpt lat="49.19513" lon="6.65882">
        <ele>250</ele>
        <time>2020-01-20T16:03:58.001Z</time>
      </trkpt>
      <trkpt lat="49.19517" lon="6.65886">
        <ele>250</ele>
        <time>2020-01-20T16:04:08.001Z</time>
      </trkpt>
      <trkpt lat="49.19519" lon="6.65886">
        <ele>250</ele>
        <time>2020-01-20T16:04:18.001Z</time>
      </trkpt>
      <trkpt lat="49.19521" lon="6.65891">
        <ele>249</ele>
        <time>2020-01-20T16:04:28.001Z</time>
      </trkpt>
      <trkpt lat="49.19529" lon="6.65896">
        <ele>249</ele>
        <time>2020-01-20T16:04:38.001Z</time>
      </trkpt>
      <trkpt lat="49.19538" lon="6.65909">
        <ele>248</ele>
        <time>2020-01-20T16:04:48.001Z</time>
      </trkpt>
      <trkpt lat="49.19547" lon="6.65924">
        <ele>243</ele>
        <time>2020-01-20T16:04:58.001Z</time>
      </trkpt>
      <trkpt lat="49.19553" lon="6.65932">
        <ele>242</ele>
        <time>2020-01-20T16:05:08.001Z</time>
      </trkpt>
      <trkpt lat="49.19553" lon="6.65956">
        <ele>242</ele>
        <time>2020-01-20T16:05:18.001Z</time>
      </trkpt>
      <trkpt lat="49.19549" lon="6.65981">
        <ele>241</ele>
        <time>2020-01-20T16:05:28.001Z</time>
      </trkpt>
      <trkpt lat="49.19543" lon="6.66001">
        <ele>239</ele>
        <time>2020-01-20T16:05:38.001Z</time>
      </trkpt>
      <trkpt lat="49.19538" lon="6.66022">
        <ele>239</ele>
        <time>2020-01-20T16:05:48.001Z</time>
      </trkpt>
      <trkpt lat="49.19533" lon="6.6604">
        <ele>239</ele>
        <time>2020-01-20T16:05:58.001Z</time>
      </trkpt>
      <trkpt lat="49.19529" lon="6.66058">
        <ele>239</ele>
        <time>2020-01-20T16:06:08.001Z</time>
      </trkpt>
      <trkpt lat="49.19525" lon="6.66079">
        <ele>239</ele>
        <time>2020-01-20T16:06:18.001Z</time>
      </trkpt>
      <trkpt lat="49.19523" lon="6.66096">
        <ele>239</ele>
        <time>2020-01-20T16:06:28.001Z</time>
      </trkpt>
      <trkpt lat="49.19521" lon="6.66114">
        <ele>240</ele>
        <time>2020-01-20T16:06:38.001Z</time>
      </trkpt>
      <trkpt lat="49.19515" lon="6.66134">
        <ele>240</ele>
        <time>2020-01-20T16:06:48.001Z</time>
      </trkpt>
      <trkpt lat="49.19509" lon="6.66155">
        <ele>240</ele>
        <time>2020-01-20T16:06:58.001Z</time>
      </trkpt>
      <trkpt lat="49.19503" lon="6.66174">
        <ele>240</ele>
        <time>2020-01-20T16:07:08.001Z</time>
      </trkpt>
      <trkpt lat="49.19499" lon="6.6619">
        <ele>238</ele>
        <time>2020-01-20T16:07:18.001Z</time>
      </trkpt>
      <trkpt lat="49.19497" lon="6.66206">
        <ele>238</ele>
        <time>2020-01-20T16:07:28.001Z</time>
      </trkpt>
      <trkpt lat="49.19494" lon="6.66227">
        <ele>239</ele>
        <time>2020-01-20T16:07:38.001Z</time>
      </trkpt>
      <trkpt lat="49.19491" lon="6.66246">
        <ele>240</ele>
        <time>2020-01-20T16:07:48.001Z</time>
      </trkpt>
      <trkpt lat="49.19492" lon="6.66257">
        <ele>240</ele>
        <time>2020-01-20T16:07:58.001Z</time>
      </trkpt>
      <trkpt lat="49.19492" lon="6.66278">
        <ele>239</ele>
        <time>2020-01-20T16:08:08.001Z</time>
      </trkpt>
      <trkpt lat="49.19494" lon="6.66297">
        <ele>239</ele>
        <time>2020-01-20T16:08:18.001Z</time>
      </trkpt>
      <trkpt lat="49.19498" lon="6.66315">
        <ele>239</ele>
        <time>2020-01-20T16:08:28.001Z</time>
      </trkpt>
      <trkpt lat="49.195" lon="6.66334">
        <ele>240</ele>
        <time>2020-01-20T16:08:38.001Z</time>
      </trkpt>
      <trkpt lat="49.19504" lon="6.66353">
        <ele>245</ele>
        <time>2020-01-20T16:08:48.001Z</time>
      </trkpt>
      <trkpt lat="49.19508" lon="6.66374">
        <ele>247</ele>
        <time>2020-01-20T16:08:58.001Z</time>
      </trkpt>
      <trkpt lat="49.19511" lon="6.6639">
        <ele>247</ele>
        <time>2020-01-20T16:09:08.001Z</time>
      </trkpt>
      <trkpt lat="49.19509" lon="6.66412">
        <ele>245</ele>
        <time>2020-01-20T16:09:18.001Z</time>
      </trkpt>
      <trkpt lat="49.19504" lon="6.66431">
        <ele>246</ele>
        <time>2020-01-20T16:09:28.001Z</time>
      </trkpt>
      <trkpt lat="49.19502" lon="6.6645">
        <ele>247</ele>
        <time>2020-01-20T16:09:38.001Z</time>
      </trkpt>
      <trkpt lat="49.19502" lon="6.66469">
        <ele>247</ele>
        <time>2020-01-20T16:09:48.001Z</time>
      </trkpt>
      <trkpt lat="49.19509" lon="6.66472">
        <ele>247</ele>
        <time>2020-01-20T16:09:58.001Z</time>
      </trkpt>
      <trkpt lat="49.19517" lon="6.66464">
        <ele>248</ele>
        <time>2020-01-20T16:10:08.001Z</time>
      </trkpt>
      <trkpt lat="49.19528" lon="6.66462">
        <ele>249</ele>
        <time>2020-01-20T16:10:18.001Z</time>
      </trkpt>
      <trkpt lat="49.1954" lon="6.66466">
        <ele>250</ele>
        <time>2020-01-20T16:10:28.001Z</time>
      </trkpt>
      <trkpt lat="49.1955" lon="6.66474">
        <ele>251</ele>
        <time>2020-01-20T16:10:38.001Z</time>
      </trkpt>
      <trkpt lat="49.1956" lon="6.66485">
        <ele>252</ele>
        <time>2020-01-20T16:10:48.001Z</time>
      </trkpt>
      <trkpt lat="49.19567" lon="6.66506">
        <ele>253</ele>
        <time>2020-01-20T16:10:58.001Z</time>
      </trkpt>
      <trkpt lat="49.19576" lon="6.66525">
        <ele>253</ele>
        <time>2020-01-20T16:11:08.001Z</time>
      </trkpt>
      <trkpt lat="49.19582" lon="6.66546">
        <ele>253</ele>
        <time>2020-01-20T16:11:18.001Z</time>
      </trkpt>
      <trkpt lat="49.19582" lon="6.66569">
        <ele>254</ele>
        <time>2020-01-20T16:11:28.001Z</time>
      </trkpt>
      <trkpt lat="49.19581" lon="6.66592">
        <ele>255</ele>
        <time>2020-01-20T16:11:38.001Z</time>
      </trkpt>
      <trkpt lat="49.19578" lon="6.66613">
        <ele>252</ele>
        <time>2020-01-20T16:11:48.001Z</time>
      </trkpt>
      <trkpt lat="49.19576" lon="6.66628">
        <ele>251</ele>
        <time>2020-01-20T16:11:58.001Z</time>
      </trkpt>
      <trkpt lat="49.19573" lon="6.66645">
        <ele>252</ele>
        <time>2020-01-20T16:12:08.001Z</time>
      </trkpt>
      <trkpt lat="49.19574" lon="6.66661">
        <ele>253</ele>
        <time>2020-01-20T16:12:18.001Z</time>
      </trkpt>
      <trkpt lat="49.19577" lon="6.66677">
        <ele>252</ele>
        <time>2020-01-20T16:12:28.001Z</time>
      </trkpt>
      <trkpt lat="49.19582" lon="6.66694">
        <ele>251</ele>
        <time>2020-01-20T16:12:38.001Z</time>
      </trkpt>
      <trkpt lat="49.19585" lon="6.66712">
        <ele>256</ele>
        <time>2020-01-20T16:12:48.001Z</time>
      </trkpt>
      <trkpt lat="49.19589" lon="6.66729">
        <ele>255</ele>
        <time>2020-01-20T16:12:58.001Z</time>
      </trkpt>
      <trkpt lat="49.19591" lon="6.66747">
        <ele>254</ele>
        <time>2020-01-20T16:13:08.001Z</time>
      </trkpt>
      <trkpt lat="49.19595" lon="6.66764">
        <ele>253</ele>
        <time>2020-01-20T16:13:18.001Z</time>
      </trkpt>
      <trkpt lat="49.196" lon="6.66785">
        <ele>253</ele>
        <time>2020-01-20T16:13:28.001Z</time>
      </trkpt>
      <trkpt lat="49.19605" lon="6.66803">
        <ele>253</ele>
        <time>2020-01-20T16:13:38.001Z</time>
      </trkpt>
      <trkpt lat="49.1961" lon="6.66823">
        <ele>253</ele>
        <time>2020-01-20T16:13:48.001Z</time>
      </trkpt>
      <trkpt lat="49.19614" lon="6.66844">
        <ele>251</ele>
        <time>2020-01-20T16:13:58.001Z</time>
      </trkpt>
      <trkpt lat="49.19617" lon="6.66865">
        <ele>251</ele>
        <time>2020-01-20T16:14:08.001Z</time>
      </trkpt>
      <trkpt lat="49.1962" lon="6.66886">
        <ele>251</ele>
        <time>2020-01-20T16:14:18.001Z</time>
      </trkpt>
      <trkpt lat="49.19624" lon="6.66904">
        <ele>251</ele>
        <time>2020-01-20T16:14:28.001Z</time>
      </trkpt>
      <trkpt lat="49.19628" lon="6.6692">
        <ele>248</ele>
        <time>2020-01-20T16:14:38.001Z</time>
      </trkpt>
      <trkpt lat="49.19632" lon="6.66941">
        <ele>247</ele>
        <time>2020-01-20T16:14:48.001Z</time>
      </trkpt>
      <trkpt lat="49.19635" lon="6.66961">
        <ele>246</ele>
        <time>2020-01-20T16:14:58.001Z</time>
      </trkpt>
      <trkpt lat="49.19637" lon="6.66979">
        <ele>245</ele>
        <time>2020-01-20T16:15:08.001Z</time>
      </trkpt>
      <trkpt lat="49.19638" lon="6.66997">
        <ele>245</ele>
        <time>2020-01-20T16:15:18.001Z</time>
      </trkpt>
      <trkpt lat="49.19631" lon="6.67018">
        <ele>241</ele>
        <time>2020-01-20T16:15:28.001Z</time>
      </trkpt>
      <trkpt lat="49.19622" lon="6.67036">
        <ele>241</ele>
        <time>2020-01-20T16:15:38.001Z</time>
      </trkpt>
      <trkpt lat="49.19611" lon="6.67052">
        <ele>240</ele>
        <time>2020-01-20T16:15:48.001Z</time>
      </trkpt>
      <trkpt lat="49.196" lon="6.67068">
        <ele>239</ele>
        <time>2020-01-20T16:15:58.001Z</time>
      </trkpt>
      <trkpt lat="49.19592" lon="6.67084">
        <ele>236</ele>
        <time>2020-01-20T16:16:08.001Z</time>
      </trkpt>
      <trkpt lat="49.19583" lon="6.67097">
        <ele>235</ele>
        <time>2020-01-20T16:16:18.001Z</time>
      </trkpt>
      <trkpt lat="49.19573" lon="6.67112">
        <ele>234</ele>
        <time>2020-01-20T16:16:28.001Z</time>
      </trkpt>
      <trkpt lat="49.19563" lon="6.67128">
        <ele>233</ele>
        <time>2020-01-20T16:16:38.001Z</time>
      </trkpt>
      <trkpt lat="49.19554" lon="6.67142">
        <ele>233</ele>
        <time>2020-01-20T16:16:48.001Z</time>
      </trkpt>
      <trkpt lat="49.19546" lon="6.67154">
        <ele>232</ele>
        <time>2020-01-20T16:16:58.001Z</time>
      </trkpt>
      <trkpt lat="49.19536" lon="6.67171">
        <ele>231</ele>
        <time>2020-01-20T16:17:08.001Z</time>
      </trkpt>
      <trkpt lat="49.19527" lon="6.67187">
        <ele>231</ele>
        <time>2020-01-20T16:17:18.001Z</time>
      </trkpt>
      <trkpt lat="49.19519" lon="6.67204">
        <ele>231</ele>
        <time>2020-01-20T16:17:28.001Z</time>
      </trkpt>
      <trkpt lat="49.19512" lon="6.67221">
        <ele>230</ele>
        <time>2020-01-20T16:17:38.001Z</time>
      </trkpt>
      <trkpt lat="49.19503" lon="6.67235">
        <ele>229</ele>
        <time>2020-01-20T16:17:48.001Z</time>
      </trkpt>
      <trkpt lat="49.19495" lon="6.6725">
        <ele>228</ele>
        <time>2020-01-20T16:17:58.001Z</time>
      </trkpt>
      <trkpt lat="49.19489" lon="6.67269">
        <ele>227</ele>
        <time>2020-01-20T16:18:08.001Z</time>
      </trkpt>
      <trkpt lat="49.1948" lon="6.67285">
        <ele>227</ele>
        <time>2020-01-20T16:18:18.001Z</time>
      </trkpt>
      <trkpt lat="49.19471" lon="6.67301">
        <ele>227</ele>
        <time>2020-01-20T16:18:28.001Z</time>
      </trkpt>
      <trkpt lat="49.19466" lon="6.67316">
        <ele>227</ele>
        <time>2020-01-20T16:18:38.001Z</time>
      </trkpt>
      <trkpt lat="49.19462" lon="6.67331">
        <ele>227</ele>
        <time>2020-01-20T16:18:48.001Z</time>
      </trkpt>
      <trkpt lat="49.19455" lon="6.67343">
        <ele>227</ele>
        <time>2020-01-20T16:18:58.001Z</time>
      </trkpt>
      <trkpt lat="49.19449" lon="6.67359">
        <ele>227</ele>
        <time>2020-01-20T16:19:08.001Z</time>
      </trkpt>
      <trkpt lat="49.19444" lon="6.67376">
        <ele>227</ele>
        <time>2020-01-20T16:19:18.001Z</time>
      </trkpt>
      <trkpt lat="49.19438" lon="6.67392">
        <ele>227</ele>
        <time>2020-01-20T16:19:28.001Z</time>
      </trkpt>
      <trkpt lat="49.19431" lon="6.6741">
        <ele>227</ele>
        <time>2020-01-20T16:19:38.001Z</time>
      </trkpt>
      <trkpt lat="49.19423" lon="6.67426">
        <ele>227</ele>
        <time>2020-01-20T16:19:48.001Z</time>
      </trkpt>
      <trkpt lat="49.19417" lon="6.67444">
        <ele>225</ele>
        <time>2020-01-20T16:19:58.001Z</time>
      </trkpt>
      <trkpt lat="49.19409" lon="6.67461">
        <ele>225</ele>
        <time>2020-01-20T16:20:08.001Z</time>
      </trkpt>
      <trkpt lat="49.194" lon="6.67478">
        <ele>225</ele>
        <time>2020-01-20T16:20:18.001Z</time>
      </trkpt>
      <trkpt lat="49.19389" lon="6.67492">
        <ele>225</ele>
        <time>2020-01-20T16:20:28.001Z</time>
      </trkpt>
      <trkpt lat="49.19377" lon="6.67503">
        <ele>224</ele>
        <time>2020-01-20T16:20:38.001Z</time>
      </trkpt>
      <trkpt lat="49.19362" lon="6.67504">
        <ele>224</ele>
        <time>2020-01-20T16:20:48.001Z</time>
      </trkpt>
      <trkpt lat="49.19359" lon="6.67516">
        <ele>224</ele>
        <time>2020-01-20T16:20:58.001Z</time>
      </trkpt>
      <trkpt lat="49.19359" lon="6.6753">
        <ele>224</ele>
        <time>2020-01-20T16:21:08.001Z</time>
      </trkpt>
      <trkpt lat="49.19358" lon="6.67548">
        <ele>224</ele>
        <time>2020-01-20T16:21:18.001Z</time>
      </trkpt>
      <trkpt lat="49.19356" lon="6.67568">
        <ele>224</ele>
        <time>2020-01-20T16:21:28.001Z</time>
      </trkpt>
      <trkpt lat="49.19354" lon="6.67587">
        <ele>224</ele>
        <time>2020-01-20T16:21:38.001Z</time>
      </trkpt>
      <trkpt lat="49.19352" lon="6.67605">
        <ele>224</ele>
        <time>2020-01-20T16:21:48.001Z</time>
      </trkpt>
      <trkpt lat="49.19348" lon="6.67628">
        <ele>224</ele>
        <time>2020-01-20T16:21:58.001Z</time>
      </trkpt>
      <trkpt lat="49.19342" lon="6.67649">
        <ele>224</ele>
        <time>2020-01-20T16:22:08.001Z</time>
      </trkpt>
      <trkpt lat="49.19335" lon="6.67669">
        <ele>223</ele>
        <time>2020-01-20T16:22:18.001Z</time>
      </trkpt>
      <trkpt lat="49.19326" lon="6.67687">
        <ele>221</ele>
        <time>2020-01-20T16:22:28.001Z</time>
      </trkpt>
      <trkpt lat="49.19313" lon="6.67684">
        <ele>220</ele>
        <time>2020-01-20T16:22:38.001Z</time>
      </trkpt>
      <trkpt lat="49.1931" lon="6.67686">
        <ele>220</ele>
        <time>2020-01-20T16:22:48.001Z</time>
      </trkpt>
      <trkpt lat="49.1931" lon="6.67687">
        <ele>220</ele>
        <time>2020-01-20T16:22:59.001Z</time>
      </trkpt>
      <trkpt lat="49.19315" lon="6.67699">
        <ele>220</ele>
        <time>2020-01-20T16:23:09.001Z</time>
      </trkpt>
      <trkpt lat="49.19314" lon="6.67716">
        <ele>220</ele>
        <time>2020-01-20T16:23:19.001Z</time>
      </trkpt>
      <trkpt lat="49.19308" lon="6.67735">
        <ele>220</ele>
        <time>2020-01-20T16:23:29.001Z</time>
      </trkpt>
      <trkpt lat="49.193" lon="6.67752">
        <ele>219</ele>
        <time>2020-01-20T16:23:39.001Z</time>
      </trkpt>
      <trkpt lat="49.19292" lon="6.67767">
        <ele>219</ele>
        <time>2020-01-20T16:23:49.001Z</time>
      </trkpt>
      <trkpt lat="49.19288" lon="6.67777">
        <ele>219</ele>
        <time>2020-01-20T16:23:59.001Z</time>
      </trkpt>
      <trkpt lat="49.19285" lon="6.67774">
        <ele>219</ele>
        <time>2020-01-20T16:24:15.001Z</time>
      </trkpt>
      <trkpt lat="49.19282" lon="6.67779">
        <ele>219</ele>
        <time>2020-01-20T16:24:25.001Z</time>
      </trkpt>
      <trkpt lat="49.19276" lon="6.67792">
        <ele>219</ele>
        <time>2020-01-20T16:24:35.001Z</time>
      </trkpt>
      <trkpt lat="49.19268" lon="6.67807">
        <ele>219</ele>
        <time>2020-01-20T16:24:45.001Z</time>
      </trkpt>
      <trkpt lat="49.19259" lon="6.67829">
        <ele>218</ele>
        <time>2020-01-20T16:24:55.001Z</time>
      </trkpt>
      <trkpt lat="49.19251" lon="6.67852">
        <ele>218</ele>
        <time>2020-01-20T16:25:05.001Z</time>
      </trkpt>
      <trkpt lat="49.19243" lon="6.67865">
        <ele>217</ele>
        <time>2020-01-20T16:25:15.001Z</time>
      </trkpt>
      <trkpt lat="49.19238" lon="6.67871">
        <ele>217</ele>
        <time>2020-01-20T16:25:25.001Z</time>
      </trkpt>
      <trkpt lat="49.19236" lon="6.67875">
        <ele>217</ele>
        <time>2020-01-20T16:25:35.001Z</time>
      </trkpt>
      <trkpt lat="49.19235" lon="6.67884">
        <ele>218</ele>
        <time>2020-01-20T16:25:45.001Z</time>
      </trkpt>
      <trkpt lat="49.19234" lon="6.67899">
        <ele>218</ele>
        <time>2020-01-20T16:25:55.001Z</time>
      </trkpt>
      <trkpt lat="49.19229" lon="6.67919">
        <ele>219</ele>
        <time>2020-01-20T16:26:05.001Z</time>
      </trkpt>
      <trkpt lat="49.19222" lon="6.67937">
        <ele>219</ele>
        <time>2020-01-20T16:26:15.001Z</time>
      </trkpt>
      <trkpt lat="49.1921" lon="6.67959">
        <ele>219</ele>
        <time>2020-01-20T16:26:25.001Z</time>
      </trkpt>
      <trkpt lat="49.19199" lon="6.67972">
        <ele>220</ele>
        <time>2020-01-20T16:26:35.001Z</time>
      </trkpt>
      <trkpt lat="49.19188" lon="6.67987">
        <ele>221</ele>
        <time>2020-01-20T16:26:45.001Z</time>
      </trkpt>
      <trkpt lat="49.1918" lon="6.68001">
        <ele>224</ele>
        <time>2020-01-20T16:26:55.001Z</time>
      </trkpt>
      <trkpt lat="49.19171" lon="6.68005">
        <ele>224</ele>
        <time>2020-01-20T16:27:05.001Z</time>
      </trkpt>
      <trkpt lat="49.19163" lon="6.67995">
        <ele>224</ele>
        <time>2020-01-20T16:27:15.001Z</time>
      </trkpt>
      <trkpt lat="49.19149" lon="6.6799">
        <ele>224</ele>
        <time>2020-01-20T16:27:25.001Z</time>
      </trkpt>
      <trkpt lat="49.19135" lon="6.67983">
        <ele>225</ele>
        <time>2020-01-20T16:27:35.001Z</time>
      </trkpt>
      <trkpt lat="49.19125" lon="6.67978">
        <ele>225</ele>
        <time>2020-01-20T16:27:45.001Z</time>
      </trkpt>
      <trkpt lat="49.19118" lon="6.67968">
        <ele>225</ele>
        <time>2020-01-20T16:27:55.001Z</time>
      </trkpt>
      <trkpt lat="49.19108" lon="6.67962">
        <ele>225</ele>
        <time>2020-01-20T16:28:05.001Z</time>
      </trkpt>
      <trkpt lat="49.19098" lon="6.67953">
        <ele>225</ele>
        <time>2020-01-20T16:28:15.001Z</time>
      </trkpt>
      <trkpt lat="49.19089" lon="6.67942">
        <ele>225</ele>
        <time>2020-01-20T16:28:25.001Z</time>
      </trkpt>
      <trkpt lat="49.19076" lon="6.67932">
        <ele>227</ele>
        <time>2020-01-20T16:28:35.001Z</time>
      </trkpt>
      <trkpt lat="49.1906" lon="6.6792">
        <ele>227</ele>
        <time>2020-01-20T16:28:45.001Z</time>
      </trkpt>
      <trkpt lat="49.19048" lon="6.6791">
        <ele>221</ele>
        <time>2020-01-20T16:28:55.001Z</time>
      </trkpt>
      <trkpt lat="49.19038" lon="6.67902">
        <ele>221</ele>
        <time>2020-01-20T16:29:05.001Z</time>
      </trkpt>
      <trkpt lat="49.19027" lon="6.67894">
        <ele>221</ele>
        <time>2020-01-20T16:29:15.001Z</time>
      </trkpt>
      <trkpt lat="49.19014" lon="6.6789">
        <ele>221</ele>
        <time>2020-01-20T16:29:25.001Z</time>
      </trkpt>
      <trkpt lat="49.19001" lon="6.67897">
        <ele>222</ele>
        <time>2020-01-20T16:29:35.001Z</time>
      </trkpt>
      <trkpt lat="49.18989" lon="6.67901">
        <ele>223</ele>
        <time>2020-01-20T16:29:45.001Z</time>
      </trkpt>
      <trkpt lat="49.18977" lon="6.67905">
        <ele>222</ele>
        <time>2020-01-20T16:29:55.001Z</time>
      </trkpt>
      <trkpt lat="49.18965" lon="6.6791">
        <ele>221</ele>
        <time>2020-01-20T16:30:05.001Z</time>
      </trkpt>
      <trkpt lat="49.18953" lon="6.67911">
        <ele>221</ele>
        <time>2020-01-20T16:30:15.001Z</time>
      </trkpt>
      <trkpt lat="49.1894" lon="6.6792">
        <ele>225</ele>
        <time>2020-01-20T16:30:25.001Z</time>
      </trkpt>
      <trkpt lat="49.18929" lon="6.67932">
        <ele>224</ele>
        <time>2020-01-20T16:30:35.001Z</time>
      </trkpt>
      <trkpt lat="49.18918" lon="6.67942">
        <ele>225</ele>
        <time>2020-01-20T16:30:45.001Z</time>
      </trkpt>
      <trkpt lat="49.18906" lon="6.67952">
        <ele>221</ele>
        <time>2020-01-20T16:30:55.001Z</time>
      </trkpt>
      <trkpt lat="49.18894" lon="6.67962">
        <ele>222</ele>
        <time>2020-01-20T16:31:05.001Z</time>
      </trkpt>
      <trkpt lat="49.18883" lon="6.67972">
        <ele>222</ele>
        <time>2020-01-20T16:31:15.001Z</time>
      </trkpt>
      <trkpt lat="49.18872" lon="6.67986">
        <ele>222</ele>
        <time>2020-01-20T16:31:25.001Z</time>
      </trkpt>
      <trkpt lat="49.18863" lon="6.67998">
        <ele>222</ele>
        <time>2020-01-20T16:31:35.001Z</time>
      </trkpt>
      <trkpt lat="49.18852" lon="6.68009">
        <ele>225</ele>
        <time>2020-01-20T16:31:45.001Z</time>
      </trkpt>
      <trkpt lat="49.18841" lon="6.68019">
        <ele>225</ele>
        <time>2020-01-20T16:31:55.001Z</time>
      </trkpt>
      <trkpt lat="49.18829" lon="6.68031">
        <ele>222</ele>
        <time>2020-01-20T16:32:05.001Z</time>
      </trkpt>
      <trkpt lat="49.18817" lon="6.6804">
        <ele>222</ele>
        <time>2020-01-20T16:32:15.001Z</time>
      </trkpt>
      <trkpt lat="49.18807" lon="6.6805">
        <ele>222</ele>
        <time>2020-01-20T16:32:25.001Z</time>
      </trkpt>
      <trkpt lat="49.18796" lon="6.68063">
        <ele>222</ele>
        <time>2020-01-20T16:32:35.001Z</time>
      </trkpt>
      <trkpt lat="49.18788" lon="6.68077">
        <ele>221</ele>
        <time>2020-01-20T16:32:45.001Z</time>
      </trkpt>
      <trkpt lat="49.18776" lon="6.6809">
        <ele>224</ele>
        <time>2020-01-20T16:32:55.001Z</time>
      </trkpt>
      <trkpt lat="49.18766" lon="6.68102">
        <ele>224</ele>
        <time>2020-01-20T16:33:05.001Z</time>
      </trkpt>
      <trkpt lat="49.18756" lon="6.68115">
        <ele>224</ele>
        <time>2020-01-20T16:33:15.001Z</time>
      </trkpt>
      <trkpt lat="49.18744" lon="6.68127">
        <ele>221</ele>
        <time>2020-01-20T16:33:25.001Z</time>
      </trkpt>
      <trkpt lat="49.18733" lon="6.68137">
        <ele>221</ele>
        <time>2020-01-20T16:33:35.001Z</time>
      </trkpt>
      <trkpt lat="49.18722" lon="6.68143">
        <ele>221</ele>
        <time>2020-01-20T16:33:45.001Z</time>
      </trkpt>
      <trkpt lat="49.18712" lon="6.68152">
        <ele>221</ele>
        <time>2020-01-20T16:33:55.001Z</time>
      </trkpt>
      <trkpt lat="49.18701" lon="6.68154">
        <ele>221</ele>
        <time>2020-01-20T16:34:05.001Z</time>
      </trkpt>
      <trkpt lat="49.18687" lon="6.68164">
        <ele>220</ele>
        <time>2020-01-20T16:34:15.001Z</time>
      </trkpt>
      <trkpt lat="49.18675" lon="6.68171">
        <ele>222</ele>
        <time>2020-01-20T16:34:25.001Z</time>
      </trkpt>
      <trkpt lat="49.18662" lon="6.68175">
        <ele>221</ele>
        <time>2020-01-20T16:34:35.001Z</time>
      </trkpt>
      <trkpt lat="49.1865" lon="6.6818">
        <ele>221</ele>
        <time>2020-01-20T16:34:45.001Z</time>
      </trkpt>
      <trkpt lat="49.1864" lon="6.68187">
        <ele>221</ele>
        <time>2020-01-20T16:34:55.001Z</time>
      </trkpt>
      <trkpt lat="49.18628" lon="6.68196">
        <ele>221</ele>
        <time>2020-01-20T16:35:05.001Z</time>
      </trkpt>
      <trkpt lat="49.18616" lon="6.68201">
        <ele>221</ele>
        <time>2020-01-20T16:35:15.001Z</time>
      </trkpt>
      <trkpt lat="49.18606" lon="6.68215">
        <ele>222</ele>
        <time>2020-01-20T16:35:25.001Z</time>
      </trkpt>
      <trkpt lat="49.18596" lon="6.68221">
        <ele>222</ele>
        <time>2020-01-20T16:35:35.001Z</time>
      </trkpt>
      <trkpt lat="49.18586" lon="6.68226">
        <ele>223</ele>
        <time>2020-01-20T16:35:45.001Z</time>
      </trkpt>
      <trkpt lat="49.18574" lon="6.68232">
        <ele>223</ele>
        <time>2020-01-20T16:35:55.001Z</time>
      </trkpt>
      <trkpt lat="49.18561" lon="6.68241">
        <ele>223</ele>
        <time>2020-01-20T16:36:05.001Z</time>
      </trkpt>
      <trkpt lat="49.18549" lon="6.68253">
        <ele>229</ele>
        <time>2020-01-20T16:36:15.001Z</time>
      </trkpt>
      <trkpt lat="49.18538" lon="6.6826">
        <ele>229</ele>
        <time>2020-01-20T16:36:25.001Z</time>
      </trkpt>
      <trkpt lat="49.1853" lon="6.68261">
        <ele>228</ele>
        <time>2020-01-20T16:36:35.001Z</time>
      </trkpt>
      <trkpt lat="49.18516" lon="6.68261">
        <ele>228</ele>
        <time>2020-01-20T16:36:45.001Z</time>
      </trkpt>
      <trkpt lat="49.18501" lon="6.68263">
        <ele>227</ele>
        <time>2020-01-20T16:36:55.001Z</time>
      </trkpt>
      <trkpt lat="49.18489" lon="6.6827">
        <ele>228</ele>
        <time>2020-01-20T16:37:05.001Z</time>
      </trkpt>
      <trkpt lat="49.18479" lon="6.68275">
        <ele>228</ele>
        <time>2020-01-20T16:37:15.001Z</time>
      </trkpt>
      <trkpt lat="49.18468" lon="6.68284">
        <ele>229</ele>
        <time>2020-01-20T16:37:25.001Z</time>
      </trkpt>
      <trkpt lat="49.18456" lon="6.68289">
        <ele>230</ele>
        <time>2020-01-20T16:37:35.001Z</time>
      </trkpt>
      <trkpt lat="49.18451" lon="6.68302">
        <ele>231</ele>
        <time>2020-01-20T16:37:45.001Z</time>
      </trkpt>
      <trkpt lat="49.18443" lon="6.68313">
        <ele>232</ele>
        <time>2020-01-20T16:37:55.001Z</time>
      </trkpt>
      <trkpt lat="49.18437" lon="6.68327">
        <ele>233</ele>
        <time>2020-01-20T16:38:05.001Z</time>
      </trkpt>
      <trkpt lat="49.18431" lon="6.68341">
        <ele>238</ele>
        <time>2020-01-20T16:38:15.001Z</time>
      </trkpt>
      <trkpt lat="49.18426" lon="6.68356">
        <ele>238</ele>
        <time>2020-01-20T16:38:25.001Z</time>
      </trkpt>
      <trkpt lat="49.18423" lon="6.68365">
        <ele>239</ele>
        <time>2020-01-20T16:38:35.001Z</time>
      </trkpt>
      <trkpt lat="49.18415" lon="6.68369">
        <ele>240</ele>
        <time>2020-01-20T16:38:45.001Z</time>
      </trkpt>
      <trkpt lat="49.18407" lon="6.6837">
        <ele>240</ele>
        <time>2020-01-20T16:38:55.001Z</time>
      </trkpt>
      <trkpt lat="49.18394" lon="6.68378">
        <ele>240</ele>
        <time>2020-01-20T16:39:05.001Z</time>
      </trkpt>
      <trkpt lat="49.1838" lon="6.68384">
        <ele>241</ele>
        <time>2020-01-20T16:39:15.001Z</time>
      </trkpt>
      <trkpt lat="49.18368" lon="6.68386">
        <ele>241</ele>
        <time>2020-01-20T16:39:25.001Z</time>
      </trkpt>
      <trkpt lat="49.18355" lon="6.68389">
        <ele>241</ele>
        <time>2020-01-20T16:39:35.001Z</time>
      </trkpt>
      <trkpt lat="49.18345" lon="6.6839">
        <ele>241</ele>
        <time>2020-01-20T16:39:45.001Z</time>
      </trkpt>
      <trkpt lat="49.18333" lon="6.68387">
        <ele>244</ele>
        <time>2020-01-20T16:39:55.001Z</time>
      </trkpt>
      <trkpt lat="49.18321" lon="6.68382">
        <ele>244</ele>
        <time>2020-01-20T16:40:05.001Z</time>
      </trkpt>
      <trkpt lat="49.18309" lon="6.68374">
        <ele>244</ele>
        <time>2020-01-20T16:40:15.001Z</time>
      </trkpt>
      <trkpt lat="49.18298" lon="6.68364">
        <ele>244</ele>
        <time>2020-01-20T16:40:25.001Z</time>
      </trkpt>
      <trkpt lat="49.18288" lon="6.68355">
        <ele>244</ele>
        <time>2020-01-20T16:40:35.001Z</time>
      </trkpt>
      <trkpt lat="49.18273" lon="6.68348">
        <ele>245</ele>
        <time>2020-01-20T16:40:45.001Z</time>
      </trkpt>
      <trkpt lat="49.1826" lon="6.68341">
        <ele>245</ele>
        <time>2020-01-20T16:40:55.001Z</time>
      </trkpt>
      <trkpt lat="49.18247" lon="6.6833">
        <ele>245</ele>
        <time>2020-01-20T16:41:05.001Z</time>
      </trkpt>
      <trkpt lat="49.18234" lon="6.68321">
        <ele>244</ele>
        <time>2020-01-20T16:41:15.001Z</time>
      </trkpt>
      <trkpt lat="49.18222" lon="6.68317">
        <ele>243</ele>
        <time>2020-01-20T16:41:25.001Z</time>
      </trkpt>
      <trkpt lat="49.18213" lon="6.68311">
        <ele>243</ele>
        <time>2020-01-20T16:41:35.001Z</time>
      </trkpt>
      <trkpt lat="49.18201" lon="6.68307">
        <ele>242</ele>
        <time>2020-01-20T16:41:45.001Z</time>
      </trkpt>
      <trkpt lat="49.18191" lon="6.68298">
        <ele>242</ele>
        <time>2020-01-20T16:41:55.001Z</time>
      </trkpt>
      <trkpt lat="49.18181" lon="6.68289">
        <ele>242</ele>
        <time>2020-01-20T16:42:05.001Z</time>
      </trkpt>
      <trkpt lat="49.18168" lon="6.68279">
        <ele>241</ele>
        <time>2020-01-20T16:42:15.001Z</time>
      </trkpt>
      <trkpt lat="49.18154" lon="6.68267">
        <ele>237</ele>
        <time>2020-01-20T16:42:25.001Z</time>
      </trkpt>
      <trkpt lat="49.18142" lon="6.68255">
        <ele>236</ele>
        <time>2020-01-20T16:42:35.001Z</time>
      </trkpt>
      <trkpt lat="49.18136" lon="6.68244">
        <ele>233</ele>
        <time>2020-01-20T16:42:45.001Z</time>
      </trkpt>
      <trkpt lat="49.18127" lon="6.68231">
        <ele>232</ele>
        <time>2020-01-20T16:42:55.001Z</time>
      </trkpt>
      <trkpt lat="49.18119" lon="6.68215">
        <ele>232</ele>
        <time>2020-01-20T16:43:05.001Z</time>
      </trkpt>
      <trkpt lat="49.18115" lon="6.68203">
        <ele>231</ele>
        <time>2020-01-20T16:43:15.001Z</time>
      </trkpt>
      <trkpt lat="49.18111" lon="6.6819">
        <ele>231</ele>
        <time>2020-01-20T16:43:25.001Z</time>
      </trkpt>
      <trkpt lat="49.18105" lon="6.68172">
        <ele>230</ele>
        <time>2020-01-20T16:43:35.001Z</time>
      </trkpt>
      <trkpt lat="49.181" lon="6.68156">
        <ele>229</ele>
        <time>2020-01-20T16:43:45.001Z</time>
      </trkpt>
      <trkpt lat="49.18095" lon="6.68144">
        <ele>229</ele>
        <time>2020-01-20T16:43:55.001Z</time>
      </trkpt>
      <trkpt lat="49.18085" lon="6.68127">
        <ele>230</ele>
        <time>2020-01-20T16:44:05.001Z</time>
      </trkpt>
      <trkpt lat="49.18078" lon="6.68109">
        <ele>235</ele>
        <time>2020-01-20T16:44:15.001Z</time>
      </trkpt>
      <trkpt lat="49.18072" lon="6.68086">
        <ele>234</ele>
        <time>2020-01-20T16:44:25.001Z</time>
      </trkpt>
      <trkpt lat="49.18065" lon="6.68067">
        <ele>233</ele>
        <time>2020-01-20T16:44:35.001Z</time>
      </trkpt>
      <trkpt lat="49.18056" lon="6.68054">
        <ele>233</ele>
        <time>2020-01-20T16:44:45.001Z</time>
      </trkpt>
      <trkpt lat="49.18048" lon="6.68042">
        <ele>232</ele>
        <time>2020-01-20T16:44:55.001Z</time>
      </trkpt>
      <trkpt lat="49.1804" lon="6.68029">
        <ele>232</ele>
        <time>2020-01-20T16:45:05.001Z</time>
      </trkpt>
      <trkpt lat="49.18028" lon="6.68019">
        <ele>232</ele>
        <time>2020-01-20T16:45:15.001Z</time>
      </trkpt>
      <trkpt lat="49.18016" lon="6.68016">
        <ele>232</ele>
        <time>2020-01-20T16:45:25.001Z</time>
      </trkpt>
      <trkpt lat="49.18005" lon="6.68013">
        <ele>232</ele>
        <time>2020-01-20T16:45:35.001Z</time>
      </trkpt>
      <trkpt lat="49.17995" lon="6.68005">
        <ele>232</ele>
        <time>2020-01-20T16:45:45.001Z</time>
      </trkpt>
      <trkpt lat="49.17982" lon="6.67996">
        <ele>228</ele>
        <time>2020-01-20T16:45:55.001Z</time>
      </trkpt>
      <trkpt lat="49.1797" lon="6.67988">
        <ele>226</ele>
        <time>2020-01-20T16:46:05.001Z</time>
      </trkpt>
      <trkpt lat="49.17962" lon="6.67979">
        <ele>225</ele>
        <time>2020-01-20T16:46:15.001Z</time>
      </trkpt>
      <trkpt lat="49.17951" lon="6.67971">
        <ele>224</ele>
        <time>2020-01-20T16:46:25.001Z</time>
      </trkpt>
      <trkpt lat="49.17936" lon="6.67964">
        <ele>223</ele>
        <time>2020-01-20T16:46:35.001Z</time>
      </trkpt>
      <trkpt lat="49.17924" lon="6.67959">
        <ele>223</ele>
        <time>2020-01-20T16:46:45.001Z</time>
      </trkpt>
      <trkpt lat="49.17912" lon="6.67958">
        <ele>221</ele>
        <time>2020-01-20T16:46:55.001Z</time>
      </trkpt>
      <trkpt lat="49.17899" lon="6.67958">
        <ele>221</ele>
        <time>2020-01-20T16:47:05.001Z</time>
      </trkpt>
      <trkpt lat="49.17894" lon="6.67946">
        <ele>221</ele>
        <time>2020-01-20T16:47:15.001Z</time>
      </trkpt>
      <trkpt lat="49.17897" lon="6.67931">
        <ele>220</ele>
        <time>2020-01-20T16:47:25.001Z</time>
      </trkpt>
      <trkpt lat="49.17897" lon="6.67915">
        <ele>218</ele>
        <time>2020-01-20T16:47:35.001Z</time>
      </trkpt>
      <trkpt lat="49.17891" lon="6.67901">
        <ele>219</ele>
        <time>2020-01-20T16:47:45.001Z</time>
      </trkpt>
      <trkpt lat="49.17882" lon="6.67886">
        <ele>219</ele>
        <time>2020-01-20T16:47:55.001Z</time>
      </trkpt>
      <trkpt lat="49.1787" lon="6.67873">
        <ele>219</ele>
        <time>2020-01-20T16:48:05.001Z</time>
      </trkpt>
      <trkpt lat="49.17858" lon="6.67866">
        <ele>219</ele>
        <time>2020-01-20T16:48:15.001Z</time>
      </trkpt>
      <trkpt lat="49.17847" lon="6.67859">
        <ele>219</ele>
        <time>2020-01-20T16:48:25.001Z</time>
      </trkpt>
      <trkpt lat="49.17839" lon="6.67853">
        <ele>218</ele>
        <time>2020-01-20T16:48:35.001Z</time>
      </trkpt>
      <trkpt lat="49.17829" lon="6.67848">
        <ele>219</ele>
        <time>2020-01-20T16:48:45.001Z</time>
      </trkpt>
      <trkpt lat="49.17817" lon="6.67845">
        <ele>219</ele>
        <time>2020-01-20T16:48:55.001Z</time>
      </trkpt>
      <trkpt lat="49.17806" lon="6.67839">
        <ele>220</ele>
        <time>2020-01-20T16:49:05.001Z</time>
      </trkpt>
      <trkpt lat="49.17799" lon="6.6783">
        <ele>221</ele>
        <time>2020-01-20T16:49:15.001Z</time>
      </trkpt>
      <trkpt lat="49.17791" lon="6.6782">
        <ele>221</ele>
        <time>2020-01-20T16:49:25.001Z</time>
      </trkpt>
      <trkpt lat="49.17783" lon="6.67805">
        <ele>221</ele>
        <time>2020-01-20T16:49:35.001Z</time>
      </trkpt>
      <trkpt lat="49.17775" lon="6.67793">
        <ele>221</ele>
        <time>2020-01-20T16:49:45.001Z</time>
      </trkpt>
      <trkpt lat="49.17763" lon="6.67787">
        <ele>222</ele>
        <time>2020-01-20T16:49:55.001Z</time>
      </trkpt>
      <trkpt lat="49.17752" lon="6.67794">
        <ele>222</ele>
        <time>2020-01-20T16:50:05.001Z</time>
      </trkpt>
      <trkpt lat="49.17746" lon="6.67782">
        <ele>222</ele>
        <time>2020-01-20T16:50:15.001Z</time>
      </trkpt>
      <trkpt lat="49.17745" lon="6.67771">
        <ele>222</ele>
        <time>2020-01-20T16:50:25.001Z</time>
      </trkpt>
      <trkpt lat="49.17746" lon="6.6776">
        <ele>222</ele>
        <time>2020-01-20T16:50:35.001Z</time>
      </trkpt>
      <trkpt lat="49.17747" lon="6.67744">
        <ele>223</ele>
        <time>2020-01-20T16:50:45.001Z</time>
      </trkpt>
      <trkpt lat="49.17749" lon="6.67725">
        <ele>223</ele>
        <time>2020-01-20T16:50:55.001Z</time>
      </trkpt>
      <trkpt lat="49.17751" lon="6.67707">
        <ele>224</ele>
        <time>2020-01-20T16:51:05.001Z</time>
      </trkpt>
      <trkpt lat="49.17751" lon="6.67688">
        <ele>224</ele>
        <time>2020-01-20T16:51:15.001Z</time>
      </trkpt>
      <trkpt lat="49.17751" lon="6.67669">
        <ele>225</ele>
        <time>2020-01-20T16:51:25.001Z</time>
      </trkpt>
      <trkpt lat="49.17748" lon="6.67649">
        <ele>225</ele>
        <time>2020-01-20T16:51:35.001Z</time>
      </trkpt>
      <trkpt lat="49.17746" lon="6.67627">
        <ele>226</ele>
        <time>2020-01-20T16:51:45.001Z</time>
      </trkpt>
      <trkpt lat="49.17746" lon="6.67608">
        <ele>227</ele>
        <time>2020-01-20T16:51:55.001Z</time>
      </trkpt>
      <trkpt lat="49.17743" lon="6.67589">
        <ele>227</ele>
        <time>2020-01-20T16:52:05.001Z</time>
      </trkpt>
      <trkpt lat="49.17732" lon="6.67586">
        <ele>227</ele>
        <time>2020-01-20T16:52:15.001Z</time>
      </trkpt>
      <trkpt lat="49.17723" lon="6.67584">
        <ele>227</ele>
        <time>2020-01-20T16:52:25.001Z</time>
      </trkpt>
      <trkpt lat="49.17717" lon="6.67576">
        <ele>229</ele>
        <time>2020-01-20T16:52:35.001Z</time>
      </trkpt>
      <trkpt lat="49.17716" lon="6.67581">
        <ele>229</ele>
        <time>2020-01-20T16:53:02.000Z</time>
      </trkpt>
      <trkpt lat="49.17715" lon="6.6758">
        <ele>229</ele>
        <time>2020-01-20T16:53:11.001Z</time>
      </trkpt>
      <trkpt lat="49.17714" lon="6.6758">
        <ele>229</ele>
        <time>2020-01-20T16:53:59.001Z</time>
      </trkpt>
    </trkseg>
  </trk>
</gpx>